Darstellungsparameter: Aktuell verwendete Einstellungen:
Skalierung der Graphiken ... ?
xyx+y,   Skalierungsfaktor:      Skalierung: Modus: x, Faktor: 1
Darstellungszeitraum ... ?
Vom - - bis: - -   Zeitraum: 28.06.2003 - 27.12.2003
Min/Max/Avg-Anzeige ... ?
Zeige MMA aktuell
Zeige MMA Monat
Zeige MMA alles
Zeige --A aktuell
Zeige --A Monat
Zeige --A alles
Keine MMA-Anzeige
MMA:
Keine MMA-Graphiken
MMA-Basis: 28.06.2003 - 27.12.2003
Quicknavigation für Darstellung... ?
Tage:      1T, 2T, 3T, 5T -1T -2T -3T -5T +1T +2T +3T +5T
Wochen: 1W, 2W, 3W -1W -2W -3W +1W +2W +3W
Monate: 1M, 3M, 6M -1M -3M -6M +1M +3M +6M
Jahre:    1J, 3J, 5J, 10J -1J -3J -5J -10J +1J +3J +5J +10J
Nutze für die Darstellung ... ?
Originaldaten oder Mittelwerte auf ...
Stundenbasis Tagesbasis Wochenbasis
Monatsbasis Jahresbasis      Datenbasis: Original-Daten
Darstellen als:
Statistik (Auto) Statistik J:M      Darstellung:
Zur Graphik,    zurück zur Übersicht aller Sensoren.
 
Tabellarische Datenbersicht: ?
 
Sensor: Nr:Datum:Temp:Abs-Feuchte:Windchill:Wind:
Aussen-T/F 1 28-06-2003 00:11:25 20.8 C 12.31 g/m*3 20.8 C 0 km/h
2 28-06-2003 00:33:25 20.6 C 12.53 g/m*3 20.6 C 0 km/h
3 28-06-2003 00:55:25 20.2 C 12.76 g/m*3 20.2 C 0 km/h
4 28-06-2003 01:17:25 20.4 C 12.74 g/m*3 20.4 C 0 km/h
5 28-06-2003 01:39:25 20 C 12.79 g/m*3 20 C 0 km/h
6 28-06-2003 02:01:25 19.9 C 13.06 g/m*3 19.9 C 0 km/h
7 28-06-2003 02:23:25 19.7 C 13.08 g/m*3 19.7 C 0 km/h
8 28-06-2003 02:45:25 19.7 C 13.08 g/m*3 19.7 C 0 km/h
9 28-06-2003 03:07:25 19.5 C 13.26 g/m*3 19.5 C 0 km/h
10 28-06-2003 03:29:25 19.5 C 13.26 g/m*3 19.5 C 0 km/h
11 28-06-2003 03:51:25 19.4 C 12.68 g/m*3 19.4 C 0 km/h
12 28-06-2003 04:13:25 19 C 12.55 g/m*3 19 C 0 km/h
13 28-06-2003 04:35:25 18.8 C 12.56 g/m*3 18.8 C 0 km/h
14 28-06-2003 04:57:25 18.8 C 12.88 g/m*3 18.8 C 0 km/h
15 28-06-2003 05:19:25 18.8 C 13.21 g/m*3 18.8 C 0 km/h
16 28-06-2003 05:41:25 19.3 C 13.1 g/m*3 19.3 C 0 km/h
17 28-06-2003 06:03:25 19.3 C 13.1 g/m*3 19.3 C 0 km/h
18 28-06-2003 06:25:25 19.3 C 13.1 g/m*3 19.3 C 0 km/h
19 28-06-2003 06:47:25 19.2 C 13.03 g/m*3 19.2 C 0 km/h
20 28-06-2003 07:09:25 19.2 C 13.03 g/m*3 19.2 C 0 km/h
21 28-06-2003 07:31:25 19.3 C 13.1 g/m*3 19.3 C 0 km/h
22 28-06-2003 07:53:25 19.6 C 12.83 g/m*3 19.6 C 0 km/h
23 28-06-2003 08:15:25 19.4 C 12.85 g/m*3 19.4 C 0 km/h
24 28-06-2003 08:37:25 20 C 12.62 g/m*3 20 C 0 km/h
25 28-06-2003 08:59:25 20 C 12.44 g/m*3 20 C 0 km/h
Sensor: Nr:Datum:Temp:Abs-Feuchte:Windchill:Wind:
Aussen-T/F 26 28-06-2003 09:21:25 20 C 11.92 g/m*3 20 C 0 km/h
27 28-06-2003 09:43:25 20.4 C 12.03 g/m*3 20.4 C 0 km/h
28 28-06-2003 10:05:25 20.7 C 11.88 g/m*3 20.7 C 0 km/h
29 28-06-2003 10:27:25 21.1 C 11.79 g/m*3 21.1 C 0 km/h
30 28-06-2003 10:49:25 23.2 C 11.85 g/m*3 23.2 C 0 km/h
31 28-06-2003 11:11:25 23.4 C 11.57 g/m*3 23.4 C 0 km/h
32 28-06-2003 11:33:25 23.5 C 11.84 g/m*3 23.5 C 0 km/h
33 28-06-2003 11:55:25 24.1 C 11.6 g/m*3 24.1 C 0 km/h
34 28-06-2003 12:17:25 25.7 C 11.49 g/m*3 25.7 C 0 km/h
35 28-06-2003 12:39:25 25.8 C 11.32 g/m*3 25.8 C 0 km/h
36 28-06-2003 13:01:25 26.3 C 10.89 g/m*3 26.3 C 0 km/h
37 28-06-2003 13:23:25 27.8 C 9.95 g/m*3 27.8 C 0 km/h
38 28-06-2003 13:45:25 26.2 C 10.34 g/m*3 26.2 C 0 km/h
39 28-06-2003 14:07:25 26.4 C 10.46 g/m*3 26.4 C 0 km/h
40 28-06-2003 14:29:25 25.5 C 10.65 g/m*3 25.5 C 0 km/h
41 28-06-2003 14:51:25 24.5 C 10.97 g/m*3 24.5 C 0 km/h
42 28-06-2003 15:13:25 26.1 C 10.53 g/m*3 26.1 C 0 km/h
43 28-06-2003 15:35:25 26.8 C 10.18 g/m*3 26.8 C 0 km/h
44 28-06-2003 15:57:25 27.5 C 10.32 g/m*3 27.5 C 0 km/h
45 28-06-2003 16:19:25 28.3 C 9.95 g/m*3 28.3 C 0 km/h
46 28-06-2003 16:41:25 28.4 C 10.01 g/m*3 28.4 C 0 km/h
47 28-06-2003 17:03:25 30 C 9.7 g/m*3 30 C 0 km/h
48 28-06-2003 17:25:25 30.4 C 9.92 g/m*3 30.4 C 0 km/h
49 28-06-2003 17:47:25 30.6 C 9.71 g/m*3 30.6 C 0 km/h
50 28-06-2003 18:09:25 30 C 9.7 g/m*3 30 C 0 km/h
Sensor: Nr:Datum:Temp:Abs-Feuchte:Windchill:Wind:
Aussen-T/F 51 28-06-2003 18:31:25 28.7 C 9.89 g/m*3 28.7 C 0 km/h
52 28-06-2003 18:53:25 26.8 C 9.93 g/m*3 26.8 C 0 km/h
53 28-06-2003 19:15:25 26.6 C 10.32 g/m*3 26.6 C 0 km/h
54 28-06-2003 19:37:25 25.8 C 10.35 g/m*3 25.8 C 0 km/h
55 28-06-2003 19:59:25 26.7 C 10.12 g/m*3 26.7 C 0 km/h
56 28-06-2003 20:21:25 25.7 C 10.29 g/m*3 25.7 C 0 km/h
57 28-06-2003 20:43:25 24.5 C 10.52 g/m*3 24.5 C 0 km/h
58 28-06-2003 21:05:25 23.6 C 10.63 g/m*3 23.6 C 0 km/h
59 28-06-2003 21:27:25 23.5 C 11 g/m*3 23.5 C 0 km/h
60 28-06-2003 21:49:25 22.8 C 11.18 g/m*3 22.8 C 0 km/h
61 28-06-2003 22:11:25 21.7 C 11.06 g/m*3 21.7 C 0 km/h
62 28-06-2003 22:33:25 21 C 10.99 g/m*3 21 C 0 km/h
63 28-06-2003 22:55:25 20.6 C 11.1 g/m*3 20.6 C 0 km/h
64 28-06-2003 23:17:25 20.5 C 11.03 g/m*3 20.5 C 0 km/h
65 28-06-2003 23:39:25 20.4 C 11.14 g/m*3 20.4 C 0 km/h
66 29-06-2003 00:01:25 19.8 C 11.27 g/m*3 19.8 C 0 km/h
67 29-06-2003 00:23:25 19.6 C 11.31 g/m*3 19.6 C 0 km/h
68 29-06-2003 00:45:25 19.3 C 11.28 g/m*3 19.3 C 0 km/h
69 29-06-2003 01:07:25 19.2 C 11.21 g/m*3 19.2 C 0 km/h
70 29-06-2003 01:29:25 19.2 C 11.05 g/m*3 19.2 C 0 km/h
71 29-06-2003 01:51:25 19.1 C 11.15 g/m*3 19.1 C 0 km/h
72 29-06-2003 02:13:25 18.9 C 11.18 g/m*3 18.9 C 0 km/h
73 29-06-2003 02:35:25 18.7 C 10.73 g/m*3 18.7 C 0 km/h
74 29-06-2003 02:57:25 18.3 C 10.79 g/m*3 18.3 C 0 km/h
75 29-06-2003 03:19:25 18.4 C 10.54 g/m*3 18.4 C 0 km/h
Sensor: Nr:Datum:Temp:Abs-Feuchte:Windchill:Wind:
Aussen-T/F 76 29-06-2003 03:41:25 18 C 9.98 g/m*3 18 C 0 km/h
77 29-06-2003 04:03:25 17.7 C 10.11 g/m*3 17.7 C 0 km/h
78 29-06-2003 04:25:25 17.5 C 10.29 g/m*3 17.5 C 0 km/h
79 29-06-2003 04:47:25 17.1 C 10.19 g/m*3 17.1 C 0 km/h
80 29-06-2003 05:09:25 16.6 C 10.45 g/m*3 16.6 C 0 km/h
81 29-06-2003 05:31:25 16.2 C 10.07 g/m*3 16.2 C 0 km/h
82 29-06-2003 05:53:25 16.1 C 10.28 g/m*3 16.1 C 0 km/h
83 29-06-2003 06:15:25 15.9 C 10.56 g/m*3 15.9 C 0 km/h
84 29-06-2003 06:37:25 16 C 10.63 g/m*3 16 C 0 km/h
85 29-06-2003 06:59:25 16.1 C 10.55 g/m*3 16.1 C 0 km/h
86 29-06-2003 07:21:25 16.2 C 10.62 g/m*3 16.2 C 0 km/h
87 29-06-2003 07:43:25 16.5 C 10.81 g/m*3 16.5 C 0 km/h
88 29-06-2003 08:05:25 17.7 C 10.71 g/m*3 17.7 C 0 km/h
89 29-06-2003 08:27:25 19 C 10.1 g/m*3 19 C 0 km/h
90 29-06-2003 08:49:25 18.9 C 10.53 g/m*3 18.9 C 0 km/h
91 29-06-2003 09:11:25 19.7 C 11.04 g/m*3 19.7 C 0 km/h
92 29-06-2003 09:33:25 21 C 11.17 g/m*3 21 C 0 km/h
93 29-06-2003 09:55:25 22.4 C 11.52 g/m*3 22.4 C 0 km/h
94 29-06-2003 10:17:25 23.5 C 11.42 g/m*3 23.5 C 0 km/h
95 29-06-2003 10:39:25 24.5 C 11.19 g/m*3 24.5 C 0 km/h
96 29-06-2003 11:01:25 25.6 C 10.95 g/m*3 25.6 C 0 km/h
97 29-06-2003 11:23:25 26.5 C 10.51 g/m*3 26.5 C 0 km/h
98 29-06-2003 11:45:25 27.5 C 10.05 g/m*3 27.5 C 0 km/h
99 29-06-2003 12:07:25 29 C 10.05 g/m*3 29 C 0 km/h
100 29-06-2003 12:29:25 30 C 10.01 g/m*3 30 C 0 km/h
Sensor: Nr:Datum:Temp:Abs-Feuchte:Windchill:Wind:
Aussen-T/F 101 29-06-2003 12:51:25 29.6 C 9.5 g/m*3 29.6 C 0 km/h
102 29-06-2003 13:13:25 29.9 C 9.35 g/m*3 29.9 C 0 km/h
103 29-06-2003 13:35:25 29.2 C 9.29 g/m*3 29.2 C 0 km/h
104 29-06-2003 13:57:25 30.6 C 8.77 g/m*3 30.6 C 0 km/h
105 29-06-2003 14:19:25 30.1 C 8.84 g/m*3 30.1 C 0 km/h
106 29-06-2003 14:41:25 31.1 C 8.69 g/m*3 31.1 C 0 km/h
107 29-06-2003 15:03:25 32 C 7.43 g/m*3 32 C 0 km/h
108 29-06-2003 15:25:25 30.9 C 8.28 g/m*3 30.9 C 0 km/h
109 29-06-2003 15:47:25 31.2 C 8.41 g/m*3 31.2 C 0 km/h
110 29-06-2003 16:09:25 30.9 C 7.96 g/m*3 30.9 C 0 km/h
111 29-06-2003 16:31:25 32.2 C 8.53 g/m*3 32.2 C 0 km/h
112 29-06-2003 16:53:25 32 C 8.1 g/m*3 32 C 0 km/h
113 29-06-2003 17:21:02 32.8 C 7.04 g/m*3 32.8 C 0 km/h
114 29-06-2003 17:27:02 32.9 C 7.08 g/m*3 32.9 C 0 km/h
115 29-06-2003 17:33:01 33.3 C 7.23 g/m*3 33.3 C 0 km/h
116 29-06-2003 17:39:01 32.7 C 7.01 g/m*3 32.7 C 0 km/h
117 29-06-2003 17:45:01 32.8 C 7.04 g/m*3 32.8 C 0 km/h
118 29-06-2003 17:51:01 33.1 C 7.16 g/m*3 33.1 C 0 km/h
119 29-06-2003 17:57:01 33.3 C 7.23 g/m*3 33.3 C 0 km/h
120 29-06-2003 18:03:01 32.9 C 7.08 g/m*3 32.9 C 0 km/h
121 29-06-2003 18:09:01 32.6 C 7.32 g/m*3 32.6 C 0 km/h
122 29-06-2003 18:15:01 32 C 8.1 g/m*3 32 C 0 km/h
123 29-06-2003 18:21:01 31.9 C 8.73 g/m*3 31.9 C 0 km/h
124 29-06-2003 18:27:01 31.7 C 7.64 g/m*3 31.7 C 0 km/h
125 29-06-2003 18:33:02 31.5 C 9.2 g/m*3 31.5 C 0 km/h
Sensor: Nr:Datum:Temp:Abs-Feuchte:Windchill:Wind:
Aussen-T/F 126 29-06-2003 18:39:02 31.4 C 9.81 g/m*3 31.4 C 0 km/h
127 29-06-2003 18:45:02 31.3 C 10.08 g/m*3 31.3 C 0 km/h
128 29-06-2003 18:51:02 31 C 8.64 g/m*3 31 C 0 km/h
129 29-06-2003 19:03:02 31.3 C 8.13 g/m*3 31.3 C 0 km/h
130 29-06-2003 19:09:02 31.4 C 8.17 g/m*3 31.4 C 0 km/h
131 29-06-2003 19:15:02 31.3 C 7.81 g/m*3 31.3 C 0 km/h
132 29-06-2003 19:21:02 31.3 C 7.81 g/m*3 31.3 C 0 km/h
133 29-06-2003 19:27:02 31.3 C 7.81 g/m*3 31.3 C 0 km/h
134 29-06-2003 19:33:01 31 C 8 g/m*3 31 C 0 km/h
135 29-06-2003 19:39:01 30.7 C 8.19 g/m*3 30.7 C 0 km/h
136 29-06-2003 19:45:01 30.8 C 8.55 g/m*3 30.8 C 0 km/h
137 29-06-2003 19:51:01 30.6 C 8.14 g/m*3 30.6 C 0 km/h
138 29-06-2003 19:57:01 30.6 C 8.77 g/m*3 30.6 C 0 km/h
139 29-06-2003 20:03:02 30.6 C 8.77 g/m*3 30.6 C 0 km/h
140 29-06-2003 20:09:02 30.2 C 9.2 g/m*3 30.2 C 0 km/h
141 29-06-2003 20:15:02 29.8 C 9.6 g/m*3 29.8 C 0 km/h
142 29-06-2003 20:21:02 29.8 C 10.5 g/m*3 29.8 C 0 km/h
143 29-06-2003 20:27:02 30 C 10.31 g/m*3 30 C 0 km/h
144 29-06-2003 20:33:02 29.9 C 9.65 g/m*3 29.9 C 0 km/h
145 29-06-2003 20:39:02 29.8 C 10.2 g/m*3 29.8 C 0 km/h
146 29-06-2003 20:45:02 29.7 C 10.14 g/m*3 29.7 C 0 km/h
147 29-06-2003 20:51:02 29.6 C 10.39 g/m*3 29.6 C 0 km/h
148 29-06-2003 20:57:02 29.1 C 10.11 g/m*3 29.1 C 0 km/h
149 29-06-2003 21:03:02 28.5 C 10.62 g/m*3 28.5 C 0 km/h
150 29-06-2003 21:09:02 27.6 C 10.64 g/m*3 27.6 C 0 km/h
Sensor: Nr:Datum:Temp:Abs-Feuchte:Windchill:Wind:
Aussen-T/F 151 29-06-2003 21:15:02 26.6 C 10.32 g/m*3 26.6 C 0 km/h
152 29-06-2003 21:21:02 26.2 C 10.59 g/m*3 26.2 C 0 km/h
153 29-06-2003 21:27:02 25.8 C 10.35 g/m*3 25.8 C 0 km/h
154 29-06-2003 21:34:01 25.6 C 10.24 g/m*3 25.6 C 0 km/h
155 29-06-2003 21:40:01 25.4 C 10.12 g/m*3 25.4 C 0 km/h
156 29-06-2003 21:46:01 24.9 C 10.3 g/m*3 24.9 C 0 km/h
157 29-06-2003 21:52:01 24.8 C 10.24 g/m*3 24.8 C 0 km/h
158 29-06-2003 21:58:01 24.8 C 10.47 g/m*3 24.8 C 0 km/h
159 29-06-2003 22:04:01 24.5 C 10.07 g/m*3 24.5 C 0 km/h
160 29-06-2003 22:10:01 24.5 C 10.3 g/m*3 24.5 C 0 km/h
161 29-06-2003 22:16:01 24.3 C 9.96 g/m*3 24.3 C 0 km/h
162 29-06-2003 22:22:01 23.9 C 10.38 g/m*3 23.9 C 0 km/h
163 29-06-2003 22:28:01 23.8 C 10.33 g/m*3 23.8 C 0 km/h
164 29-06-2003 22:34:01 23.7 C 10.27 g/m*3 23.7 C 0 km/h
165 29-06-2003 22:40:01 23.6 C 10.21 g/m*3 23.6 C 0 km/h
166 29-06-2003 22:46:01 23.3 C 10.25 g/m*3 23.3 C 0 km/h
167 29-06-2003 22:52:01 23.1 C 9.92 g/m*3 23.1 C 0 km/h
168 29-06-2003 22:58:01 23 C 10.07 g/m*3 23 C 0 km/h
169 29-06-2003 23:04:01 22.8 C 9.75 g/m*3 22.8 C 0 km/h
170 29-06-2003 23:10:01 22.8 C 9.35 g/m*3 22.8 C 0 km/h
171 29-06-2003 23:16:01 22.8 C 9.35 g/m*3 22.8 C 0 km/h
172 29-06-2003 23:22:01 22.7 C 9.5 g/m*3 22.7 C 0 km/h
173 29-06-2003 23:28:01 22.4 C 9.14 g/m*3 22.4 C 0 km/h
174 29-06-2003 23:34:01 22.3 C 9.48 g/m*3 22.3 C 0 km/h
175 29-06-2003 23:40:01 22.1 C 8.98 g/m*3 22.1 C 0 km/h
Sensor: Nr:Datum:Temp:Abs-Feuchte:Windchill:Wind:
Aussen-T/F 176 29-06-2003 23:46:01 21.9 C 9.26 g/m*3 21.9 C 0 km/h
177 29-06-2003 23:52:01 21.9 C 9.26 g/m*3 21.9 C 0 km/h
178 29-06-2003 23:58:01 21.8 C 9.02 g/m*3 21.8 C 0 km/h
179 30-06-2003 00:04:01 21.6 C 9.1 g/m*3 21.6 C 0 km/h
180 30-06-2003 00:10:01 21.6 C 8.91 g/m*3 21.6 C 0 km/h
181 30-06-2003 00:16:01 21.6 C 8.91 g/m*3 21.6 C 0 km/h
182 30-06-2003 00:22:01 21.4 C 8.62 g/m*3 21.4 C 0 km/h
183 30-06-2003 00:28:01 21.3 C 8.76 g/m*3 21.3 C 0 km/h
184 30-06-2003 00:34:01 21.1 C 8.84 g/m*3 21.1 C 0 km/h
185 30-06-2003 00:40:01 20.9 C 8.74 g/m*3 20.9 C 0 km/h
186 30-06-2003 00:46:01 20.8 C 9.05 g/m*3 20.8 C 0 km/h
187 30-06-2003 00:52:01 20.7 C 9.18 g/m*3 20.7 C 0 km/h
188 30-06-2003 00:58:01 20.6 C 9.13 g/m*3 20.6 C 0 km/h
189 30-06-2003 01:04:01 20.5 C 9.25 g/m*3 20.5 C 0 km/h
190 30-06-2003 01:10:01 20.4 C 9.2 g/m*3 20.4 C 0 km/h
191 30-06-2003 01:16:01 20.3 C 9.5 g/m*3 20.3 C 0 km/h
192 30-06-2003 01:22:01 20.2 C 9.09 g/m*3 20.2 C 0 km/h
193 30-06-2003 01:28:01 20 C 9.33 g/m*3 20 C 0 km/h
194 30-06-2003 01:34:01 19.8 C 9.57 g/m*3 19.8 C 0 km/h
195 30-06-2003 01:40:01 19.7 C 9.51 g/m*3 19.7 C 0 km/h
196 30-06-2003 01:46:01 19.5 C 9.4 g/m*3 19.5 C 0 km/h
197 30-06-2003 01:52:01 19.5 C 9.4 g/m*3 19.5 C 0 km/h
198 30-06-2003 01:58:01 19.4 C 9.51 g/m*3 19.4 C 0 km/h
199 30-06-2003 02:04:01 19.3 C 9.45 g/m*3 19.3 C 0 km/h
200 30-06-2003 02:10:01 19 C 9.45 g/m*3 19 C 0 km/h
Sensor: Nr:Datum:Temp:Abs-Feuchte:Windchill:Wind:
Aussen-T/F 201 30-06-2003 02:16:01 18.9 C 9.56 g/m*3 18.9 C 0 km/h
202 30-06-2003 02:22:01 18.8 C 9.66 g/m*3 18.8 C 0 km/h
203 30-06-2003 02:28:01 18.8 C 9.66 g/m*3 18.8 C 0 km/h
204 30-06-2003 02:34:01 18.8 C 9.66 g/m*3 18.8 C 0 km/h
205 30-06-2003 02:40:01 18.6 C 9.71 g/m*3 18.6 C 0 km/h
206 30-06-2003 02:46:01 18.5 C 9.65 g/m*3 18.5 C 0 km/h
207 30-06-2003 02:52:01 18.5 C 9.81 g/m*3 18.5 C 0 km/h
208 30-06-2003 02:58:01 18.3 C 9.69 g/m*3 18.3 C 0 km/h
209 30-06-2003 03:04:01 18.2 C 9.64 g/m*3 18.2 C 0 km/h
210 30-06-2003 03:10:01 18.3 C 9.69 g/m*3 18.3 C 0 km/h
211 30-06-2003 03:16:01 18 C 9.68 g/m*3 18 C 0 km/h
212 30-06-2003 03:22:01 17.9 C 9.92 g/m*3 17.9 C 0 km/h
213 30-06-2003 03:28:01 17.7 C 9.81 g/m*3 17.7 C 0 km/h
214 30-06-2003 03:34:01 17.7 C 9.96 g/m*3 17.7 C 0 km/h
215 30-06-2003 03:40:01 17.7 C 9.96 g/m*3 17.7 C 0 km/h
216 30-06-2003 03:46:01 17.6 C 9.9 g/m*3 17.6 C 0 km/h
217 30-06-2003 03:52:01 17.5 C 9.84 g/m*3 17.5 C 0 km/h
218 30-06-2003 03:58:01 17.6 C 10.05 g/m*3 17.6 C 0 km/h
219 30-06-2003 04:04:01 17.7 C 9.96 g/m*3 17.7 C 0 km/h
220 30-06-2003 04:10:01 17.7 C 9.96 g/m*3 17.7 C 0 km/h
221 30-06-2003 04:16:01 17.5 C 9.99 g/m*3 17.5 C 0 km/h
222 30-06-2003 04:22:01 17.4 C 10.08 g/m*3 17.4 C 0 km/h
223 30-06-2003 04:28:01 17.4 C 10.08 g/m*3 17.4 C 0 km/h
224 30-06-2003 04:34:01 17.4 C 10.08 g/m*3 17.4 C 0 km/h
225 30-06-2003 04:40:01 17.4 C 10.08 g/m*3 17.4 C 0 km/h
Sensor: Nr:Datum:Temp:Abs-Feuchte:Windchill:Wind:
Aussen-T/F 226 30-06-2003 04:46:01 17.5 C 10.14 g/m*3 17.5 C 0 km/h
227 30-06-2003 04:52:01 17.1 C 9.9 g/m*3 17.1 C 0 km/h
228 30-06-2003 04:58:01 17.5 C 10.14 g/m*3 17.5 C 0 km/h
229 30-06-2003 05:04:01 17.4 C 10.23 g/m*3 17.4 C 0 km/h
230 30-06-2003 05:10:01 17.4 C 10.23 g/m*3 17.4 C 0 km/h
231 30-06-2003 05:16:01 17.4 C 10.23 g/m*3 17.4 C 0 km/h
232 30-06-2003 05:22:01 17.4 C 10.23 g/m*3 17.4 C 0 km/h
233 30-06-2003 05:28:01 17.3 C 10.16 g/m*3 17.3 C 0 km/h
234 30-06-2003 05:34:01 17.3 C 10.31 g/m*3 17.3 C 0 km/h
235 30-06-2003 05:40:01 17.2 C 10.25 g/m*3 17.2 C 0 km/h
236 30-06-2003 05:46:01 17.2 C 10.25 g/m*3 17.2 C 0 km/h
237 30-06-2003 05:52:01 17.2 C 10.4 g/m*3 17.2 C 0 km/h
238 30-06-2003 05:58:01 17.2 C 10.25 g/m*3 17.2 C 0 km/h
239 30-06-2003 06:04:01 17.3 C 10.31 g/m*3 17.3 C 0 km/h
240 30-06-2003 06:10:01 17.4 C 10.37 g/m*3 17.4 C 0 km/h
241 30-06-2003 06:16:01 17.5 C 10.44 g/m*3 17.5 C 0 km/h
242 30-06-2003 06:22:01 17.4 C 10.52 g/m*3 17.4 C 0 km/h
243 30-06-2003 06:28:01 17.3 C 10.46 g/m*3 17.3 C 0 km/h
244 30-06-2003 06:34:01 17.2 C 10.4 g/m*3 17.2 C 0 km/h
245 30-06-2003 06:40:01 17.1 C 10.34 g/m*3 17.1 C 0 km/h
246 30-06-2003 06:46:01 17.1 C 10.48 g/m*3 17.1 C 0 km/h
247 30-06-2003 06:52:01 17.2 C 10.54 g/m*3 17.2 C 0 km/h
248 30-06-2003 06:58:01 17.3 C 10.61 g/m*3 17.3 C 0 km/h
249 30-06-2003 07:04:01 17.3 C 10.61 g/m*3 17.3 C 0 km/h
250 30-06-2003 07:10:01 17.3 C 10.61 g/m*3 17.3 C 0 km/h
Sensor: Nr:Datum:Temp:Abs-Feuchte:Windchill:Wind:
Aussen-T/F 251 30-06-2003 07:16:01 17.3 C 10.61 g/m*3 17.3 C 0 km/h
252 30-06-2003 07:22:01 17.5 C 10.73 g/m*3 17.5 C 0 km/h
253 30-06-2003 07:28:01 17.7 C 10.86 g/m*3 17.7 C 0 km/h
254 30-06-2003 07:34:01 17.7 C 10.86 g/m*3 17.7 C 0 km/h
255 30-06-2003 07:40:01 18.1 C 10.82 g/m*3 18.1 C 0 km/h
256 30-06-2003 07:46:01 18.1 C 10.82 g/m*3 18.1 C 0 km/h
257 30-06-2003 07:52:01 18.3 C 10.79 g/m*3 18.3 C 0 km/h
258 30-06-2003 07:58:01 18.3 C 10.79 g/m*3 18.3 C 0 km/h
259 30-06-2003 08:04:01 18.6 C 10.98 g/m*3 18.6 C 0 km/h
260 30-06-2003 08:10:01 18.7 C 10.89 g/m*3 18.7 C 0 km/h
261 30-06-2003 08:16:01 18.9 C 11.02 g/m*3 18.9 C 0 km/h
262 30-06-2003 08:22:01 19 C 10.92 g/m*3 19 C 0 km/h
263 30-06-2003 08:28:01 19.4 C 11.18 g/m*3 19.4 C 0 km/h
264 30-06-2003 08:34:01 20.2 C 11.19 g/m*3 20.2 C 0 km/h
265 30-06-2003 08:40:01 20.8 C 11.05 g/m*3 20.8 C 0 km/h
266 30-06-2003 08:46:01 21.4 C 11.06 g/m*3 21.4 C 0 km/h
267 30-06-2003 08:52:01 21.7 C 11.06 g/m*3 21.7 C 0 km/h
268 30-06-2003 08:58:01 22 C 11.06 g/m*3 22 C 0 km/h
269 30-06-2003 09:04:01 22.3 C 10.86 g/m*3 22.3 C 0 km/h
270 30-06-2003 09:10:01 22.5 C 10.99 g/m*3 22.5 C 0 km/h
271 30-06-2003 09:16:01 22.6 C 10.65 g/m*3 22.6 C 0 km/h
272 30-06-2003 09:22:01 22.8 C 10.77 g/m*3 22.8 C 0 km/h
273 30-06-2003 09:28:01 23 C 10.69 g/m*3 23 C 0 km/h
274 30-06-2003 09:34:01 23.3 C 10.66 g/m*3 23.3 C 0 km/h
275 30-06-2003 09:40:01 23.4 C 10.72 g/m*3 23.4 C 0 km/h
Sensor: Nr:Datum:Temp:Abs-Feuchte:Windchill:Wind:
Aussen-T/F 276 30-06-2003 09:46:01 23.7 C 10.69 g/m*3 23.7 C 0 km/h
277 30-06-2003 09:52:01 23.9 C 10.6 g/m*3 23.9 C 0 km/h
278 30-06-2003 09:58:01 24.2 C 10.56 g/m*3 24.2 C 0 km/h
279 30-06-2003 10:04:01 24.1 C 10.5 g/m*3 24.1 C 0 km/h
280 30-06-2003 10:10:01 24.1 C 10.72 g/m*3 24.1 C 0 km/h
281 30-06-2003 10:16:01 24.1 C 10.72 g/m*3 24.1 C 0 km/h
282 30-06-2003 10:22:01 24.3 C 10.62 g/m*3 24.3 C 0 km/h
283 30-06-2003 10:28:01 24.4 C 10.68 g/m*3 24.4 C 0 km/h
284 30-06-2003 10:34:01 24.1 C 10.5 g/m*3 24.1 C 0 km/h
285 30-06-2003 10:40:01 24.3 C 10.62 g/m*3 24.3 C 0 km/h
286 30-06-2003 10:46:01 24.6 C 11.03 g/m*3 24.6 C 0 km/h
287 30-06-2003 10:52:01 25.1 C 10.88 g/m*3 25.1 C 0 km/h
288 30-06-2003 10:58:01 24.5 C 10.52 g/m*3 24.5 C 0 km/h
289 30-06-2003 11:04:01 24.6 C 11.03 g/m*3 24.6 C 0 km/h
290 30-06-2003 11:10:01 24.8 C 11.38 g/m*3 24.8 C 0 km/h
291 30-06-2003 11:16:01 25 C 11.28 g/m*3 25 C 0 km/h
292 30-06-2003 11:22:01 25.1 C 11.81 g/m*3 25.1 C 0 km/h
293 30-06-2003 11:28:01 25 C 11.05 g/m*3 25 C 0 km/h
294 30-06-2003 11:34:01 24.9 C 11.45 g/m*3 24.9 C 0 km/h
295 30-06-2003 11:40:01 25 C 11.51 g/m*3 25 C 0 km/h
296 30-06-2003 11:46:01 25.2 C 11.41 g/m*3 25.2 C 0 km/h
297 30-06-2003 11:52:01 25.1 C 11.57 g/m*3 25.1 C 0 km/h
298 30-06-2003 11:58:01 25 C 12.2 g/m*3 25 C 0 km/h
299 30-06-2003 12:04:01 24.8 C 12.52 g/m*3 24.8 C 0 km/h
300 30-06-2003 12:10:01 24.8 C 12.75 g/m*3 24.8 C 0 km/h
Sensor: Nr:Datum:Temp:Abs-Feuchte:Windchill:Wind:
Aussen-T/F 301 30-06-2003 12:16:01 24.9 C 12.36 g/m*3 24.9 C 0 km/h
302 30-06-2003 12:22:01 24.8 C 12.75 g/m*3 24.8 C 0 km/h
303 30-06-2003 12:28:01 24.6 C 13.05 g/m*3 24.6 C 0 km/h
304 30-06-2003 12:34:01 24.8 C 13.43 g/m*3 24.8 C 0 km/h
305 30-06-2003 12:40:01 25 C 12.43 g/m*3 25 C 0 km/h
306 30-06-2003 12:46:01 25.3 C 12.88 g/m*3 25.3 C 0 km/h
307 30-06-2003 12:52:01 25.5 C 12.55 g/m*3 25.5 C 0 km/h
308 30-06-2003 12:58:01 25.6 C 12.62 g/m*3 25.6 C 0 km/h
309 30-06-2003 13:04:01 25.6 C 12.38 g/m*3 25.6 C 0 km/h
310 30-06-2003 13:10:01 25.9 C 12.59 g/m*3 25.9 C 0 km/h
311 30-06-2003 13:16:01 26.3 C 12.63 g/m*3 26.3 C 0 km/h
312 30-06-2003 13:22:01 27.1 C 12.16 g/m*3 27.1 C 0 km/h
313 30-06-2003 13:28:01 26.9 C 12.03 g/m*3 26.9 C 0 km/h
314 30-06-2003 13:34:01 27 C 12.1 g/m*3 27 C 0 km/h
315 30-06-2003 13:40:01 27.8 C 12.1 g/m*3 27.8 C 0 km/h
316 30-06-2003 13:46:01 28.4 C 11.95 g/m*3 28.4 C 0 km/h
317 30-06-2003 13:52:01 29.2 C 11.61 g/m*3 29.2 C 0 km/h
318 30-06-2003 13:58:01 29.1 C 11.84 g/m*3 29.1 C 0 km/h
319 30-06-2003 14:04:01 28.6 C 11.8 g/m*3 28.6 C 0 km/h
320 30-06-2003 14:10:01 28.4 C 11.95 g/m*3 28.4 C 0 km/h
321 30-06-2003 14:16:01 28.5 C 12.02 g/m*3 28.5 C 0 km/h
322 30-06-2003 14:22:01 28.7 C 11.87 g/m*3 28.7 C 0 km/h
323 30-06-2003 14:28:01 28.5 C 11.74 g/m*3 28.5 C 0 km/h
324 30-06-2003 14:34:01 27.4 C 11.31 g/m*3 27.4 C 0 km/h
325 30-06-2003 14:40:01 27 C 11.58 g/m*3 27 C 0 km/h
Sensor: Nr:Datum:Temp:Abs-Feuchte:Windchill:Wind:
Aussen-T/F 326 30-06-2003 14:46:01 26.4 C 11.7 g/m*3 26.4 C 0 km/h
327 30-06-2003 14:52:01 26 C 11.69 g/m*3 26 C 0 km/h
328 30-06-2003 14:58:01 25.7 C 11.97 g/m*3 25.7 C 0 km/h
329 30-06-2003 15:04:58 25.4 C 12.01 g/m*3 25.4 C 0 km/h
330 30-06-2003 15:10:58 25.5 C 12.31 g/m*3 25.5 C 0 km/h
331 30-06-2003 15:16:58 24.9 C 12.13 g/m*3 24.9 C 0 km/h
332 30-06-2003 15:22:58 24.5 C 12.53 g/m*3 24.5 C 0 km/h
333 30-06-2003 15:28:58 23.4 C 13.04 g/m*3 23.4 C 0 km/h
334 30-06-2003 15:34:58 22.2 C 14.14 g/m*3 22.2 C 0 km/h
335 30-06-2003 15:40:58 21.9 C 14.67 g/m*3 21.9 C 0 km/h
336 30-06-2003 15:46:02 22.2 C 15.12 g/m*3 22.2 C 0 km/h
337 30-06-2003 15:52:02 22.6 C 15.47 g/m*3 22.6 C 0 km/h
338 30-06-2003 15:58:02 23 C 15.42 g/m*3 23 C 0 km/h
339 30-06-2003 16:04:02 23.3 C 15.47 g/m*3 23.3 C 0 km/h
340 30-06-2003 16:10:02 23.3 C 14.84 g/m*3 23.3 C 0 km/h
341 30-06-2003 16:16:02 23 C 14.39 g/m*3 23 C 0 km/h
342 30-06-2003 16:22:02 22.4 C 15.49 g/m*3 22.4 C 0 km/h
343 30-06-2003 16:28:02 21.5 C 15.84 g/m*3 21.5 C 0 km/h
344 30-06-2003 16:34:01 21.6 C 16.31 g/m*3 21.6 C 0 km/h
345 30-06-2003 16:40:01 21.9 C 16.79 g/m*3 21.9 C 0 km/h
346 30-06-2003 16:46:01 22.2 C 16.69 g/m*3 22.2 C 0 km/h
347 30-06-2003 16:52:01 22.4 C 16.28 g/m*3 22.4 C 0 km/h
348 30-06-2003 16:58:01 22.8 C 16.87 g/m*3 22.8 C 0 km/h
349 30-06-2003 17:04:02 23.7 C 16.68 g/m*3 23.7 C 0 km/h
350 30-06-2003 17:10:02 23.5 C 15.44 g/m*3 23.5 C 0 km/h
Sensor: Nr:Datum:Temp:Abs-Feuchte:Windchill:Wind:
Aussen-T/F 351 30-06-2003 17:16:02 23.3 C 15.68 g/m*3 23.3 C 0 km/h
352 30-06-2003 17:22:02 23.1 C 15.71 g/m*3 23.1 C 0 km/h
353 30-06-2003 17:28:02 23.5 C 16.5 g/m*3 23.5 C 0 km/h
354 30-06-2003 17:34:00 23.7 C 15.83 g/m*3 23.7 C 0 km/h
355 30-06-2003 17:40:00 23.8 C 15.49 g/m*3 23.8 C 0 km/h
356 30-06-2003 17:46:00 24 C 16.1 g/m*3 24 C 0 km/h
357 30-06-2003 17:52:00 24.1 C 16.19 g/m*3 24.1 C 0 km/h
358 30-06-2003 17:58:00 25.2 C 16.06 g/m*3 25.2 C 0 km/h
359 30-06-2003 18:04:01 26.2 C 15.51 g/m*3 26.2 C 0 km/h
360 30-06-2003 18:10:01 26.7 C 15.19 g/m*3 26.7 C 0 km/h
361 30-06-2003 18:16:01 26.5 C 14.77 g/m*3 26.5 C 0 km/h
362 30-06-2003 18:22:01 26.2 C 14.77 g/m*3 26.2 C 0 km/h
363 30-06-2003 18:28:01 25.4 C 14.83 g/m*3 25.4 C 0 km/h
364 30-06-2003 18:34:00 25.4 C 15.3 g/m*3 25.4 C 0 km/h
365 30-06-2003 18:40:00 25.3 C 15.92 g/m*3 25.3 C 0 km/h
366 30-06-2003 18:46:00 25.2 C 16.06 g/m*3 25.2 C 0 km/h
367 30-06-2003 18:52:00 25.8 C 16.37 g/m*3 25.8 C 0 km/h
368 30-06-2003 18:58:00 27 C 15.18 g/m*3 27 C 0 km/h
369 30-06-2003 19:04:00 27.3 C 14.39 g/m*3 27.3 C 0 km/h
370 30-06-2003 19:10:00 27.5 C 14.29 g/m*3 27.5 C 0 km/h
371 30-06-2003 19:16:00 26.8 C 14.76 g/m*3 26.8 C 0 km/h
372 30-06-2003 19:22:00 26.4 C 14.69 g/m*3 26.4 C 0 km/h
373 30-06-2003 19:28:00 25.9 C 15.74 g/m*3 25.9 C 0 km/h
374 30-06-2003 19:34:01 25.5 C 15.63 g/m*3 25.5 C 0 km/h
375 30-06-2003 19:40:01 25.1 C 15.51 g/m*3 25.1 C 0 km/h
Sensor: Nr:Datum:Temp:Abs-Feuchte:Windchill:Wind:
Aussen-T/F 376 30-06-2003 19:46:01 24.7 C 15.16 g/m*3 24.7 C 0 km/h
377 30-06-2003 19:52:01 24.5 C 15.44 g/m*3 24.5 C 0 km/h
378 30-06-2003 19:58:01 24.1 C 15.1 g/m*3 24.1 C 0 km/h
379 30-06-2003 20:04:01 24 C 15.01 g/m*3 24 C 0 km/h
380 30-06-2003 20:10:01 24.1 C 15.1 g/m*3 24.1 C 0 km/h
381 30-06-2003 20:16:01 23.9 C 15.58 g/m*3 23.9 C 0 km/h
382 30-06-2003 20:22:01 23.6 C 15.1 g/m*3 23.6 C 0 km/h
383 30-06-2003 20:28:01 23.4 C 15.14 g/m*3 23.4 C 0 km/h
384 30-06-2003 20:40:01 22.6 C 15.27 g/m*3 22.6 C 0 km/h
385 30-06-2003 20:46:01 22.6 C 15.47 g/m*3 22.6 C 0 km/h
386 30-06-2003 20:52:01 22.8 C 15.65 g/m*3 22.8 C 0 km/h
387 30-06-2003 20:58:01 22.9 C 15.33 g/m*3 22.9 C 0 km/h
388 30-06-2003 21:04:01 22.9 C 15.12 g/m*3 22.9 C 0 km/h
389 30-06-2003 21:10:01 22.9 C 14.92 g/m*3 22.9 C 0 km/h
390 30-06-2003 21:16:01 22.9 C 14.92 g/m*3 22.9 C 0 km/h
391 30-06-2003 21:22:01 22.9 C 14.92 g/m*3 22.9 C 0 km/h
392 30-06-2003 21:28:01 22.9 C 14.92 g/m*3 22.9 C 0 km/h
393 30-06-2003 21:34:01 22.9 C 14.92 g/m*3 22.9 C 0 km/h
394 30-06-2003 21:40:01 22.9 C 14.71 g/m*3 22.9 C 0 km/h
395 30-06-2003 21:46:01 22.8 C 14.83 g/m*3 22.8 C 0 km/h
396 30-06-2003 21:52:01 22.6 C 14.66 g/m*3 22.6 C 0 km/h
397 30-06-2003 21:58:01 22.5 C 14.58 g/m*3 22.5 C 0 km/h
398 30-06-2003 22:04:02 22.5 C 14.58 g/m*3 22.5 C 0 km/h
399 30-06-2003 22:10:02 22.4 C 14.5 g/m*3 22.4 C 0 km/h
400 30-06-2003 22:16:02 22.4 C 14.5 g/m*3 22.4 C 0 km/h
Sensor: Nr:Datum:Temp:Abs-Feuchte:Windchill:Wind:
Aussen-T/F 401 30-06-2003 22:22:02 22.2 C 14.14 g/m*3 22.2 C 0 km/h
402 30-06-2003 22:28:02 22.1 C 14.05 g/m*3 22.1 C 0 km/h
403 30-06-2003 22:34:02 22 C 13.78 g/m*3 22 C 0 km/h
404 30-06-2003 22:40:02 22 C 13.78 g/m*3 22 C 0 km/h
405 30-06-2003 22:46:02 22 C 13.78 g/m*3 22 C 0 km/h
406 30-06-2003 22:52:02 21.9 C 14.09 g/m*3 21.9 C 0 km/h
407 30-06-2003 22:58:02 21.8 C 14.01 g/m*3 21.8 C 0 km/h
408 30-06-2003 23:05:02 21.9 C 14.09 g/m*3 21.9 C 0 km/h
409 30-06-2003 23:11:02 21.8 C 13.81 g/m*3 21.8 C 0 km/h
410 30-06-2003 23:17:02 21.8 C 14.01 g/m*3 21.8 C 0 km/h
411 30-06-2003 23:23:02 21.6 C 13.85 g/m*3 21.6 C 0 km/h
412 30-06-2003 23:29:02 21.3 C 13.79 g/m*3 21.3 C 0 km/h
413 30-06-2003 23:35:02 21.1 C 13.63 g/m*3 21.1 C 0 km/h
414 30-06-2003 23:41:02 21 C 13.74 g/m*3 21 C 0 km/h
415 30-06-2003 23:47:02 20.8 C 13.76 g/m*3 20.8 C 0 km/h
416 30-06-2003 23:53:02 20.7 C 13.68 g/m*3 20.7 C 0 km/h
417 30-06-2003 23:59:02 20.7 C 13.68 g/m*3 20.7 C 0 km/h
418 01-07-2003 00:05:02 20.7 C 13.68 g/m*3 20.7 C 0 km/h
419 01-07-2003 00:11:02 20.6 C 13.42 g/m*3 20.6 C 0 km/h
420 01-07-2003 00:17:02 20.5 C 13.35 g/m*3 20.5 C 0 km/h
421 01-07-2003 00:23:02 20.5 C 13.52 g/m*3 20.5 C 0 km/h
422 01-07-2003 00:29:02 20.4 C 13.44 g/m*3 20.4 C 0 km/h
423 01-07-2003 00:35:02 20 C 13.31 g/m*3 20 C 0 km/h
424 01-07-2003 00:41:02 19.8 C 13.49 g/m*3 19.8 C 0 km/h
425 01-07-2003 00:47:02 19.7 C 13.58 g/m*3 19.7 C 0 km/h
Sensor: Nr:Datum:Temp:Abs-Feuchte:Windchill:Wind:
Aussen-T/F 426 01-07-2003 00:53:02 19.7 C 13.58 g/m*3 19.7 C 0 km/h
427 01-07-2003 00:59:02 19.7 C 13.58 g/m*3 19.7 C 0 km/h
428 01-07-2003 01:05:02 19.7 C 13.58 g/m*3 19.7 C 0 km/h
429 01-07-2003 01:11:02 19.7 C 13.41 g/m*3 19.7 C 0 km/h
430 01-07-2003 01:17:02 19.6 C 13.34 g/m*3 19.6 C 0 km/h
431 01-07-2003 01:23:02 19.5 C 13.43 g/m*3 19.5 C 0 km/h
432 01-07-2003 01:29:02 19.5 C 13.26 g/m*3 19.5 C 0 km/h
433 01-07-2003 01:35:02 19.9 C 13.06 g/m*3 19.9 C 0 km/h
434 01-07-2003 01:41:02 20.2 C 12.76 g/m*3 20.2 C 0 km/h
435 01-07-2003 01:47:02 20.3 C 12.66 g/m*3 20.3 C 0 km/h
436 01-07-2003 01:53:02 20.3 C 12.49 g/m*3 20.3 C 0 km/h
437 01-07-2003 01:59:02 20.3 C 12.49 g/m*3 20.3 C 0 km/h
438 01-07-2003 02:05:02 20.4 C 12.56 g/m*3 20.4 C 0 km/h
439 01-07-2003 02:11:02 20.3 C 12.49 g/m*3 20.3 C 0 km/h
440 01-07-2003 02:17:02 20.2 C 12.41 g/m*3 20.2 C 0 km/h
441 01-07-2003 02:23:02 20.1 C 12.34 g/m*3 20.1 C 0 km/h
442 01-07-2003 02:29:02 20 C 12.1 g/m*3 20 C 0 km/h
443 01-07-2003 02:35:02 19.8 C 12.13 g/m*3 19.8 C 0 km/h
444 01-07-2003 02:41:02 19.7 C 12.06 g/m*3 19.7 C 0 km/h
445 01-07-2003 02:47:02 19.5 C 12.08 g/m*3 19.5 C 0 km/h
446 01-07-2003 02:53:02 19.4 C 11.85 g/m*3 19.4 C 0 km/h
447 01-07-2003 02:59:02 19.2 C 11.87 g/m*3 19.2 C 0 km/h
448 01-07-2003 03:05:02 19.1 C 11.8 g/m*3 19.1 C 0 km/h
449 01-07-2003 03:11:02 19 C 11.73 g/m*3 19 C 0 km/h
450 01-07-2003 03:17:02 18.9 C 11.66 g/m*3 18.9 C 0 km/h
Sensor: Nr:Datum:Temp:Abs-Feuchte:Windchill:Wind:
Aussen-T/F 451 01-07-2003 03:23:02 18.7 C 11.69 g/m*3 18.7 C 0 km/h
452 01-07-2003 03:29:02 18.6 C 11.62 g/m*3 18.6 C 0 km/h
453 01-07-2003 03:35:02 18.5 C 11.55 g/m*3 18.5 C 0 km/h
454 01-07-2003 03:41:02 18.5 C 11.55 g/m*3 18.5 C 0 km/h
455 01-07-2003 03:47:02 18.4 C 11.32 g/m*3 18.4 C 0 km/h
456 01-07-2003 03:53:02 18.3 C 10.94 g/m*3 18.3 C 0 km/h
457 01-07-2003 03:59:02 18.2 C 10.88 g/m*3 18.2 C 0 km/h
458 01-07-2003 04:05:02 18.1 C 10.66 g/m*3 18.1 C 0 km/h
459 01-07-2003 04:11:02 18 C 10.6 g/m*3 18 C 0 km/h
460 01-07-2003 04:17:02 17.9 C 10.69 g/m*3 17.9 C 0 km/h
461 01-07-2003 04:23:02 17.8 C 10.62 g/m*3 17.8 C 0 km/h
462 01-07-2003 04:29:02 17.6 C 10.5 g/m*3 17.6 C 0 km/h
463 01-07-2003 04:35:02 17.5 C 10.59 g/m*3 17.5 C 0 km/h
464 01-07-2003 04:41:02 17.6 C 10.65 g/m*3 17.6 C 0 km/h
465 01-07-2003 04:47:02 17.5 C 10.88 g/m*3 17.5 C 0 km/h
466 01-07-2003 04:53:02 17.4 C 10.82 g/m*3 17.4 C 0 km/h
467 01-07-2003 04:59:02 17.5 C 11.03 g/m*3 17.5 C 0 km/h
468 01-07-2003 05:05:02 17.5 C 10.88 g/m*3 17.5 C 0 km/h
469 01-07-2003 05:11:02 17.6 C 10.35 g/m*3 17.6 C 0 km/h
470 01-07-2003 05:17:02 17.5 C 10.29 g/m*3 17.5 C 0 km/h
471 01-07-2003 05:23:02 17.3 C 10.16 g/m*3 17.3 C 0 km/h
472 01-07-2003 05:29:02 17.2 C 10.25 g/m*3 17.2 C 0 km/h
473 01-07-2003 05:35:02 17 C 10.27 g/m*3 17 C 0 km/h
474 01-07-2003 05:41:02 16.8 C 10.44 g/m*3 16.8 C 0 km/h
475 01-07-2003 05:47:02 16.7 C 10.52 g/m*3 16.7 C 0 km/h
Sensor: Nr:Datum:Temp:Abs-Feuchte:Windchill:Wind:
Aussen-T/F 476 01-07-2003 05:53:02 16.6 C 10.45 g/m*3 16.6 C 0 km/h
477 01-07-2003 05:59:02 16.6 C 10.45 g/m*3 16.6 C 0 km/h
478 01-07-2003 06:05:02 16.6 C 10.59 g/m*3 16.6 C 0 km/h
479 01-07-2003 06:11:02 16.4 C 10.47 g/m*3 16.4 C 0 km/h
480 01-07-2003 06:17:02 16.4 C 10.47 g/m*3 16.4 C 0 km/h
481 01-07-2003 06:23:02 16.5 C 10.53 g/m*3 16.5 C 0 km/h
482 01-07-2003 06:29:02 16.5 C 10.53 g/m*3 16.5 C 0 km/h
483 01-07-2003 06:35:02 16.7 C 10.66 g/m*3 16.7 C 0 km/h
484 01-07-2003 06:41:02 16.8 C 10.58 g/m*3 16.8 C 0 km/h
485 01-07-2003 06:47:02 16.8 C 10.58 g/m*3 16.8 C 0 km/h
486 01-07-2003 06:53:02 16.8 C 10.44 g/m*3 16.8 C 0 km/h
487 01-07-2003 06:59:02 17 C 10.27 g/m*3 17 C 0 km/h
488 01-07-2003 07:05:02 17.2 C 10.25 g/m*3 17.2 C 0 km/h
489 01-07-2003 07:11:02 17.3 C 10.31 g/m*3 17.3 C 0 km/h
490 01-07-2003 07:17:02 17.4 C 10.37 g/m*3 17.4 C 0 km/h
491 01-07-2003 07:23:02 17.4 C 10.37 g/m*3 17.4 C 0 km/h
492 01-07-2003 07:29:02 17.5 C 10.44 g/m*3 17.5 C 0 km/h
493 01-07-2003 07:35:02 17.5 C 10.44 g/m*3 17.5 C 0 km/h
494 01-07-2003 07:41:02 17.2 C 10.4 g/m*3 17.2 C 0 km/h
495 01-07-2003 07:47:02 17.3 C 10.61 g/m*3 17.3 C 0 km/h
496 01-07-2003 07:53:02 17.6 C 10.8 g/m*3 17.6 C 0 km/h
497 01-07-2003 07:59:02 17.6 C 10.8 g/m*3 17.6 C 0 km/h
498 01-07-2003 08:05:02 17.7 C 10.86 g/m*3 17.7 C 0 km/h
499 01-07-2003 08:11:02 17.7 C 10.71 g/m*3 17.7 C 0 km/h
500 01-07-2003 08:17:02 17.7 C 10.71 g/m*3 17.7 C 0 km/h
Sensor: Nr:Datum:Temp:Abs-Feuchte:Windchill:Wind:
Aussen-T/F 501 01-07-2003 08:23:02 17.6 C 10.5 g/m*3 17.6 C 0 km/h
502 01-07-2003 08:29:02 17.7 C 10.56 g/m*3 17.7 C 0 km/h
503 01-07-2003 08:35:00 17.6 C 10.35 g/m*3 17.6 C 0 km/h
504 01-07-2003 08:41:00 17.7 C 10.41 g/m*3 17.7 C 0 km/h
505 01-07-2003 08:47:00 17.7 C 10.26 g/m*3 17.7 C 0 km/h
506 01-07-2003 08:53:00 17.7 C 10.26 g/m*3 17.7 C 0 km/h
507 01-07-2003 08:59:00 17.6 C 10.05 g/m*3 17.6 C 0 km/h
508 01-07-2003 09:05:00 17.6 C 10.2 g/m*3 17.6 C 0 km/h
509 01-07-2003 09:11:00 17.5 C 10.14 g/m*3 17.5 C 0 km/h
510 01-07-2003 09:17:00 17.5 C 9.99 g/m*3 17.5 C 0 km/h
511 01-07-2003 09:23:00 17.9 C 10.23 g/m*3 17.9 C 0 km/h
512 01-07-2003 09:29:00 18.3 C 10.16 g/m*3 18.3 C 0 km/h
513 01-07-2003 09:35:00 18.1 C 9.73 g/m*3 18.1 C 0 km/h
514 01-07-2003 09:41:00 18.2 C 9.79 g/m*3 18.2 C 0 km/h
515 01-07-2003 09:47:00 18.5 C 9.81 g/m*3 18.5 C 0 km/h
516 01-07-2003 09:53:00 18.6 C 9.71 g/m*3 18.6 C 0 km/h
517 01-07-2003 09:59:00 18.7 C 9.77 g/m*3 18.7 C 0 km/h
518 01-07-2003 10:05:01 18.8 C 9.82 g/m*3 18.8 C 0 km/h
519 01-07-2003 10:11:01 19 C 9.78 g/m*3 19 C 0 km/h
520 01-07-2003 10:17:01 19.3 C 9.95 g/m*3 19.3 C 0 km/h
521 01-07-2003 10:23:01 19.1 C 9.67 g/m*3 19.1 C 0 km/h
522 01-07-2003 10:29:01 19.4 C 9.84 g/m*3 19.4 C 0 km/h
523 01-07-2003 10:35:01 19.4 C 9.51 g/m*3 19.4 C 0 km/h
524 01-07-2003 10:41:01 19.6 C 9.62 g/m*3 19.6 C 0 km/h
525 01-07-2003 10:47:01 19.6 C 9.62 g/m*3 19.6 C 0 km/h
Sensor: Nr:Datum:Temp:Abs-Feuchte:Windchill:Wind:
Aussen-T/F 526 01-07-2003 10:53:01 19.4 C 9.34 g/m*3 19.4 C 0 km/h
527 01-07-2003 10:59:01 19.3 C 9.45 g/m*3 19.3 C 0 km/h
528 01-07-2003 11:05:01 19.5 C 9.57 g/m*3 19.5 C 0 km/h
529 01-07-2003 11:11:01 19.7 C 9.51 g/m*3 19.7 C 0 km/h
530 01-07-2003 11:17:01 19.9 C 9.62 g/m*3 19.9 C 0 km/h
531 01-07-2003 11:23:01 20.5 C 9.43 g/m*3 20.5 C 0 km/h
532 01-07-2003 11:29:01 20.9 C 9.83 g/m*3 20.9 C 0 km/h
533 01-07-2003 11:35:01 21.1 C 9.21 g/m*3 21.1 C 0 km/h
534 01-07-2003 11:41:01 21.8 C 9.59 g/m*3 21.8 C 0 km/h
535 01-07-2003 11:47:01 22.5 C 9.39 g/m*3 22.5 C 0 km/h
536 01-07-2003 11:53:01 21.9 C 9.26 g/m*3 21.9 C 0 km/h
537 01-07-2003 11:59:01 21.9 C 9.26 g/m*3 21.9 C 0 km/h
538 01-07-2003 12:05:02 22 C 9.12 g/m*3 22 C 0 km/h
539 01-07-2003 12:11:02 21.2 C 8.71 g/m*3 21.2 C 0 km/h
540 01-07-2003 12:17:02 21.1 C 8.84 g/m*3 21.1 C 0 km/h
541 01-07-2003 12:23:02 21.9 C 9.07 g/m*3 21.9 C 0 km/h
542 01-07-2003 12:29:02 22.2 C 8.44 g/m*3 22.2 C 0 km/h
543 01-07-2003 12:35:01 22 C 8.54 g/m*3 22 C 0 km/h
544 01-07-2003 12:41:01 22.5 C 8.39 g/m*3 22.5 C 0 km/h
545 01-07-2003 12:47:01 22.1 C 7.81 g/m*3 22.1 C 0 km/h
546 01-07-2003 12:53:01 22.1 C 8 g/m*3 22.1 C 0 km/h
547 01-07-2003 12:59:01 22 C 8.15 g/m*3 22 C 0 km/h
548 01-07-2003 13:05:01 21.8 C 8.25 g/m*3 21.8 C 0 km/h
549 01-07-2003 13:11:01 21.7 C 8.39 g/m*3 21.7 C 0 km/h
550 01-07-2003 13:17:01 23.2 C 8.52 g/m*3 23.2 C 0 km/h
Sensor: Nr:Datum:Temp:Abs-Feuchte:Windchill:Wind:
Aussen-T/F 551 01-07-2003 13:23:01 22.6 C 8.44 g/m*3 22.6 C 0 km/h
552 01-07-2003 13:29:01 23.7 C 8.13 g/m*3 23.7 C 0 km/h
553 01-07-2003 13:35:01 23.9 C 8 g/m*3 23.9 C 0 km/h
554 01-07-2003 13:41:01 23.5 C 7.82 g/m*3 23.5 C 0 km/h
555 01-07-2003 13:47:01 23.6 C 7.87 g/m*3 23.6 C 0 km/h
556 01-07-2003 13:53:01 23.8 C 8.17 g/m*3 23.8 C 0 km/h
557 01-07-2003 13:59:01 23.6 C 8.08 g/m*3 23.6 C 0 km/h
558 01-07-2003 14:05:01 23.2 C 8.11 g/m*3 23.2 C 0 km/h
559 01-07-2003 14:11:01 23.2 C 8.32 g/m*3 23.2 C 0 km/h
560 01-07-2003 14:17:01 23.8 C 8.39 g/m*3 23.8 C 0 km/h
561 01-07-2003 14:23:01 24 C 7.83 g/m*3 24 C 0 km/h
562 01-07-2003 14:29:01 23.4 C 7.99 g/m*3 23.4 C 0 km/h
563 01-07-2003 14:35:02 23.2 C 8.11 g/m*3 23.2 C 0 km/h
564 01-07-2003 14:41:02 22.7 C 8.08 g/m*3 22.7 C 0 km/h
565 01-07-2003 14:47:02 22 C 8.35 g/m*3 22 C 0 km/h
566 01-07-2003 14:53:02 21.9 C 8.88 g/m*3 21.9 C 0 km/h
567 01-07-2003 14:59:02 21.6 C 8.72 g/m*3 21.6 C 0 km/h
568 01-07-2003 15:05:01 22 C 8.93 g/m*3 22 C 0 km/h
569 01-07-2003 15:11:01 22.6 C 9.04 g/m*3 22.6 C 0 km/h
570 01-07-2003 15:17:01 22.8 C 8.94 g/m*3 22.8 C 0 km/h
571 01-07-2003 15:23:01 23.5 C 9.09 g/m*3 23.5 C 0 km/h
572 01-07-2003 15:29:01 23.8 C 9.03 g/m*3 23.8 C 0 km/h
573 01-07-2003 15:35:02 24.4 C 8.9 g/m*3 24.4 C 0 km/h
574 01-07-2003 15:41:02 24.2 C 8.8 g/m*3 24.2 C 0 km/h
575 01-07-2003 15:47:02 23.9 C 9.09 g/m*3 23.9 C 0 km/h
Sensor: Nr:Datum:Temp:Abs-Feuchte:Windchill:Wind:
Aussen-T/F 576 01-07-2003 15:53:02 23.4 C 8.83 g/m*3 23.4 C 0 km/h
577 01-07-2003 15:59:02 23.1 C 9.1 g/m*3 23.1 C 0 km/h
578 01-07-2003 16:05:02 23.6 C 9.36 g/m*3 23.6 C 0 km/h
579 01-07-2003 16:11:02 22.7 C 9.5 g/m*3 22.7 C 0 km/h
580 01-07-2003 16:17:02 22.5 C 9.59 g/m*3 22.5 C 0 km/h
581 01-07-2003 16:23:02 22.8 C 10.16 g/m*3 22.8 C 0 km/h
582 01-07-2003 16:29:02 22.6 C 10.04 g/m*3 22.6 C 0 km/h
583 01-07-2003 16:35:01 22.4 C 10.72 g/m*3 22.4 C 0 km/h
584 01-07-2003 16:41:01 22.6 C 10.85 g/m*3 22.6 C 0 km/h
585 01-07-2003 16:47:01 22.9 C 10.01 g/m*3 22.9 C 0 km/h
586 01-07-2003 16:53:01 23.8 C 9.9 g/m*3 23.8 C 0 km/h
587 01-07-2003 16:59:01 25 C 9.9 g/m*3 25 C 0 km/h
588 01-07-2003 17:05:02 25.1 C 9.49 g/m*3 25.1 C 0 km/h
589 01-07-2003 17:11:02 24.5 C 9.62 g/m*3 24.5 C 0 km/h
590 01-07-2003 17:17:02 23.9 C 9.74 g/m*3 23.9 C 0 km/h
591 01-07-2003 17:23:02 23.6 C 9.57 g/m*3 23.6 C 0 km/h
592 01-07-2003 17:29:02 23.6 C 10.42 g/m*3 23.6 C 0 km/h
593 01-07-2003 17:35:01 23.1 C 10.96 g/m*3 23.1 C 0 km/h
594 01-07-2003 17:41:01 22.4 C 10.33 g/m*3 22.4 C 0 km/h
595 01-07-2003 17:47:01 22.4 C 10.13 g/m*3 22.4 C 0 km/h
596 01-07-2003 17:53:01 22.3 C 10.27 g/m*3 22.3 C 0 km/h
597 01-07-2003 17:59:01 22 C 10.29 g/m*3 22 C 0 km/h
598 01-07-2003 18:05:01 21.2 C 11.49 g/m*3 21.2 C 0 km/h
599 01-07-2003 18:11:01 20 C 11.23 g/m*3 20 C 0 km/h
600 01-07-2003 18:17:01 19 C 12.55 g/m*3 19 C 0 km/h
Sensor: Nr:Datum:Temp:Abs-Feuchte:Windchill:Wind:
Aussen-T/F 601 01-07-2003 18:23:01 18.7 C 12.81 g/m*3 18.7 C 0 km/h
602 01-07-2003 18:29:01 18.9 C 13.61 g/m*3 18.9 C 0 km/h
603 01-07-2003 18:35:02 18.5 C 12.66 g/m*3 18.5 C 0 km/h
604 01-07-2003 18:41:02 18.1 C 12.52 g/m*3 18.1 C 0 km/h
605 01-07-2003 18:47:02 16.8 C 11.44 g/m*3 16.8 C 0 km/h
606 01-07-2003 18:53:02 16 C 10.9 g/m*3 16 C 0 km/h
607 01-07-2003 18:59:02 15.7 C 11.11 g/m*3 15.7 C 0 km/h
608 01-07-2003 19:05:01 15.9 C 11.51 g/m*3 15.9 C 0 km/h
609 01-07-2003 19:11:01 16.2 C 12 g/m*3 16.2 C 0 km/h
610 01-07-2003 19:17:01 17.1 C 12.81 g/m*3 17.1 C 0 km/h
611 01-07-2003 19:23:01 17.3 C 12.67 g/m*3 17.3 C 0 km/h
612 01-07-2003 19:29:01 18.2 C 13.21 g/m*3 18.2 C 0 km/h
613 01-07-2003 19:35:00 18.7 C 12.33 g/m*3 18.7 C 0 km/h
614 01-07-2003 19:41:00 18.7 C 11.53 g/m*3 18.7 C 0 km/h
615 01-07-2003 19:47:00 19.5 C 11.58 g/m*3 19.5 C 0 km/h
616 01-07-2003 19:53:00 19.9 C 11.34 g/m*3 19.9 C 0 km/h
617 01-07-2003 19:59:00 20 C 11.06 g/m*3 20 C 0 km/h
618 01-07-2003 20:05:01 20.4 C 11.14 g/m*3 20.4 C 0 km/h
619 01-07-2003 20:11:01 19.9 C 10.65 g/m*3 19.9 C 0 km/h
620 01-07-2003 20:17:01 19.7 C 10.7 g/m*3 19.7 C 0 km/h
621 01-07-2003 20:23:01 19.1 C 10.33 g/m*3 19.1 C 0 km/h
622 01-07-2003 20:29:01 18.8 C 10.63 g/m*3 18.8 C 0 km/h
623 01-07-2003 20:35:01 19 C 10.76 g/m*3 19 C 0 km/h
624 01-07-2003 20:41:01 19.5 C 11.08 g/m*3 19.5 C 0 km/h
625 01-07-2003 20:47:01 19.5 C 10.74 g/m*3 19.5 C 0 km/h
Sensor: Nr:Datum:Temp:Abs-Feuchte:Windchill:Wind:
Aussen-T/F 626 01-07-2003 20:53:01 19.2 C 10.72 g/m*3 19.2 C 0 km/h
627 01-07-2003 20:59:01 18.5 C 10.6 g/m*3 18.5 C 0 km/h
628 01-07-2003 21:05:01 17.9 C 11.15 g/m*3 17.9 C 0 km/h
629 01-07-2003 21:11:01 17.2 C 11.28 g/m*3 17.2 C 0 km/h
630 01-07-2003 21:17:01 16.8 C 11.29 g/m*3 16.8 C 0 km/h
631 01-07-2003 21:23:01 16.6 C 11.02 g/m*3 16.6 C 0 km/h
632 01-07-2003 21:29:01 16.6 C 11.16 g/m*3 16.6 C 0 km/h
633 01-07-2003 21:35:01 16.6 C 11.44 g/m*3 16.6 C 0 km/h
634 01-07-2003 21:41:01 16.7 C 11.37 g/m*3 16.7 C 0 km/h
635 01-07-2003 21:47:01 16.6 C 11.02 g/m*3 16.6 C 0 km/h
636 01-07-2003 21:53:01 16.5 C 10.95 g/m*3 16.5 C 0 km/h
637 01-07-2003 21:59:01 16.4 C 10.47 g/m*3 16.4 C 0 km/h
638 01-07-2003 22:05:02 16.3 C 10.41 g/m*3 16.3 C 0 km/h
639 01-07-2003 22:17:02 16.1 C 10.14 g/m*3 16.1 C 0 km/h
640 01-07-2003 22:23:02 16 C 10.08 g/m*3 16 C 0 km/h
641 01-07-2003 22:29:02 16.2 C 10.2 g/m*3 16.2 C 0 km/h
642 01-07-2003 22:36:02 16.1 C 10.01 g/m*3 16.1 C 0 km/h
643 01-07-2003 22:42:02 16 C 10.08 g/m*3 16 C 0 km/h
644 01-07-2003 22:48:02 15.9 C 10.16 g/m*3 15.9 C 0 km/h
645 01-07-2003 22:54:02 15.9 C 10.02 g/m*3 15.9 C 0 km/h
646 01-07-2003 23:00:02 15.8 C 9.96 g/m*3 15.8 C 0 km/h
647 01-07-2003 23:06:02 15.7 C 10.03 g/m*3 15.7 C 0 km/h
648 01-07-2003 23:12:02 15.6 C 10.11 g/m*3 15.6 C 0 km/h
649 01-07-2003 23:18:02 15.5 C 10.05 g/m*3 15.5 C 0 km/h
650 01-07-2003 23:24:02 15.4 C 10.12 g/m*3 15.4 C 0 km/h
Sensor: Nr:Datum:Temp:Abs-Feuchte:Windchill:Wind:
Aussen-T/F 651 01-07-2003 23:30:02 15.4 C 10.12 g/m*3 15.4 C 0 km/h
652 01-07-2003 23:36:02 15.3 C 10.06 g/m*3 15.3 C 0 km/h
653 01-07-2003 23:42:02 15.4 C 9.99 g/m*3 15.4 C 0 km/h
654 01-07-2003 23:48:02 15.4 C 9.99 g/m*3 15.4 C 0 km/h
655 01-07-2003 23:54:02 15.4 C 9.99 g/m*3 15.4 C 0 km/h
656 02-07-2003 00:00:08 15.2 C 9.99 g/m*3 15.2 C 0 km/h
657 02-07-2003 00:06:08 15.1 C 10.06 g/m*3 15.1 C 0 km/h
658 02-07-2003 00:12:08 15 C 10 g/m*3 15 C 0 km/h
659 02-07-2003 00:18:08 15.1 C 10.06 g/m*3 15.1 C 0 km/h
660 02-07-2003 00:24:08 15.2 C 10.12 g/m*3 15.2 C 0 km/h
661 02-07-2003 00:30:08 15.2 C 10.12 g/m*3 15.2 C 0 km/h
662 02-07-2003 00:36:08 15.1 C 10.06 g/m*3 15.1 C 0 km/h
663 02-07-2003 00:42:08 15.2 C 9.99 g/m*3 15.2 C 0 km/h
664 02-07-2003 00:48:08 15.4 C 10.12 g/m*3 15.4 C 0 km/h
665 02-07-2003 00:54:08 15.4 C 9.99 g/m*3 15.4 C 0 km/h
666 02-07-2003 01:00:08 15.5 C 10.05 g/m*3 15.5 C 0 km/h
667 02-07-2003 01:06:08 15.5 C 10.05 g/m*3 15.5 C 0 km/h
668 02-07-2003 01:12:08 15.5 C 10.05 g/m*3 15.5 C 0 km/h
669 02-07-2003 01:18:08 15.6 C 10.11 g/m*3 15.6 C 0 km/h
670 02-07-2003 01:24:08 15.6 C 10.11 g/m*3 15.6 C 0 km/h
671 02-07-2003 01:30:08 15.6 C 9.97 g/m*3 15.6 C 0 km/h
672 02-07-2003 01:36:08 15.6 C 9.97 g/m*3 15.6 C 0 km/h
673 02-07-2003 01:42:08 15.5 C 9.91 g/m*3 15.5 C 0 km/h
674 02-07-2003 01:48:08 15.4 C 9.85 g/m*3 15.4 C 0 km/h
675 02-07-2003 01:54:08 15.4 C 9.85 g/m*3 15.4 C 0 km/h
Sensor: Nr:Datum:Temp:Abs-Feuchte:Windchill:Wind:
Aussen-T/F 676 02-07-2003 02:00:08 15.4 C 9.85 g/m*3 15.4 C 0 km/h
677 02-07-2003 02:06:08 15.5 C 9.78 g/m*3 15.5 C 0 km/h
678 02-07-2003 02:12:08 15.5 C 9.78 g/m*3 15.5 C 0 km/h
679 02-07-2003 02:18:08 15.4 C 9.72 g/m*3 15.4 C 0 km/h
680 02-07-2003 02:24:08 15.4 C 9.72 g/m*3 15.4 C 0 km/h
681 02-07-2003 02:30:08 15.2 C 9.73 g/m*3 15.2 C 0 km/h
682 02-07-2003 02:36:08 15.1 C 9.68 g/m*3 15.1 C 0 km/h
683 02-07-2003 02:42:08 15.1 C 9.68 g/m*3 15.1 C 0 km/h
684 02-07-2003 02:48:08 15.2 C 9.73 g/m*3 15.2 C 0 km/h
685 02-07-2003 02:54:08 15.2 C 9.73 g/m*3 15.2 C 0 km/h
686 02-07-2003 03:00:08 15.3 C 9.79 g/m*3 15.3 C 0 km/h
687 02-07-2003 03:06:08 15.3 C 9.92 g/m*3 15.3 C 0 km/h
688 02-07-2003 03:12:08 15.1 C 9.8 g/m*3 15.1 C 0 km/h
689 02-07-2003 03:18:08 15.1 C 9.8 g/m*3 15.1 C 0 km/h
690 02-07-2003 03:24:08 15 C 9.87 g/m*3 15 C 0 km/h
691 02-07-2003 03:30:08 15 C 9.75 g/m*3 15 C 0 km/h
692 02-07-2003 03:36:08 15.1 C 9.8 g/m*3 15.1 C 0 km/h
693 02-07-2003 03:42:08 15.1 C 9.8 g/m*3 15.1 C 0 km/h
694 02-07-2003 03:48:08 15.1 C 9.68 g/m*3 15.1 C 0 km/h
695 02-07-2003 03:54:08 15.2 C 9.73 g/m*3 15.2 C 0 km/h
696 02-07-2003 04:00:08 15.1 C 9.68 g/m*3 15.1 C 0 km/h
697 02-07-2003 04:06:08 15.1 C 9.68 g/m*3 15.1 C 0 km/h
698 02-07-2003 04:12:08 15.1 C 9.68 g/m*3 15.1 C 0 km/h
699 02-07-2003 04:18:08 15.1 C 9.68 g/m*3 15.1 C 0 km/h
700 02-07-2003 04:24:08 15.1 C 9.68 g/m*3 15.1 C 0 km/h
Sensor: Nr:Datum:Temp:Abs-Feuchte:Windchill:Wind:
Aussen-T/F 701 02-07-2003 04:30:08 15 C 9.62 g/m*3 15 C 0 km/h
702 02-07-2003 04:36:08 15 C 9.62 g/m*3 15 C 0 km/h
703 02-07-2003 04:42:08 15 C 9.62 g/m*3 15 C 0 km/h
704 02-07-2003 04:48:08 15.1 C 9.68 g/m*3 15.1 C 0 km/h
705 02-07-2003 04:54:08 15.1 C 9.68 g/m*3 15.1 C 0 km/h
706 02-07-2003 05:00:08 15 C 9.62 g/m*3 15 C 0 km/h
707 02-07-2003 05:06:08 15 C 9.62 g/m*3 15 C 0 km/h
708 02-07-2003 05:12:08 15 C 9.62 g/m*3 15 C 0 km/h
709 02-07-2003 05:18:08 15 C 9.62 g/m*3 15 C 0 km/h
710 02-07-2003 05:24:08 15 C 9.49 g/m*3 15 C 0 km/h
711 02-07-2003 05:30:08 15.1 C 9.55 g/m*3 15.1 C 0 km/h
712 02-07-2003 05:36:08 15 C 9.49 g/m*3 15 C 0 km/h
713 02-07-2003 05:42:08 15 C 9.49 g/m*3 15 C 0 km/h
714 02-07-2003 05:48:08 15.1 C 9.55 g/m*3 15.1 C 0 km/h
715 02-07-2003 05:54:08 15.1 C 9.55 g/m*3 15.1 C 0 km/h
716 02-07-2003 06:00:08 15.2 C 9.61 g/m*3 15.2 C 0 km/h
717 02-07-2003 06:06:08 15.2 C 9.61 g/m*3 15.2 C 0 km/h
718 02-07-2003 06:12:08 15.3 C 9.66 g/m*3 15.3 C 0 km/h
719 02-07-2003 06:18:08 15.4 C 9.59 g/m*3 15.4 C 0 km/h
720 02-07-2003 06:24:08 15.5 C 9.65 g/m*3 15.5 C 0 km/h
721 02-07-2003 06:30:08 15.5 C 9.65 g/m*3 15.5 C 0 km/h
722 02-07-2003 06:36:08 15.5 C 9.78 g/m*3 15.5 C 0 km/h
723 02-07-2003 06:42:08 15.5 C 9.78 g/m*3 15.5 C 0 km/h
724 02-07-2003 06:48:08 15.5 C 9.91 g/m*3 15.5 C 0 km/h
725 02-07-2003 06:54:08 15.6 C 9.97 g/m*3 15.6 C 0 km/h
Sensor: Nr:Datum:Temp:Abs-Feuchte:Windchill:Wind:
Aussen-T/F 726 02-07-2003 07:00:08 15.6 C 9.84 g/m*3 15.6 C 0 km/h
727 02-07-2003 07:06:08 15.7 C 9.77 g/m*3 15.7 C 0 km/h
728 02-07-2003 07:12:08 15.7 C 9.77 g/m*3 15.7 C 0 km/h
729 02-07-2003 07:18:08 15.7 C 9.77 g/m*3 15.7 C 0 km/h
730 02-07-2003 07:24:08 15.8 C 9.69 g/m*3 15.8 C 0 km/h
731 02-07-2003 07:30:08 15.8 C 9.69 g/m*3 15.8 C 0 km/h
732 02-07-2003 07:36:08 15.9 C 9.75 g/m*3 15.9 C 0 km/h
733 02-07-2003 07:42:08 15.8 C 9.69 g/m*3 15.8 C 0 km/h
734 02-07-2003 07:48:08 15.8 C 9.69 g/m*3 15.8 C 0 km/h
735 02-07-2003 07:54:08 15.8 C 9.69 g/m*3 15.8 C 0 km/h
736 02-07-2003 08:00:08 16 C 9.67 g/m*3 16 C 0 km/h
737 02-07-2003 08:06:08 16 C 9.67 g/m*3 16 C 0 km/h
738 02-07-2003 08:12:08 16 C 9.81 g/m*3 16 C 0 km/h
739 02-07-2003 08:18:08 16.1 C 9.73 g/m*3 16.1 C 0 km/h
740 02-07-2003 08:24:08 16.2 C 9.65 g/m*3 16.2 C 0 km/h
741 02-07-2003 08:30:08 16.4 C 9.63 g/m*3 16.4 C 0 km/h
742 02-07-2003 08:36:08 16.6 C 9.75 g/m*3 16.6 C 0 km/h
743 02-07-2003 08:42:08 16.6 C 9.75 g/m*3 16.6 C 0 km/h
744 02-07-2003 08:48:08 16.8 C 9.72 g/m*3 16.8 C 0 km/h
745 02-07-2003 08:54:08 16.8 C 9.72 g/m*3 16.8 C 0 km/h
746 02-07-2003 09:00:08 16.8 C 9.72 g/m*3 16.8 C 0 km/h
747 02-07-2003 09:06:08 16.9 C 9.64 g/m*3 16.9 C 0 km/h
748 02-07-2003 09:12:08 16.9 C 9.64 g/m*3 16.9 C 0 km/h
749 02-07-2003 09:18:08 17 C 9.55 g/m*3 17 C 0 km/h
750 02-07-2003 09:24:08 17 C 9.41 g/m*3 17 C 0 km/h
Sensor: Nr:Datum:Temp:Abs-Feuchte:Windchill:Wind:
Aussen-T/F 751 02-07-2003 09:30:08 17.3 C 9.58 g/m*3 17.3 C 0 km/h
752 02-07-2003 09:36:01 17.5 C 9.54 g/m*3 17.5 C 0 km/h
753 02-07-2003 09:42:01 17.9 C 9.47 g/m*3 17.9 C 0 km/h
754 02-07-2003 09:48:01 17.8 C 9.41 g/m*3 17.8 C 0 km/h
755 02-07-2003 09:54:01 17.9 C 9.47 g/m*3 17.9 C 0 km/h
756 02-07-2003 10:00:01 17.7 C 9.51 g/m*3 17.7 C 0 km/h
757 02-07-2003 10:06:00 17.7 C 9.51 g/m*3 17.7 C 0 km/h
758 02-07-2003 10:12:00 17.5 C 9.39 g/m*3 17.5 C 0 km/h
759 02-07-2003 10:18:00 17.9 C 9.47 g/m*3 17.9 C 0 km/h
760 02-07-2003 10:24:00 18.3 C 9.38 g/m*3 18.3 C 0 km/h
761 02-07-2003 10:30:00 18.8 C 9.5 g/m*3 18.8 C 0 km/h
762 02-07-2003 10:36:01 19.1 C 9.34 g/m*3 19.1 C 0 km/h
763 02-07-2003 10:42:01 19.5 C 9.57 g/m*3 19.5 C 0 km/h
764 02-07-2003 10:48:01 19.5 C 9.23 g/m*3 19.5 C 0 km/h
765 02-07-2003 10:54:01 19.9 C 9.62 g/m*3 19.9 C 0 km/h
766 02-07-2003 11:00:01 19.7 C 9.34 g/m*3 19.7 C 0 km/h
767 02-07-2003 11:06:01 20.1 C 9.56 g/m*3 20.1 C 0 km/h
768 02-07-2003 11:12:01 20.5 C 9.43 g/m*3 20.5 C 0 km/h
769 02-07-2003 11:18:01 19.9 C 9.28 g/m*3 19.9 C 0 km/h
770 02-07-2003 11:24:01 20.6 C 9.49 g/m*3 20.6 C 0 km/h
771 02-07-2003 11:30:01 20.6 C 9.66 g/m*3 20.6 C 0 km/h
772 02-07-2003 11:36:01 20.7 C 9.36 g/m*3 20.7 C 0 km/h
773 02-07-2003 11:42:01 21.1 C 9.03 g/m*3 21.1 C 0 km/h
774 02-07-2003 11:48:01 21 C 8.79 g/m*3 21 C 0 km/h
775 02-07-2003 11:54:01 20.6 C 8.95 g/m*3 20.6 C 0 km/h
Sensor: Nr:Datum:Temp:Abs-Feuchte:Windchill:Wind:
Aussen-T/F 776 02-07-2003 12:00:01 20.4 C 9.2 g/m*3 20.4 C 0 km/h
777 02-07-2003 12:06:02 20.3 C 8.97 g/m*3 20.3 C 0 km/h
778 02-07-2003 12:12:02 21.2 C 8.71 g/m*3 21.2 C 0 km/h
779 02-07-2003 12:18:02 21.2 C 8.71 g/m*3 21.2 C 0 km/h
780 02-07-2003 12:24:02 22 C 8.93 g/m*3 22 C 0 km/h
781 02-07-2003 12:30:02 22.5 C 8.59 g/m*3 22.5 C 0 km/h
782 02-07-2003 12:36:01 21.9 C 8.3 g/m*3 21.9 C 0 km/h
783 02-07-2003 12:42:01 22.5 C 8.79 g/m*3 22.5 C 0 km/h
784 02-07-2003 12:48:01 23.3 C 8.57 g/m*3 23.3 C 0 km/h
785 02-07-2003 12:54:01 23.1 C 8.27 g/m*3 23.1 C 0 km/h
786 02-07-2003 13:00:01 22.7 C 8.69 g/m*3 22.7 C 0 km/h
787 02-07-2003 13:06:01 23.3 C 8.36 g/m*3 23.3 C 0 km/h
788 02-07-2003 13:12:01 23.3 C 8.15 g/m*3 23.3 C 0 km/h
789 02-07-2003 13:18:01 23.6 C 8.51 g/m*3 23.6 C 0 km/h
790 02-07-2003 13:24:01 24.3 C 8.19 g/m*3 24.3 C 0 km/h
791 02-07-2003 13:30:01 24.2 C 8.36 g/m*3 24.2 C 0 km/h
792 02-07-2003 13:36:01 24.4 C 8.01 g/m*3 24.4 C 0 km/h
793 02-07-2003 13:42:01 23 C 7.4 g/m*3 23 C 0 km/h
794 02-07-2003 13:48:01 23.2 C 7.48 g/m*3 23.2 C 0 km/h
795 02-07-2003 13:54:01 23.4 C 7.36 g/m*3 23.4 C 0 km/h
796 02-07-2003 14:00:01 23.2 C 7.69 g/m*3 23.2 C 0 km/h
797 02-07-2003 14:06:01 23.2 C 7.48 g/m*3 23.2 C 0 km/h
798 02-07-2003 14:12:01 22.9 C 7.56 g/m*3 22.9 C 0 km/h
799 02-07-2003 14:18:01 22.6 C 7.63 g/m*3 22.6 C 0 km/h
800 02-07-2003 14:24:01 22.5 C 7.99 g/m*3 22.5 C 0 km/h
Sensor: Nr:Datum:Temp:Abs-Feuchte:Windchill:Wind:
Aussen-T/F 801 02-07-2003 14:30:01 22.7 C 8.08 g/m*3 22.7 C 0 km/h
802 02-07-2003 14:36:01 22.8 C 8.13 g/m*3 22.8 C 0 km/h
803 02-07-2003 14:42:01 22.2 C 8.05 g/m*3 22.2 C 0 km/h
804 02-07-2003 14:48:01 22.9 C 8.38 g/m*3 22.9 C 0 km/h
805 02-07-2003 14:54:01 23.6 C 8.08 g/m*3 23.6 C 0 km/h
806 02-07-2003 15:00:01 24 C 7.83 g/m*3 24 C 0 km/h
807 02-07-2003 15:06:07 23.2 C 7.28 g/m*3 23.2 C 0 km/h
808 02-07-2003 15:12:07 23.4 C 7.57 g/m*3 23.4 C 0 km/h
809 02-07-2003 15:18:07 23.4 C 7.57 g/m*3 23.4 C 0 km/h
810 02-07-2003 15:24:07 24 C 7.83 g/m*3 24 C 0 km/h
811 02-07-2003 15:30:07 23.6 C 7.44 g/m*3 23.6 C 0 km/h
812 02-07-2003 15:36:01 22.7 C 7.48 g/m*3 22.7 C 0 km/h
813 02-07-2003 15:42:01 22.3 C 7.5 g/m*3 22.3 C 0 km/h
814 02-07-2003 15:48:01 22.6 C 7.83 g/m*3 22.6 C 0 km/h
815 02-07-2003 15:54:01 23 C 7.6 g/m*3 23 C 0 km/h
816 02-07-2003 16:00:01 23.4 C 7.99 g/m*3 23.4 C 0 km/h
817 02-07-2003 16:06:01 24.2 C 7.92 g/m*3 24.2 C 0 km/h
818 02-07-2003 16:12:01 24.8 C 7.51 g/m*3 24.8 C 0 km/h
819 02-07-2003 16:18:01 24.3 C 7.3 g/m*3 24.3 C 0 km/h
820 02-07-2003 16:24:01 24.5 C 7.61 g/m*3 24.5 C 0 km/h
821 02-07-2003 16:30:01 25.2 C 7.68 g/m*3 25.2 C 0 km/h
822 02-07-2003 16:36:00 25.7 C 7.9 g/m*3 25.7 C 0 km/h
823 02-07-2003 16:42:00 24.8 C 7.74 g/m*3 24.8 C 0 km/h
824 02-07-2003 16:48:00 24.8 C 7.97 g/m*3 24.8 C 0 km/h
825 02-07-2003 16:54:00 24.6 C 7.65 g/m*3 24.6 C 0 km/h
Sensor: Nr:Datum:Temp:Abs-Feuchte:Windchill:Wind:
Aussen-T/F 826 02-07-2003 17:00:00 23.8 C 7.74 g/m*3 23.8 C 0 km/h
827 02-07-2003 17:06:02 23.3 C 7.95 g/m*3 23.3 C 0 km/h
828 02-07-2003 17:12:02 21.9 C 7.72 g/m*3 21.9 C 0 km/h
829 02-07-2003 17:18:02 20.5 C 7.65 g/m*3 20.5 C 0 km/h
830 02-07-2003 17:24:02 20.3 C 8.09 g/m*3 20.3 C 0 km/h
831 02-07-2003 17:30:02 19.6 C 8.1 g/m*3 19.6 C 0 km/h
832 02-07-2003 17:36:02 19.5 C 8.56 g/m*3 19.5 C 0 km/h
833 02-07-2003 17:42:02 18.7 C 8.97 g/m*3 18.7 C 0 km/h
834 02-07-2003 17:48:02 19.2 C 9.07 g/m*3 19.2 C 0 km/h
835 02-07-2003 17:54:02 19.5 C 8.89 g/m*3 19.5 C 0 km/h
836 02-07-2003 18:00:02 19.1 C 9.34 g/m*3 19.1 C 0 km/h
837 02-07-2003 18:06:02 17.2 C 10.84 g/m*3 17.2 C 0 km/h
838 02-07-2003 18:12:02 16.4 C 10.89 g/m*3 16.4 C 0 km/h
839 02-07-2003 18:18:02 16.3 C 11.24 g/m*3 16.3 C 0 km/h
840 02-07-2003 18:24:02 16.4 C 11.17 g/m*3 16.4 C 0 km/h
841 02-07-2003 18:30:02 16.8 C 11.15 g/m*3 16.8 C 0 km/h
842 02-07-2003 18:36:01 16.9 C 11.08 g/m*3 16.9 C 0 km/h
843 02-07-2003 18:42:01 17 C 10.71 g/m*3 17 C 0 km/h
844 02-07-2003 18:48:01 17 C 10.27 g/m*3 17 C 0 km/h
845 02-07-2003 18:54:01 16.8 C 10.15 g/m*3 16.8 C 0 km/h
846 02-07-2003 19:00:01 16.8 C 10.29 g/m*3 16.8 C 0 km/h
847 02-07-2003 19:06:00 16.8 C 10.29 g/m*3 16.8 C 0 km/h
848 02-07-2003 19:12:00 17 C 10.27 g/m*3 17 C 0 km/h
849 02-07-2003 19:18:00 17 C 10.27 g/m*3 17 C 0 km/h
850 02-07-2003 19:24:00 17.2 C 9.96 g/m*3 17.2 C 0 km/h
Sensor: Nr:Datum:Temp:Abs-Feuchte:Windchill:Wind:
Aussen-T/F 851 02-07-2003 19:30:00 17.3 C 10.16 g/m*3 17.3 C 0 km/h
852 02-07-2003 19:36:01 17.4 C 9.78 g/m*3 17.4 C 0 km/h
853 02-07-2003 19:42:01 18.3 C 9.85 g/m*3 18.3 C 0 km/h
854 02-07-2003 19:48:01 18.6 C 9.87 g/m*3 18.6 C 0 km/h
855 02-07-2003 19:54:01 19.2 C 9.73 g/m*3 19.2 C 0 km/h
856 02-07-2003 20:00:01 19 C 9.61 g/m*3 19 C 0 km/h
857 02-07-2003 20:06:02 18.9 C 9.88 g/m*3 18.9 C 0 km/h
858 02-07-2003 20:12:02 18.5 C 9.97 g/m*3 18.5 C 0 km/h
859 02-07-2003 20:18:02 18.2 C 9.95 g/m*3 18.2 C 0 km/h
860 02-07-2003 20:24:02 18 C 9.83 g/m*3 18 C 0 km/h
861 02-07-2003 20:30:02 17.9 C 10.08 g/m*3 17.9 C 0 km/h
862 02-07-2003 20:36:01 17.9 C 10.23 g/m*3 17.9 C 0 km/h
863 02-07-2003 20:42:01 17.6 C 10.35 g/m*3 17.6 C 0 km/h
864 02-07-2003 20:48:01 17.2 C 10.1 g/m*3 17.2 C 0 km/h
865 02-07-2003 20:54:01 17.2 C 9.96 g/m*3 17.2 C 0 km/h
866 02-07-2003 21:00:01 17.1 C 9.9 g/m*3 17.1 C 0 km/h
867 02-07-2003 21:06:01 17.1 C 9.9 g/m*3 17.1 C 0 km/h
868 02-07-2003 21:12:01 17.2 C 9.81 g/m*3 17.2 C 0 km/h
869 02-07-2003 21:18:01 17.2 C 9.81 g/m*3 17.2 C 0 km/h
870 02-07-2003 21:24:01 16.6 C 10.31 g/m*3 16.6 C 0 km/h
871 02-07-2003 21:30:01 16.1 C 10.69 g/m*3 16.1 C 0 km/h
872 02-07-2003 21:36:01 15.8 C 10.63 g/m*3 15.8 C 0 km/h
873 02-07-2003 21:42:01 15.8 C 10.77 g/m*3 15.8 C 0 km/h
874 02-07-2003 21:48:01 15.9 C 10.7 g/m*3 15.9 C 0 km/h
875 02-07-2003 21:54:01 16 C 10.63 g/m*3 16 C 0 km/h
Sensor: Nr:Datum:Temp:Abs-Feuchte:Windchill:Wind:
Aussen-T/F 876 02-07-2003 22:00:01 15.9 C 10.43 g/m*3 15.9 C 0 km/h
877 02-07-2003 22:06:01 15.8 C 10.5 g/m*3 15.8 C 0 km/h
878 02-07-2003 22:12:01 15.7 C 10.57 g/m*3 15.7 C 0 km/h
879 02-07-2003 22:18:01 15.6 C 10.64 g/m*3 15.6 C 0 km/h
880 02-07-2003 22:24:01 15.5 C 10.71 g/m*3 15.5 C 0 km/h
881 02-07-2003 22:30:01 15.4 C 10.64 g/m*3 15.4 C 0 km/h
882 02-07-2003 22:36:00 15.4 C 10.64 g/m*3 15.4 C 0 km/h
883 02-07-2003 22:42:00 15.2 C 10.64 g/m*3 15.2 C 0 km/h
884 02-07-2003 22:48:00 15.2 C 10.77 g/m*3 15.2 C 0 km/h
885 02-07-2003 22:54:00 15.1 C 10.71 g/m*3 15.1 C 0 km/h
886 02-07-2003 23:00:00 15.1 C 10.71 g/m*3 15.1 C 0 km/h
887 02-07-2003 23:06:01 15.1 C 10.71 g/m*3 15.1 C 0 km/h
888 02-07-2003 23:12:01 15.2 C 10.77 g/m*3 15.2 C 0 km/h
889 02-07-2003 23:18:01 15.3 C 10.71 g/m*3 15.3 C 0 km/h
890 02-07-2003 23:24:01 15.4 C 10.64 g/m*3 15.4 C 0 km/h
891 02-07-2003 23:30:01 15.4 C 10.64 g/m*3 15.4 C 0 km/h
892 02-07-2003 23:36:01 15.4 C 10.64 g/m*3 15.4 C 0 km/h
893 02-07-2003 23:42:01 15.3 C 10.58 g/m*3 15.3 C 0 km/h
894 02-07-2003 23:54:01 15.2 C 10.64 g/m*3 15.2 C 0 km/h
895 03-07-2003 00:00:01 15.2 C 10.64 g/m*3 15.2 C 0 km/h
896 03-07-2003 00:06:02 15.1 C 10.58 g/m*3 15.1 C 0 km/h
897 03-07-2003 00:12:02 15.1 C 10.58 g/m*3 15.1 C 0 km/h
898 03-07-2003 00:18:02 15.2 C 10.64 g/m*3 15.2 C 0 km/h
899 03-07-2003 00:24:02 15.2 C 10.64 g/m*3 15.2 C 0 km/h
900 03-07-2003 00:30:02 15.2 C 10.64 g/m*3 15.2 C 0 km/h
Sensor: Nr:Datum:Temp:Abs-Feuchte:Windchill:Wind:
Aussen-T/F 901 03-07-2003 00:37:02 15.3 C 10.71 g/m*3 15.3 C 0 km/h
902 03-07-2003 00:43:02 15.3 C 10.71 g/m*3 15.3 C 0 km/h
903 03-07-2003 00:49:02 15.3 C 10.71 g/m*3 15.3 C 0 km/h
904 03-07-2003 00:55:02 15.2 C 10.64 g/m*3 15.2 C 0 km/h
905 03-07-2003 01:01:02 15.2 C 10.64 g/m*3 15.2 C 0 km/h
906 03-07-2003 01:07:02 15.2 C 10.64 g/m*3 15.2 C 0 km/h
907 03-07-2003 01:13:02 15.2 C 10.64 g/m*3 15.2 C 0 km/h
908 03-07-2003 01:19:02 15.1 C 10.58 g/m*3 15.1 C 0 km/h
909 03-07-2003 01:25:02 15 C 10.51 g/m*3 15 C 0 km/h
910 03-07-2003 01:31:02 15.1 C 10.58 g/m*3 15.1 C 0 km/h
911 03-07-2003 01:37:02 15 C 10.51 g/m*3 15 C 0 km/h
912 03-07-2003 01:43:02 15.1 C 10.58 g/m*3 15.1 C 0 km/h
913 03-07-2003 01:49:02 15.1 C 10.58 g/m*3 15.1 C 0 km/h
914 03-07-2003 01:55:02 15.2 C 10.64 g/m*3 15.2 C 0 km/h
915 03-07-2003 02:01:02 15.2 C 10.64 g/m*3 15.2 C 0 km/h
916 03-07-2003 02:07:02 15.2 C 10.51 g/m*3 15.2 C 0 km/h
917 03-07-2003 02:13:02 15.1 C 10.58 g/m*3 15.1 C 0 km/h
918 03-07-2003 02:19:02 15.2 C 10.64 g/m*3 15.2 C 0 km/h
919 03-07-2003 02:25:02 15.1 C 10.58 g/m*3 15.1 C 0 km/h
920 03-07-2003 02:31:02 15.2 C 10.51 g/m*3 15.2 C 0 km/h
921 03-07-2003 02:37:02 15.1 C 10.45 g/m*3 15.1 C 0 km/h
922 03-07-2003 02:43:02 15.1 C 10.45 g/m*3 15.1 C 0 km/h
923 03-07-2003 02:49:02 15.1 C 10.32 g/m*3 15.1 C 0 km/h
924 03-07-2003 02:55:02 15.1 C 10.32 g/m*3 15.1 C 0 km/h
925 03-07-2003 03:01:02 15.1 C 10.32 g/m*3 15.1 C 0 km/h
Sensor: Nr:Datum:Temp:Abs-Feuchte:Windchill:Wind:
Aussen-T/F 926 03-07-2003 03:07:02 15.1 C 10.32 g/m*3 15.1 C 0 km/h
927 03-07-2003 03:13:02 15.1 C 10.32 g/m*3 15.1 C 0 km/h
928 03-07-2003 03:19:02 15.1 C 10.19 g/m*3 15.1 C 0 km/h
929 03-07-2003 03:25:02 15.2 C 10.12 g/m*3 15.2 C 0 km/h
930 03-07-2003 03:31:02 15.2 C 10.25 g/m*3 15.2 C 0 km/h
931 03-07-2003 03:37:02 15.1 C 10.19 g/m*3 15.1 C 0 km/h
932 03-07-2003 03:43:02 15.1 C 10.19 g/m*3 15.1 C 0 km/h
933 03-07-2003 03:49:02 15.1 C 10.19 g/m*3 15.1 C 0 km/h
934 03-07-2003 03:55:02 15.1 C 10.19 g/m*3 15.1 C 0 km/h
935 03-07-2003 04:01:02 15.1 C 10.19 g/m*3 15.1 C 0 km/h
936 03-07-2003 04:07:02 15.1 C 10.19 g/m*3 15.1 C 0 km/h
937 03-07-2003 04:13:02 15.1 C 10.32 g/m*3 15.1 C 0 km/h
938 03-07-2003 04:19:02 15 C 10.26 g/m*3 15 C 0 km/h
939 03-07-2003 04:25:02 15 C 10.26 g/m*3 15 C 0 km/h
940 03-07-2003 04:31:02 14.7 C 10.45 g/m*3 14.7 C 0 km/h
941 03-07-2003 04:37:02 14.6 C 10.39 g/m*3 14.6 C 0 km/h
942 03-07-2003 04:43:02 14.7 C 10.58 g/m*3 14.7 C 0 km/h
943 03-07-2003 04:49:02 14.7 C 10.58 g/m*3 14.7 C 0 km/h
944 03-07-2003 04:55:02 14.5 C 10.57 g/m*3 14.5 C 0 km/h
945 03-07-2003 05:01:02 14.3 C 10.57 g/m*3 14.3 C 0 km/h
946 03-07-2003 05:07:02 14.3 C 10.57 g/m*3 14.3 C 0 km/h
947 03-07-2003 05:13:02 14.3 C 10.69 g/m*3 14.3 C 0 km/h
948 03-07-2003 05:19:02 14.2 C 10.62 g/m*3 14.2 C 0 km/h
949 03-07-2003 05:25:02 14.2 C 10.62 g/m*3 14.2 C 0 km/h
950 03-07-2003 05:31:02 14.2 C 10.62 g/m*3 14.2 C 0 km/h
Sensor: Nr:Datum:Temp:Abs-Feuchte:Windchill:Wind:
Aussen-T/F 951 03-07-2003 05:37:02 14.2 C 10.62 g/m*3 14.2 C 0 km/h
952 03-07-2003 05:43:02 14.2 C 10.62 g/m*3 14.2 C 0 km/h
953 03-07-2003 05:49:02 14.3 C 10.69 g/m*3 14.3 C 0 km/h
954 03-07-2003 05:55:02 14.4 C 10.63 g/m*3 14.4 C 0 km/h
955 03-07-2003 06:01:02 14.4 C 10.63 g/m*3 14.4 C 0 km/h
956 03-07-2003 06:07:02 14.5 C 10.57 g/m*3 14.5 C 0 km/h
957 03-07-2003 06:13:02 14.5 C 10.45 g/m*3 14.5 C 0 km/h
958 03-07-2003 06:19:02 14.6 C 10.51 g/m*3 14.6 C 0 km/h
959 03-07-2003 06:25:02 14.6 C 10.39 g/m*3 14.6 C 0 km/h
960 03-07-2003 06:31:02 14.7 C 10.32 g/m*3 14.7 C 0 km/h
961 03-07-2003 06:37:02 14.7 C 10.32 g/m*3 14.7 C 0 km/h
962 03-07-2003 06:43:02 14.8 C 10.39 g/m*3 14.8 C 0 km/h
963 03-07-2003 06:49:02 14.6 C 10.39 g/m*3 14.6 C 0 km/h
964 03-07-2003 06:55:02 14.5 C 10.45 g/m*3 14.5 C 0 km/h
965 03-07-2003 07:01:02 14.4 C 10.51 g/m*3 14.4 C 0 km/h
966 03-07-2003 07:07:02 14.4 C 10.51 g/m*3 14.4 C 0 km/h
967 03-07-2003 07:13:02 14.4 C 10.51 g/m*3 14.4 C 0 km/h
968 03-07-2003 07:19:02 14.4 C 10.63 g/m*3 14.4 C 0 km/h
969 03-07-2003 07:25:02 14.3 C 10.57 g/m*3 14.3 C 0 km/h
970 03-07-2003 07:31:02 14.4 C 10.63 g/m*3 14.4 C 0 km/h
971 03-07-2003 07:37:02 14.4 C 10.63 g/m*3 14.4 C 0 km/h
972 03-07-2003 07:43:02 14.6 C 10.76 g/m*3 14.6 C 0 km/h
973 03-07-2003 07:49:02 14.7 C 10.7 g/m*3 14.7 C 0 km/h
974 03-07-2003 07:55:02 14.8 C 10.64 g/m*3 14.8 C 0 km/h
975 03-07-2003 08:01:02 14.9 C 10.71 g/m*3 14.9 C 0 km/h
Sensor: Nr:Datum:Temp:Abs-Feuchte:Windchill:Wind:
Aussen-T/F 976 03-07-2003 08:07:02 15.1 C 10.58 g/m*3 15.1 C 0 km/h
977 03-07-2003 08:13:02 15.3 C 10.58 g/m*3 15.3 C 0 km/h
978 03-07-2003 08:19:02 15.5 C 10.57 g/m*3 15.5 C 0 km/h
979 03-07-2003 08:25:02 15.8 C 10.77 g/m*3 15.8 C 0 km/h
980 03-07-2003 08:31:02 15.9 C 10.7 g/m*3 15.9 C 0 km/h
981 03-07-2003 08:37:02 16 C 10.49 g/m*3 16 C 0 km/h
982 03-07-2003 08:43:02 16 C 10.35 g/m*3 16 C 0 km/h
983 03-07-2003 08:49:02 16.3 C 10.68 g/m*3 16.3 C 0 km/h
984 03-07-2003 08:55:02 16.2 C 10.48 g/m*3 16.2 C 0 km/h
985 03-07-2003 09:01:02 16.2 C 10.34 g/m*3 16.2 C 0 km/h
986 03-07-2003 09:07:01 16 C 10.22 g/m*3 16 C 0 km/h
987 03-07-2003 09:13:01 15.9 C 10.16 g/m*3 15.9 C 0 km/h
988 03-07-2003 09:19:01 15.9 C 10.16 g/m*3 15.9 C 0 km/h
989 03-07-2003 09:25:01 16 C 10.08 g/m*3 16 C 0 km/h
990 03-07-2003 09:31:01 16.1 C 10.14 g/m*3 16.1 C 0 km/h
991 03-07-2003 09:37:01 16.3 C 9.99 g/m*3 16.3 C 0 km/h
992 03-07-2003 09:43:01 16.4 C 10.05 g/m*3 16.4 C 0 km/h
993 03-07-2003 09:49:01 16.4 C 10.19 g/m*3 16.4 C 0 km/h
994 03-07-2003 09:55:01 16 C 10.22 g/m*3 16 C 0 km/h
995 03-07-2003 10:01:01 15.9 C 10.56 g/m*3 15.9 C 0 km/h
996 03-07-2003 10:07:01 16.2 C 10.48 g/m*3 16.2 C 0 km/h
997 03-07-2003 10:13:01 16.5 C 10.67 g/m*3 16.5 C 0 km/h
998 03-07-2003 10:19:01 16.4 C 10.47 g/m*3 16.4 C 0 km/h
999 03-07-2003 10:25:01 16.3 C 10.68 g/m*3 16.3 C 0 km/h
1000 03-07-2003 10:31:01 16 C 10.49 g/m*3 16 C 0 km/h
Sensor: Nr:Datum:Temp:Abs-Feuchte:Windchill:Wind:
Aussen-T/F 1001 03-07-2003 10:37:01 16 C 10.63 g/m*3 16 C 0 km/h
1002 03-07-2003 10:43:01 15.9 C 10.56 g/m*3 15.9 C 0 km/h
1003 03-07-2003 10:49:01 15.8 C 10.5 g/m*3 15.8 C 0 km/h
1004 03-07-2003 10:55:01 16 C 10.35 g/m*3 16 C 0 km/h
1005 03-07-2003 11:01:01 16.2 C 10.34 g/m*3 16.2 C 0 km/h
1006 03-07-2003 11:07:01 16.4 C 10.33 g/m*3 16.4 C 0 km/h
1007 03-07-2003 11:13:01 16.8 C 10.44 g/m*3 16.8 C 0 km/h
1008 03-07-2003 11:19:01 17.5 C 10.59 g/m*3 17.5 C 0 km/h
1009 03-07-2003 11:25:01 17.4 C 10.08 g/m*3 17.4 C 0 km/h
1010 03-07-2003 11:31:01 17.8 C 10.32 g/m*3 17.8 C 0 km/h
1011 03-07-2003 11:37:01 18.4 C 10.22 g/m*3 18.4 C 0 km/h
1012 03-07-2003 11:43:01 18.5 C 9.49 g/m*3 18.5 C 0 km/h
1013 03-07-2003 11:49:01 18.2 C 9.48 g/m*3 18.2 C 0 km/h
1014 03-07-2003 11:55:01 18.5 C 9.81 g/m*3 18.5 C 0 km/h
1015 03-07-2003 12:01:01 19.4 C 10.01 g/m*3 19.4 C 0 km/h
1016 03-07-2003 12:07:00 20 C 10.02 g/m*3 20 C 0 km/h
1017 03-07-2003 12:13:00 20.7 C 9.9 g/m*3 20.7 C 0 km/h
1018 03-07-2003 12:19:00 20.1 C 9.39 g/m*3 20.1 C 0 km/h
1019 03-07-2003 12:25:00 19.9 C 9.79 g/m*3 19.9 C 0 km/h
1020 03-07-2003 12:31:00 20.6 C 9.66 g/m*3 20.6 C 0 km/h
1021 03-07-2003 12:37:01 20 C 9.33 g/m*3 20 C 0 km/h
1022 03-07-2003 12:43:01 19.8 C 9.57 g/m*3 19.8 C 0 km/h
1023 03-07-2003 12:49:01 20 C 9.51 g/m*3 20 C 0 km/h
1024 03-07-2003 12:55:01 20.3 C 9.67 g/m*3 20.3 C 0 km/h
1025 03-07-2003 13:01:01 19.6 C 9.62 g/m*3 19.6 C 0 km/h
Sensor: Nr:Datum:Temp:Abs-Feuchte:Windchill:Wind:
Aussen-T/F 1026 03-07-2003 13:07:02 20.6 C 9.66 g/m*3 20.6 C 0 km/h
1027 03-07-2003 13:13:02 20.9 C 9.47 g/m*3 20.9 C 0 km/h
1028 03-07-2003 13:19:02 21.1 C 9.4 g/m*3 21.1 C 0 km/h
1029 03-07-2003 13:25:02 21.1 C 9.4 g/m*3 21.1 C 0 km/h
1030 03-07-2003 13:31:02 21.2 C 9.08 g/m*3 21.2 C 0 km/h
1031 03-07-2003 13:37:01 21.2 C 8.71 g/m*3 21.2 C 0 km/h
1032 03-07-2003 13:43:01 21.3 C 8.95 g/m*3 21.3 C 0 km/h
1033 03-07-2003 13:49:01 21.4 C 9.19 g/m*3 21.4 C 0 km/h
1034 03-07-2003 13:55:01 22 C 9.12 g/m*3 22 C 0 km/h
1035 03-07-2003 14:01:01 22.1 C 8.78 g/m*3 22.1 C 0 km/h
1036 03-07-2003 14:07:02 21.4 C 8.81 g/m*3 21.4 C 0 km/h
1037 03-07-2003 14:13:02 21.7 C 8.97 g/m*3 21.7 C 0 km/h
1038 03-07-2003 14:19:02 21.3 C 8.95 g/m*3 21.3 C 0 km/h
1039 03-07-2003 14:25:02 21.6 C 9.1 g/m*3 21.6 C 0 km/h
1040 03-07-2003 14:31:02 21.4 C 9 g/m*3 21.4 C 0 km/h
1041 03-07-2003 14:37:01 21.1 C 8.84 g/m*3 21.1 C 0 km/h
1042 03-07-2003 14:43:01 21.2 C 9.08 g/m*3 21.2 C 0 km/h
1043 03-07-2003 14:49:01 20.9 C 9.29 g/m*3 20.9 C 0 km/h
1044 03-07-2003 14:55:01 21.1 C 8.84 g/m*3 21.1 C 0 km/h
1045 03-07-2003 15:01:01 20.4 C 8.85 g/m*3 20.4 C 0 km/h
1046 03-07-2003 15:07:01 20 C 9.51 g/m*3 20 C 0 km/h
1047 03-07-2003 15:13:01 18.6 C 10.98 g/m*3 18.6 C 0 km/h
1048 03-07-2003 15:19:01 18.3 C 11.41 g/m*3 18.3 C 0 km/h
1049 03-07-2003 15:25:01 18.2 C 12.28 g/m*3 18.2 C 0 km/h
1050 03-07-2003 15:31:01 18.5 C 12.34 g/m*3 18.5 C 0 km/h
Sensor: Nr:Datum:Temp:Abs-Feuchte:Windchill:Wind:
Aussen-T/F 1051 03-07-2003 15:37:01 19.1 C 11.64 g/m*3 19.1 C 0 km/h
1052 03-07-2003 15:43:01 19.4 C 11.18 g/m*3 19.4 C 0 km/h
1053 03-07-2003 15:49:01 19.5 C 10.91 g/m*3 19.5 C 0 km/h
1054 03-07-2003 15:55:01 20.1 C 10.6 g/m*3 20.1 C 0 km/h
1055 03-07-2003 16:01:01 20.6 C 10.74 g/m*3 20.6 C 0 km/h
1056 03-07-2003 16:07:01 20.5 C 11.03 g/m*3 20.5 C 0 km/h
1057 03-07-2003 16:13:01 20.8 C 10.68 g/m*3 20.8 C 0 km/h
1058 03-07-2003 16:19:01 21.1 C 10.32 g/m*3 21.1 C 0 km/h
1059 03-07-2003 16:25:01 20.6 C 10.2 g/m*3 20.6 C 0 km/h
1060 03-07-2003 16:31:01 20.1 C 8.69 g/m*3 20.1 C 0 km/h
1061 03-07-2003 16:37:01 19.9 C 8.42 g/m*3 19.9 C 0 km/h
1062 03-07-2003 16:43:01 19.8 C 8.37 g/m*3 19.8 C 0 km/h
1063 03-07-2003 16:49:01 20 C 8.12 g/m*3 20 C 0 km/h
1064 03-07-2003 16:55:01 20.3 C 8.62 g/m*3 20.3 C 0 km/h
1065 03-07-2003 17:01:01 20.6 C 8.77 g/m*3 20.6 C 0 km/h
1066 03-07-2003 17:07:00 20.6 C 8.77 g/m*3 20.6 C 0 km/h
1067 03-07-2003 17:13:00 20.6 C 8.77 g/m*3 20.6 C 0 km/h
1068 03-07-2003 17:19:00 20.6 C 8.77 g/m*3 20.6 C 0 km/h
1069 03-07-2003 17:25:00 20.6 C 8.77 g/m*3 20.6 C 0 km/h
1070 03-07-2003 17:31:00 20.9 C 8.92 g/m*3 20.9 C 0 km/h
1071 03-07-2003 17:37:02 21.3 C 8.95 g/m*3 21.3 C 0 km/h
1072 03-07-2003 17:43:02 21.4 C 9 g/m*3 21.4 C 0 km/h
1073 03-07-2003 17:49:02 21.2 C 8.71 g/m*3 21.2 C 0 km/h
1074 03-07-2003 17:55:02 21.2 C 8.9 g/m*3 21.2 C 0 km/h
1075 03-07-2003 18:01:02 21.1 C 8.84 g/m*3 21.1 C 0 km/h
Sensor: Nr:Datum:Temp:Abs-Feuchte:Windchill:Wind:
Aussen-T/F 1076 03-07-2003 18:07:02 20.8 C 8.33 g/m*3 20.8 C 0 km/h
1077 03-07-2003 18:13:02 20.8 C 8.51 g/m*3 20.8 C 0 km/h
1078 03-07-2003 18:19:02 20.6 C 7.87 g/m*3 20.6 C 0 km/h
1079 03-07-2003 18:25:02 20.5 C 7.65 g/m*3 20.5 C 0 km/h
1080 03-07-2003 18:31:02 20.6 C 7.7 g/m*3 20.6 C 0 km/h
1081 03-07-2003 18:37:02 20.8 C 7.97 g/m*3 20.8 C 0 km/h
1082 03-07-2003 18:43:02 20.9 C 7.83 g/m*3 20.9 C 0 km/h
1083 03-07-2003 18:49:02 20.7 C 7.92 g/m*3 20.7 C 0 km/h
1084 03-07-2003 18:55:02 20.8 C 8.15 g/m*3 20.8 C 0 km/h
1085 03-07-2003 19:01:02 20.8 C 8.15 g/m*3 20.8 C 0 km/h
1086 03-07-2003 19:07:01 20.7 C 8.46 g/m*3 20.7 C 0 km/h
1087 03-07-2003 19:13:01 20.5 C 8.54 g/m*3 20.5 C 0 km/h
1088 03-07-2003 19:19:01 20.3 C 8.44 g/m*3 20.3 C 0 km/h
1089 03-07-2003 19:25:01 20.2 C 8.39 g/m*3 20.2 C 0 km/h
1090 03-07-2003 19:31:01 19.3 C 8.29 g/m*3 19.3 C 0 km/h
1091 03-07-2003 19:37:02 18.7 C 8.01 g/m*3 18.7 C 0 km/h
1092 03-07-2003 19:43:02 16.7 C 8.95 g/m*3 16.7 C 0 km/h
1093 03-07-2003 19:49:02 15.4 C 9.46 g/m*3 15.4 C 0 km/h
1094 03-07-2003 19:55:02 15.3 C 10.58 g/m*3 15.3 C 0 km/h
1095 03-07-2003 20:01:02 15.2 C 10.9 g/m*3 15.2 C 0 km/h
1096 03-07-2003 20:07:01 15.2 C 11.16 g/m*3 15.2 C 0 km/h
1097 03-07-2003 20:13:01 15.1 C 11.22 g/m*3 15.1 C 0 km/h
1098 03-07-2003 20:19:01 15 C 11.16 g/m*3 15 C 0 km/h
1099 03-07-2003 20:25:01 15.2 C 11.42 g/m*3 15.2 C 0 km/h
1100 03-07-2003 20:31:01 15.3 C 11.23 g/m*3 15.3 C 0 km/h
Sensor: Nr:Datum:Temp:Abs-Feuchte:Windchill:Wind:
Aussen-T/F 1101 03-07-2003 20:37:01 15.4 C 11.17 g/m*3 15.4 C 0 km/h
1102 03-07-2003 20:43:01 15.6 C 11.44 g/m*3 15.6 C 0 km/h
1103 03-07-2003 20:49:01 15.8 C 11.17 g/m*3 15.8 C 0 km/h
1104 03-07-2003 20:55:01 15.7 C 11.24 g/m*3 15.7 C 0 km/h
1105 03-07-2003 21:01:01 15.6 C 11.17 g/m*3 15.6 C 0 km/h
1106 03-07-2003 21:07:01 15.5 C 11.1 g/m*3 15.5 C 0 km/h
1107 03-07-2003 21:13:01 15.5 C 11.1 g/m*3 15.5 C 0 km/h
1108 03-07-2003 21:19:01 15.9 C 10.7 g/m*3 15.9 C 0 km/h
1109 03-07-2003 21:25:01 15.8 C 10.9 g/m*3 15.8 C 0 km/h
1110 03-07-2003 21:31:01 15.8 C 11.04 g/m*3 15.8 C 0 km/h
1111 03-07-2003 21:37:01 15.8 C 11.04 g/m*3 15.8 C 0 km/h
1112 03-07-2003 21:43:01 15.8 C 11.17 g/m*3 15.8 C 0 km/h
1113 03-07-2003 21:49:01 16 C 10.9 g/m*3 16 C 0 km/h
1114 03-07-2003 21:55:01 16.2 C 10.76 g/m*3 16.2 C 0 km/h
1115 03-07-2003 22:01:01 16.1 C 10.55 g/m*3 16.1 C 0 km/h
1116 03-07-2003 22:07:02 16 C 10.76 g/m*3 16 C 0 km/h
1117 03-07-2003 22:13:02 15.8 C 10.63 g/m*3 15.8 C 0 km/h
1118 03-07-2003 22:19:02 15.7 C 10.44 g/m*3 15.7 C 0 km/h
1119 03-07-2003 22:25:02 15.7 C 10.7 g/m*3 15.7 C 0 km/h
1120 03-07-2003 22:31:02 15.5 C 10.71 g/m*3 15.5 C 0 km/h
1121 03-07-2003 22:37:02 15.4 C 10.64 g/m*3 15.4 C 0 km/h
1122 03-07-2003 22:43:02 15.3 C 10.84 g/m*3 15.3 C 0 km/h
1123 03-07-2003 22:49:02 15.3 C 10.84 g/m*3 15.3 C 0 km/h
1124 03-07-2003 22:55:02 15.2 C 10.9 g/m*3 15.2 C 0 km/h
1125 03-07-2003 23:01:02 15.2 C 10.9 g/m*3 15.2 C 0 km/h
Sensor: Nr:Datum:Temp:Abs-Feuchte:Windchill:Wind:
Aussen-T/F 1126 03-07-2003 23:08:02 15.2 C 10.77 g/m*3 15.2 C 0 km/h
1127 03-07-2003 23:14:02 15.2 C 10.77 g/m*3 15.2 C 0 km/h
1128 03-07-2003 23:20:02 15.2 C 10.77 g/m*3 15.2 C 0 km/h
1129 03-07-2003 23:26:02 15.2 C 10.77 g/m*3 15.2 C 0 km/h
1130 03-07-2003 23:32:02 15.1 C 10.71 g/m*3 15.1 C 0 km/h
1131 03-07-2003 23:38:02 15.1 C 10.71 g/m*3 15.1 C 0 km/h
1132 03-07-2003 23:44:02 15 C 10.64 g/m*3 15 C 0 km/h
1133 03-07-2003 23:50:02 15 C 10.77 g/m*3 15 C 0 km/h
1134 03-07-2003 23:56:02 14.9 C 10.71 g/m*3 14.9 C 0 km/h
1135 04-07-2003 00:02:02 14.9 C 10.71 g/m*3 14.9 C 0 km/h
1136 04-07-2003 00:08:02 14.9 C 10.71 g/m*3 14.9 C 0 km/h
1137 04-07-2003 00:14:02 15 C 10.64 g/m*3 15 C 0 km/h
1138 04-07-2003 00:20:02 15 C 10.64 g/m*3 15 C 0 km/h
1139 04-07-2003 00:26:02 15.1 C 10.71 g/m*3 15.1 C 0 km/h
1140 04-07-2003 00:32:02 15.1 C 10.71 g/m*3 15.1 C 0 km/h
1141 04-07-2003 00:38:02 15.2 C 10.64 g/m*3 15.2 C 0 km/h
1142 04-07-2003 00:44:02 15.3 C 10.58 g/m*3 15.3 C 0 km/h
1143 04-07-2003 00:50:02 15.3 C 10.58 g/m*3 15.3 C 0 km/h
1144 04-07-2003 00:56:02 15.4 C 10.51 g/m*3 15.4 C 0 km/h
1145 04-07-2003 01:02:02 15.4 C 10.38 g/m*3 15.4 C 0 km/h
1146 04-07-2003 01:08:02 15.4 C 10.38 g/m*3 15.4 C 0 km/h
1147 04-07-2003 01:14:02 15.3 C 10.32 g/m*3 15.3 C 0 km/h
1148 04-07-2003 01:20:02 15.4 C 10.12 g/m*3 15.4 C 0 km/h
1149 04-07-2003 01:32:02 15.3 C 10.06 g/m*3 15.3 C 0 km/h
1150 04-07-2003 01:38:02 15.3 C 10.06 g/m*3 15.3 C 0 km/h
Sensor: Nr:Datum:Temp:Abs-Feuchte:Windchill:Wind:
Aussen-T/F 1151 04-07-2003 01:44:02 15.3 C 10.06 g/m*3 15.3 C 0 km/h
1152 04-07-2003 01:50:02 15.4 C 9.99 g/m*3 15.4 C 0 km/h
1153 04-07-2003 01:56:02 15.4 C 9.99 g/m*3 15.4 C 0 km/h
1154 04-07-2003 02:02:02 15.5 C 9.91 g/m*3 15.5 C 0 km/h
1155 04-07-2003 02:08:02 15.5 C 9.78 g/m*3 15.5 C 0 km/h
1156 04-07-2003 02:14:02 15.6 C 9.84 g/m*3 15.6 C 0 km/h
1157 04-07-2003 02:20:02 15.6 C 9.84 g/m*3 15.6 C 0 km/h
1158 04-07-2003 02:26:02 15.6 C 9.84 g/m*3 15.6 C 0 km/h
1159 04-07-2003 02:32:02 15.6 C 9.71 g/m*3 15.6 C 0 km/h
1160 04-07-2003 02:38:02 15.5 C 9.65 g/m*3 15.5 C 0 km/h
1161 04-07-2003 02:44:02 15.5 C 9.78 g/m*3 15.5 C 0 km/h
1162 04-07-2003 02:50:02 15.5 C 9.65 g/m*3 15.5 C 0 km/h
1163 04-07-2003 02:56:02 15.5 C 9.65 g/m*3 15.5 C 0 km/h
1164 04-07-2003 03:02:02 15.4 C 9.72 g/m*3 15.4 C 0 km/h
1165 04-07-2003 03:08:02 15.4 C 9.72 g/m*3 15.4 C 0 km/h
1166 04-07-2003 03:14:02 15.4 C 9.72 g/m*3 15.4 C 0 km/h
1167 04-07-2003 03:20:02 15.4 C 9.72 g/m*3 15.4 C 0 km/h
1168 04-07-2003 03:26:02 15.3 C 9.79 g/m*3 15.3 C 0 km/h
1169 04-07-2003 03:32:02 15.3 C 9.79 g/m*3 15.3 C 0 km/h
1170 04-07-2003 03:38:02 15.3 C 9.79 g/m*3 15.3 C 0 km/h
1171 04-07-2003 03:44:02 15.4 C 9.85 g/m*3 15.4 C 0 km/h
1172 04-07-2003 03:50:02 15.4 C 9.72 g/m*3 15.4 C 0 km/h
1173 04-07-2003 03:56:02 15.4 C 9.85 g/m*3 15.4 C 0 km/h
1174 04-07-2003 04:02:02 15.4 C 9.85 g/m*3 15.4 C 0 km/h
1175 04-07-2003 04:08:02 15.4 C 9.85 g/m*3 15.4 C 0 km/h
Sensor: Nr:Datum:Temp:Abs-Feuchte:Windchill:Wind:
Aussen-T/F 1176 04-07-2003 04:14:02 15.3 C 9.79 g/m*3 15.3 C 0 km/h
1177 04-07-2003 04:20:02 15.3 C 9.79 g/m*3 15.3 C 0 km/h
1178 04-07-2003 04:26:02 15.3 C 9.79 g/m*3 15.3 C 0 km/h
1179 04-07-2003 04:32:02 15.3 C 9.92 g/m*3 15.3 C 0 km/h
1180 04-07-2003 04:38:02 15.2 C 9.86 g/m*3 15.2 C 0 km/h
1181 04-07-2003 04:44:02 15.2 C 9.99 g/m*3 15.2 C 0 km/h
1182 04-07-2003 04:50:02 15.1 C 9.93 g/m*3 15.1 C 0 km/h
1183 04-07-2003 04:56:02 15 C 10 g/m*3 15 C 0 km/h
1184 04-07-2003 05:02:02 15 C 10 g/m*3 15 C 0 km/h
1185 04-07-2003 05:08:02 15 C 10 g/m*3 15 C 0 km/h
1186 04-07-2003 05:14:02 15 C 10 g/m*3 15 C 0 km/h
1187 04-07-2003 05:20:02 15 C 10.13 g/m*3 15 C 0 km/h
1188 04-07-2003 05:26:02 15 C 10.13 g/m*3 15 C 0 km/h
1189 04-07-2003 05:32:02 15 C 10.13 g/m*3 15 C 0 km/h
1190 04-07-2003 05:38:02 15 C 10 g/m*3 15 C 0 km/h
1191 04-07-2003 05:44:02 15.1 C 10.06 g/m*3 15.1 C 0 km/h
1192 04-07-2003 05:50:02 15.1 C 10.06 g/m*3 15.1 C 0 km/h
1193 04-07-2003 05:56:02 15.1 C 9.93 g/m*3 15.1 C 0 km/h
1194 04-07-2003 06:02:02 15.1 C 9.93 g/m*3 15.1 C 0 km/h
1195 04-07-2003 06:08:02 15 C 9.87 g/m*3 15 C 0 km/h
1196 04-07-2003 06:14:02 15.1 C 9.93 g/m*3 15.1 C 0 km/h
1197 04-07-2003 06:20:02 15.1 C 9.8 g/m*3 15.1 C 0 km/h
1198 04-07-2003 06:26:02 15.2 C 9.86 g/m*3 15.2 C 0 km/h
1199 04-07-2003 06:32:02 15.2 C 9.86 g/m*3 15.2 C 0 km/h
1200 04-07-2003 06:38:02 15.3 C 9.79 g/m*3 15.3 C 0 km/h
Sensor: Nr:Datum:Temp:Abs-Feuchte:Windchill:Wind:
Aussen-T/F 1201 04-07-2003 06:44:02 15.4 C 9.85 g/m*3 15.4 C 0 km/h
1202 04-07-2003 06:50:02 15.4 C 9.85 g/m*3 15.4 C 0 km/h
1203 04-07-2003 06:56:02 15.4 C 9.72 g/m*3 15.4 C 0 km/h
1204 04-07-2003 07:02:02 15.4 C 9.72 g/m*3 15.4 C 0 km/h
1205 04-07-2003 07:08:02 15.4 C 9.72 g/m*3 15.4 C 0 km/h
1206 04-07-2003 07:14:02 15.5 C 9.65 g/m*3 15.5 C 0 km/h
1207 04-07-2003 07:20:02 15.5 C 9.65 g/m*3 15.5 C 0 km/h
1208 04-07-2003 07:26:02 15.6 C 9.58 g/m*3 15.6 C 0 km/h
1209 04-07-2003 07:32:02 15.6 C 9.71 g/m*3 15.6 C 0 km/h
1210 04-07-2003 07:38:02 15.8 C 9.83 g/m*3 15.8 C 0 km/h
1211 04-07-2003 07:44:02 15.9 C 9.75 g/m*3 15.9 C 0 km/h
1212 04-07-2003 07:50:02 15.9 C 9.75 g/m*3 15.9 C 0 km/h
1213 04-07-2003 07:56:02 15.9 C 9.75 g/m*3 15.9 C 0 km/h
1214 04-07-2003 08:02:02 16 C 9.54 g/m*3 16 C 0 km/h
1215 04-07-2003 08:08:02 16.1 C 9.6 g/m*3 16.1 C 0 km/h
1216 04-07-2003 08:14:02 16 C 9.4 g/m*3 16 C 0 km/h
1217 04-07-2003 08:20:02 16 C 9.4 g/m*3 16 C 0 km/h
1218 04-07-2003 08:26:02 16 C 9.4 g/m*3 16 C 0 km/h
1219 04-07-2003 08:32:02 16 C 9.54 g/m*3 16 C 0 km/h
1220 04-07-2003 08:38:02 16 C 9.54 g/m*3 16 C 0 km/h
1221 04-07-2003 08:44:02 15.9 C 9.62 g/m*3 15.9 C 0 km/h
1222 04-07-2003 08:50:02 15.4 C 9.99 g/m*3 15.4 C 0 km/h
1223 04-07-2003 08:56:02 15.2 C 10.25 g/m*3 15.2 C 0 km/h
1224 04-07-2003 09:02:02 15.1 C 10.45 g/m*3 15.1 C 0 km/h
1225 04-07-2003 09:08:02 15 C 10.51 g/m*3 15 C 0 km/h
Sensor: Nr:Datum:Temp:Abs-Feuchte:Windchill:Wind:
Aussen-T/F 1226 04-07-2003 09:14:02 15.2 C 10.64 g/m*3 15.2 C 0 km/h
1227 04-07-2003 09:20:02 15.4 C 10.77 g/m*3 15.4 C 0 km/h
1228 04-07-2003 09:26:02 15.8 C 11.04 g/m*3 15.8 C 0 km/h
1229 04-07-2003 09:32:02 16.1 C 10.83 g/m*3 16.1 C 0 km/h
1230 04-07-2003 09:38:02 16.4 C 10.75 g/m*3 16.4 C 0 km/h
1231 04-07-2003 09:44:02 16.6 C 10.74 g/m*3 16.6 C 0 km/h
1232 04-07-2003 09:50:02 17 C 10.56 g/m*3 17 C 0 km/h
1233 04-07-2003 09:56:02 16.8 C 10.58 g/m*3 16.8 C 0 km/h
1234 04-07-2003 10:02:02 17 C 10.56 g/m*3 17 C 0 km/h
1235 04-07-2003 10:08:02 17.5 C 10.59 g/m*3 17.5 C 0 km/h
1236 04-07-2003 10:14:02 18.2 C 10.41 g/m*3 18.2 C 0 km/h
1237 04-07-2003 10:20:02 18.6 C 10.19 g/m*3 18.6 C 0 km/h
1238 04-07-2003 10:26:02 18.2 C 9.95 g/m*3 18.2 C 0 km/h
1239 04-07-2003 10:32:02 17.7 C 9.96 g/m*3 17.7 C 0 km/h
1240 04-07-2003 10:38:02 17.4 C 9.93 g/m*3 17.4 C 0 km/h
1241 04-07-2003 10:44:02 17 C 9.84 g/m*3 17 C 0 km/h
1242 04-07-2003 10:50:02 16.8 C 10.15 g/m*3 16.8 C 0 km/h
1243 04-07-2003 10:56:02 16.9 C 10.21 g/m*3 16.9 C 0 km/h
1244 04-07-2003 11:02:01 16.9 C 10.36 g/m*3 16.9 C 0 km/h
1245 04-07-2003 11:08:01 17.3 C 8.99 g/m*3 17.3 C 0 km/h
1246 04-07-2003 11:14:01 17.7 C 9.05 g/m*3 17.7 C 0 km/h
1247 04-07-2003 11:20:01 18 C 9.06 g/m*3 18 C 0 km/h
1248 04-07-2003 11:26:01 18 C 8.91 g/m*3 18 C 0 km/h
1249 04-07-2003 11:32:03 17.8 C 9.56 g/m*3 17.8 C 0 km/h
1250 04-07-2003 11:38:03 17.7 C 9.66 g/m*3 17.7 C 0 km/h
Sensor: Nr:Datum:Temp:Abs-Feuchte:Windchill:Wind:
Aussen-T/F 1251 04-07-2003 11:44:03 17.7 C 9.66 g/m*3 17.7 C 0 km/h
1252 04-07-2003 11:50:03 18.1 C 9.73 g/m*3 18.1 C 0 km/h
1253 04-07-2003 11:56:03 18.6 C 9.23 g/m*3 18.6 C 0 km/h
1254 04-07-2003 12:02:03 19.5 C 9.23 g/m*3 19.5 C 0 km/h
1255 04-07-2003 12:08:03 19 C 8.8 g/m*3 19 C 0 km/h
1256 04-07-2003 12:14:03 19.1 C 9.02 g/m*3 19.1 C 0 km/h
1257 04-07-2003 12:20:03 19.2 C 8.9 g/m*3 19.2 C 0 km/h
1258 04-07-2003 12:26:03 19.9 C 9.11 g/m*3 19.9 C 0 km/h
1259 04-07-2003 12:32:01 19.6 C 8.78 g/m*3 19.6 C 0 km/h
1260 04-07-2003 12:38:01 19.7 C 9 g/m*3 19.7 C 0 km/h
1261 04-07-2003 12:44:01 19.7 C 8.66 g/m*3 19.7 C 0 km/h
1262 04-07-2003 12:50:01 19.5 C 8.39 g/m*3 19.5 C 0 km/h
1263 04-07-2003 12:56:01 20.2 C 8.57 g/m*3 20.2 C 0 km/h
1264 04-07-2003 13:02:01 20 C 8.64 g/m*3 20 C 0 km/h
1265 04-07-2003 13:08:01 20.4 C 8.67 g/m*3 20.4 C 0 km/h
1266 04-07-2003 13:14:01 20.8 C 8.69 g/m*3 20.8 C 0 km/h
1267 04-07-2003 13:20:01 20.4 C 8.67 g/m*3 20.4 C 0 km/h
1268 04-07-2003 13:26:01 20.3 C 8.44 g/m*3 20.3 C 0 km/h
1269 04-07-2003 13:32:02 20.8 C 8.69 g/m*3 20.8 C 0 km/h
1270 04-07-2003 13:38:02 20.7 C 8.64 g/m*3 20.7 C 0 km/h
1271 04-07-2003 13:44:02 20.8 C 8.69 g/m*3 20.8 C 0 km/h
1272 04-07-2003 13:50:02 21.4 C 8.44 g/m*3 21.4 C 0 km/h
1273 04-07-2003 13:56:02 21.1 C 8.11 g/m*3 21.1 C 0 km/h
1274 04-07-2003 14:02:01 20.8 C 8.15 g/m*3 20.8 C 0 km/h
1275 04-07-2003 14:08:01 21.1 C 8.29 g/m*3 21.1 C 0 km/h
Sensor: Nr:Datum:Temp:Abs-Feuchte:Windchill:Wind:
Aussen-T/F 1276 04-07-2003 14:14:01 21.1 C 8.29 g/m*3 21.1 C 0 km/h
1277 04-07-2003 14:20:01 21.1 C 8.48 g/m*3 21.1 C 0 km/h
1278 04-07-2003 14:26:01 20.6 C 8.41 g/m*3 20.6 C 0 km/h
1279 04-07-2003 14:32:01 19.9 C 8.93 g/m*3 19.9 C 0 km/h
1280 04-07-2003 14:38:01 20.1 C 9.04 g/m*3 20.1 C 0 km/h
1281 04-07-2003 14:44:01 20.7 C 9.18 g/m*3 20.7 C 0 km/h
1282 04-07-2003 14:50:01 21.1 C 8.66 g/m*3 21.1 C 0 km/h
1283 04-07-2003 14:56:01 21.5 C 8.67 g/m*3 21.5 C 0 km/h
1284 04-07-2003 15:02:02 21.7 C 8.77 g/m*3 21.7 C 0 km/h
1285 04-07-2003 15:08:02 21.4 C 8.44 g/m*3 21.4 C 0 km/h
1286 04-07-2003 15:14:02 21.9 C 8.68 g/m*3 21.9 C 0 km/h
1287 04-07-2003 15:20:02 22.1 C 8.39 g/m*3 22.1 C 0 km/h
1288 04-07-2003 15:26:02 22.4 C 8.54 g/m*3 22.4 C 0 km/h
1289 04-07-2003 15:32:01 22 C 8.54 g/m*3 22 C 0 km/h
1290 04-07-2003 15:38:01 21.2 C 8.52 g/m*3 21.2 C 0 km/h
1291 04-07-2003 15:44:01 20.2 C 8.92 g/m*3 20.2 C 0 km/h
1292 04-07-2003 15:50:01 18.1 C 9.89 g/m*3 18.1 C 0 km/h
1293 04-07-2003 15:56:01 17.3 C 10.46 g/m*3 17.3 C 0 km/h
1294 04-07-2003 16:02:00 17.3 C 11.05 g/m*3 17.3 C 0 km/h
1295 04-07-2003 16:08:00 17.5 C 11.18 g/m*3 17.5 C 0 km/h
1296 04-07-2003 16:14:00 17.8 C 11.69 g/m*3 17.8 C 0 km/h
1297 04-07-2003 16:20:00 18.2 C 11.81 g/m*3 18.2 C 0 km/h
1298 04-07-2003 16:26:00 18.7 C 11.85 g/m*3 18.7 C 0 km/h
1299 04-07-2003 16:32:01 19 C 11.41 g/m*3 19 C 0 km/h
1300 04-07-2003 16:38:01 19.2 C 11.38 g/m*3 19.2 C 0 km/h
Sensor: Nr:Datum:Temp:Abs-Feuchte:Windchill:Wind:
Aussen-T/F 1301 04-07-2003 16:44:01 19.8 C 11.27 g/m*3 19.8 C 0 km/h
1302 04-07-2003 16:50:01 20.6 C 11.45 g/m*3 20.6 C 0 km/h
1303 04-07-2003 16:56:01 21.1 C 11.06 g/m*3 21.1 C 0 km/h
1304 04-07-2003 17:02:01 20.9 C 11.11 g/m*3 20.9 C 0 km/h
1305 04-07-2003 17:08:01 20.8 C 11.05 g/m*3 20.8 C 0 km/h
1306 04-07-2003 17:14:01 20 C 10.71 g/m*3 20 C 0 km/h
1307 04-07-2003 17:20:01 18.1 C 10.51 g/m*3 18.1 C 0 km/h
1308 04-07-2003 17:26:01 17 C 10.85 g/m*3 17 C 0 km/h
1309 04-07-2003 17:32:00 16.6 C 11.02 g/m*3 16.6 C 0 km/h
1310 04-07-2003 17:38:00 16.4 C 10.75 g/m*3 16.4 C 0 km/h
1311 04-07-2003 17:44:00 16.6 C 10.45 g/m*3 16.6 C 0 km/h
1312 04-07-2003 17:50:00 17 C 10.71 g/m*3 17 C 0 km/h
1313 04-07-2003 17:56:00 17.3 C 10.75 g/m*3 17.3 C 0 km/h
1314 04-07-2003 18:02:11 17.4 C 10.52 g/m*3 17.4 C 0 km/h
1315 04-07-2003 18:08:11 17.4 C 10.37 g/m*3 17.4 C 0 km/h
1316 04-07-2003 18:14:11 17.6 C 10.2 g/m*3 17.6 C 0 km/h
1317 04-07-2003 18:20:11 18.1 C 10.2 g/m*3 18.1 C 0 km/h
1318 04-07-2003 18:26:11 18.5 C 10.6 g/m*3 18.5 C 0 km/h
1319 04-07-2003 18:32:01 18.7 C 10.89 g/m*3 18.7 C 0 km/h
1320 04-07-2003 18:38:01 18.7 C 10.73 g/m*3 18.7 C 0 km/h
1321 04-07-2003 18:44:01 18.7 C 11.05 g/m*3 18.7 C 0 km/h
1322 04-07-2003 18:50:01 18.6 C 10.66 g/m*3 18.6 C 0 km/h
1323 04-07-2003 18:56:01 18.5 C 10.6 g/m*3 18.5 C 0 km/h
1324 04-07-2003 19:02:00 18.2 C 10.57 g/m*3 18.2 C 0 km/h
1325 04-07-2003 19:08:00 17.8 C 11.08 g/m*3 17.8 C 0 km/h
Sensor: Nr:Datum:Temp:Abs-Feuchte:Windchill:Wind:
Aussen-T/F 1326 04-07-2003 19:14:00 17.7 C 11.01 g/m*3 17.7 C 0 km/h
1327 04-07-2003 19:20:00 17.9 C 10.99 g/m*3 17.9 C 0 km/h
1328 04-07-2003 19:26:00 17.9 C 10.69 g/m*3 17.9 C 0 km/h
1329 04-07-2003 19:32:02 18 C 10.6 g/m*3 18 C 0 km/h
1330 04-07-2003 19:38:02 18 C 10.44 g/m*3 18 C 0 km/h
1331 04-07-2003 19:44:02 17.9 C 10.38 g/m*3 17.9 C 0 km/h
1332 04-07-2003 19:50:02 17.8 C 10.47 g/m*3 17.8 C 0 km/h
1333 04-07-2003 19:56:02 17.8 C 10.47 g/m*3 17.8 C 0 km/h
1334 04-07-2003 20:02:02 17.7 C 10.41 g/m*3 17.7 C 0 km/h
1335 04-07-2003 20:08:02 17.8 C 10.78 g/m*3 17.8 C 0 km/h
1336 04-07-2003 20:14:02 17.7 C 10.56 g/m*3 17.7 C 0 km/h
1337 04-07-2003 20:20:02 17.7 C 10.71 g/m*3 17.7 C 0 km/h
1338 04-07-2003 20:26:02 17.6 C 10.65 g/m*3 17.6 C 0 km/h
1339 04-07-2003 20:32:01 17.5 C 10.59 g/m*3 17.5 C 0 km/h
1340 04-07-2003 20:38:01 17.4 C 10.67 g/m*3 17.4 C 0 km/h
1341 04-07-2003 20:44:01 17.4 C 10.67 g/m*3 17.4 C 0 km/h
1342 04-07-2003 20:50:01 17.2 C 10.84 g/m*3 17.2 C 0 km/h
1343 04-07-2003 20:56:01 16.8 C 11.01 g/m*3 16.8 C 0 km/h
1344 04-07-2003 21:02:01 16.6 C 11.3 g/m*3 16.6 C 0 km/h
1345 04-07-2003 21:08:01 16.4 C 11.58 g/m*3 16.4 C 0 km/h
1346 04-07-2003 21:14:01 16.2 C 11.45 g/m*3 16.2 C 0 km/h
1347 04-07-2003 21:20:01 16.2 C 11.58 g/m*3 16.2 C 0 km/h
1348 04-07-2003 21:26:01 16.1 C 11.65 g/m*3 16.1 C 0 km/h
1349 04-07-2003 21:32:01 16 C 11.72 g/m*3 16 C 0 km/h
1350 04-07-2003 21:38:01 16 C 11.85 g/m*3 16 C 0 km/h
Sensor: Nr:Datum:Temp:Abs-Feuchte:Windchill:Wind:
Aussen-T/F 1351 04-07-2003 21:44:01 15.9 C 11.92 g/m*3 15.9 C 0 km/h
1352 04-07-2003 21:50:01 15.8 C 11.85 g/m*3 15.8 C 0 km/h
1353 04-07-2003 21:56:01 15.8 C 11.85 g/m*3 15.8 C 0 km/h
1354 04-07-2003 22:03:01 15.8 C 11.85 g/m*3 15.8 C 0 km/h
1355 04-07-2003 22:09:01 15.8 C 11.85 g/m*3 15.8 C 0 km/h
1356 04-07-2003 22:15:01 15.8 C 11.85 g/m*3 15.8 C 0 km/h
1357 04-07-2003 22:21:01 15.6 C 11.7 g/m*3 15.6 C 0 km/h
1358 04-07-2003 22:27:01 15.6 C 11.7 g/m*3 15.6 C 0 km/h
1359 04-07-2003 22:33:01 15.5 C 11.63 g/m*3 15.5 C 0 km/h
1360 04-07-2003 22:39:01 15.5 C 11.63 g/m*3 15.5 C 0 km/h
1361 04-07-2003 22:45:01 15.4 C 11.69 g/m*3 15.4 C 0 km/h
1362 04-07-2003 22:51:01 15.5 C 11.76 g/m*3 15.5 C 0 km/h
1363 04-07-2003 22:57:01 15.6 C 11.84 g/m*3 15.6 C 0 km/h
1364 04-07-2003 23:03:01 15.7 C 11.77 g/m*3 15.7 C 0 km/h
1365 04-07-2003 23:09:01 15.8 C 11.71 g/m*3 15.8 C 0 km/h
1366 04-07-2003 23:15:01 15.8 C 11.58 g/m*3 15.8 C 0 km/h
1367 04-07-2003 23:21:01 15.8 C 11.58 g/m*3 15.8 C 0 km/h
1368 04-07-2003 23:27:01 15.6 C 11.44 g/m*3 15.6 C 0 km/h
1369 04-07-2003 23:33:01 15.3 C 11.36 g/m*3 15.3 C 0 km/h
1370 04-07-2003 23:39:01 15.1 C 11.22 g/m*3 15.1 C 0 km/h
1371 04-07-2003 23:45:01 15 C 11.28 g/m*3 15 C 0 km/h
1372 04-07-2003 23:51:01 15 C 11.41 g/m*3 15 C 0 km/h
1373 04-07-2003 23:57:01 14.8 C 11.4 g/m*3 14.8 C 0 km/h
1374 05-07-2003 00:03:01 14.8 C 11.4 g/m*3 14.8 C 0 km/h
1375 05-07-2003 00:09:01 14.7 C 11.33 g/m*3 14.7 C 0 km/h
Sensor: Nr:Datum:Temp:Abs-Feuchte:Windchill:Wind:
Aussen-T/F 1376 05-07-2003 00:15:01 14.7 C 11.33 g/m*3 14.7 C 0 km/h
1377 05-07-2003 00:21:01 14.6 C 11.26 g/m*3 14.6 C 0 km/h
1378 05-07-2003 00:27:01 14.6 C 11.26 g/m*3 14.6 C 0 km/h
1379 05-07-2003 00:33:01 14.5 C 11.19 g/m*3 14.5 C 0 km/h
1380 05-07-2003 00:39:01 14.5 C 11.19 g/m*3 14.5 C 0 km/h
1381 05-07-2003 00:45:01 14.5 C 11.19 g/m*3 14.5 C 0 km/h
1382 05-07-2003 00:51:01 14.5 C 11.19 g/m*3 14.5 C 0 km/h
1383 05-07-2003 00:57:01 14.5 C 11.19 g/m*3 14.5 C 0 km/h
1384 05-07-2003 01:03:01 14.5 C 11.32 g/m*3 14.5 C 0 km/h
1385 05-07-2003 01:09:01 14.6 C 11.39 g/m*3 14.6 C 0 km/h
1386 05-07-2003 01:15:01 14.5 C 11.32 g/m*3 14.5 C 0 km/h
1387 05-07-2003 01:21:01 14.5 C 11.32 g/m*3 14.5 C 0 km/h
1388 05-07-2003 01:27:01 14.5 C 11.32 g/m*3 14.5 C 0 km/h
1389 05-07-2003 01:33:01 14.5 C 11.32 g/m*3 14.5 C 0 km/h
1390 05-07-2003 01:39:01 14.6 C 11.39 g/m*3 14.6 C 0 km/h
1391 05-07-2003 01:45:01 14.6 C 11.39 g/m*3 14.6 C 0 km/h
1392 05-07-2003 01:51:01 14.7 C 11.46 g/m*3 14.7 C 0 km/h
1393 05-07-2003 01:57:01 14.8 C 11.4 g/m*3 14.8 C 0 km/h
1394 05-07-2003 02:03:01 14.8 C 11.4 g/m*3 14.8 C 0 km/h
1395 05-07-2003 02:09:01 14.8 C 11.4 g/m*3 14.8 C 0 km/h
1396 05-07-2003 02:15:01 14.8 C 11.4 g/m*3 14.8 C 0 km/h
1397 05-07-2003 02:21:01 14.8 C 11.4 g/m*3 14.8 C 0 km/h
1398 05-07-2003 02:27:01 14.8 C 11.4 g/m*3 14.8 C 0 km/h
1399 05-07-2003 02:33:01 14.8 C 11.4 g/m*3 14.8 C 0 km/h
1400 05-07-2003 02:39:01 14.8 C 11.4 g/m*3 14.8 C 0 km/h
Sensor: Nr:Datum:Temp:Abs-Feuchte:Windchill:Wind:
Aussen-T/F 1401 05-07-2003 02:45:01 14.8 C 11.4 g/m*3 14.8 C 0 km/h
1402 05-07-2003 02:51:01 14.8 C 11.27 g/m*3 14.8 C 0 km/h
1403 05-07-2003 02:57:01 14.8 C 11.27 g/m*3 14.8 C 0 km/h
1404 05-07-2003 03:09:01 14.8 C 11.27 g/m*3 14.8 C 0 km/h
1405 05-07-2003 03:15:01 14.9 C 11.22 g/m*3 14.9 C 0 km/h
1406 05-07-2003 03:21:01 14.8 C 11.15 g/m*3 14.8 C 0 km/h
1407 05-07-2003 03:27:01 14.9 C 11.22 g/m*3 14.9 C 0 km/h
1408 05-07-2003 03:33:01 14.9 C 11.22 g/m*3 14.9 C 0 km/h
1409 05-07-2003 03:39:01 14.9 C 11.09 g/m*3 14.9 C 0 km/h
1410 05-07-2003 03:45:01 15 C 11.03 g/m*3 15 C 0 km/h
1411 05-07-2003 03:51:01 14.9 C 10.96 g/m*3 14.9 C 0 km/h
1412 05-07-2003 03:57:01 14.9 C 10.96 g/m*3 14.9 C 0 km/h
1413 05-07-2003 04:03:01 14.9 C 10.96 g/m*3 14.9 C 0 km/h
1414 05-07-2003 04:09:01 14.9 C 10.96 g/m*3 14.9 C 0 km/h
1415 05-07-2003 04:15:01 14.9 C 10.96 g/m*3 14.9 C 0 km/h
1416 05-07-2003 04:21:01 15 C 10.9 g/m*3 15 C 0 km/h
1417 05-07-2003 04:27:01 15 C 10.9 g/m*3 15 C 0 km/h
1418 05-07-2003 04:33:01 15 C 10.9 g/m*3 15 C 0 km/h
1419 05-07-2003 04:39:01 15 C 10.77 g/m*3 15 C 0 km/h
1420 05-07-2003 04:45:01 14.9 C 10.83 g/m*3 14.9 C 0 km/h
1421 05-07-2003 04:51:01 14.9 C 10.83 g/m*3 14.9 C 0 km/h
1422 05-07-2003 04:57:01 15 C 10.77 g/m*3 15 C 0 km/h
1423 05-07-2003 05:03:01 15.1 C 10.71 g/m*3 15.1 C 0 km/h
1424 05-07-2003 05:09:01 15.1 C 10.71 g/m*3 15.1 C 0 km/h
1425 05-07-2003 05:15:01 15.2 C 10.64 g/m*3 15.2 C 0 km/h
Sensor: Nr:Datum:Temp:Abs-Feuchte:Windchill:Wind:
Aussen-T/F 1426 05-07-2003 05:21:01 15.1 C 10.58 g/m*3 15.1 C 0 km/h
1427 05-07-2003 05:27:01 15.1 C 10.71 g/m*3 15.1 C 0 km/h
1428 05-07-2003 05:33:01 15 C 10.64 g/m*3 15 C 0 km/h
1429 05-07-2003 05:39:01 14.9 C 10.71 g/m*3 14.9 C 0 km/h
1430 05-07-2003 05:45:01 15 C 10.64 g/m*3 15 C 0 km/h
1431 05-07-2003 05:51:01 15 C 10.64 g/m*3 15 C 0 km/h
1432 05-07-2003 05:57:01 15 C 10.64 g/m*3 15 C 0 km/h
1433 05-07-2003 06:03:01 15 C 10.51 g/m*3 15 C 0 km/h
1434 05-07-2003 06:09:01 15.2 C 10.51 g/m*3 15.2 C 0 km/h
1435 05-07-2003 06:15:01 15.3 C 10.45 g/m*3 15.3 C 0 km/h
1436 05-07-2003 06:21:01 15.3 C 10.45 g/m*3 15.3 C 0 km/h
1437 05-07-2003 06:27:01 15.4 C 10.51 g/m*3 15.4 C 0 km/h
1438 05-07-2003 06:33:01 15.4 C 10.51 g/m*3 15.4 C 0 km/h
1439 05-07-2003 06:39:01 15.4 C 10.51 g/m*3 15.4 C 0 km/h
1440 05-07-2003 06:45:01 15.5 C 10.44 g/m*3 15.5 C 0 km/h
1441 05-07-2003 06:51:01 15.4 C 10.38 g/m*3 15.4 C 0 km/h
1442 05-07-2003 06:57:01 15.4 C 10.51 g/m*3 15.4 C 0 km/h
1443 05-07-2003 07:03:01 15.4 C 10.51 g/m*3 15.4 C 0 km/h
1444 05-07-2003 07:09:01 15.5 C 10.44 g/m*3 15.5 C 0 km/h
1445 05-07-2003 07:15:01 15.5 C 10.44 g/m*3 15.5 C 0 km/h
1446 05-07-2003 07:21:01 15.6 C 10.51 g/m*3 15.6 C 0 km/h
1447 05-07-2003 07:27:01 15.6 C 10.37 g/m*3 15.6 C 0 km/h
1448 05-07-2003 07:33:01 15.7 C 10.3 g/m*3 15.7 C 0 km/h
1449 05-07-2003 07:39:01 15.6 C 10.37 g/m*3 15.6 C 0 km/h
1450 05-07-2003 07:45:01 15.2 C 10.51 g/m*3 15.2 C 0 km/h
Sensor: Nr:Datum:Temp:Abs-Feuchte:Windchill:Wind:
Aussen-T/F 1451 05-07-2003 07:51:01 14.9 C 10.71 g/m*3 14.9 C 0 km/h
1452 05-07-2003 07:57:01 14.8 C 10.77 g/m*3 14.8 C 0 km/h
1453 05-07-2003 08:03:01 14.8 C 10.77 g/m*3 14.8 C 0 km/h
1454 05-07-2003 08:09:01 14.8 C 10.77 g/m*3 14.8 C 0 km/h
1455 05-07-2003 08:15:01 15 C 10.77 g/m*3 15 C 0 km/h
1456 05-07-2003 08:21:01 15.1 C 10.71 g/m*3 15.1 C 0 km/h
1457 05-07-2003 08:27:01 15.2 C 10.77 g/m*3 15.2 C 0 km/h
1458 05-07-2003 08:33:01 15.3 C 10.84 g/m*3 15.3 C 0 km/h
1459 05-07-2003 08:39:01 15.4 C 10.77 g/m*3 15.4 C 0 km/h
1460 05-07-2003 08:45:01 15.3 C 10.84 g/m*3 15.3 C 0 km/h
1461 05-07-2003 08:51:01 15.3 C 10.84 g/m*3 15.3 C 0 km/h
1462 05-07-2003 08:57:01 15.3 C 10.97 g/m*3 15.3 C 0 km/h
1463 05-07-2003 09:03:01 15.7 C 11.11 g/m*3 15.7 C 0 km/h
1464 05-07-2003 09:09:01 16 C 11.04 g/m*3 16 C 0 km/h
1465 05-07-2003 09:15:01 16.2 C 10.89 g/m*3 16.2 C 0 km/h
1466 05-07-2003 09:21:01 16.4 C 11.03 g/m*3 16.4 C 0 km/h
1467 05-07-2003 09:27:01 16.6 C 11.02 g/m*3 16.6 C 0 km/h
1468 05-07-2003 09:33:01 16.6 C 11.02 g/m*3 16.6 C 0 km/h
1469 05-07-2003 09:39:01 16.8 C 11.01 g/m*3 16.8 C 0 km/h
1470 05-07-2003 09:45:01 17.1 C 11.06 g/m*3 17.1 C 0 km/h
1471 05-07-2003 09:51:01 17.1 C 10.77 g/m*3 17.1 C 0 km/h
1472 05-07-2003 09:57:01 17.2 C 10.98 g/m*3 17.2 C 0 km/h
1473 05-07-2003 10:03:01 16.9 C 10.93 g/m*3 16.9 C 0 km/h
1474 05-07-2003 10:09:01 17 C 11 g/m*3 17 C 0 km/h
1475 05-07-2003 10:15:01 17.1 C 11.06 g/m*3 17.1 C 0 km/h
Sensor: Nr:Datum:Temp:Abs-Feuchte:Windchill:Wind:
Aussen-T/F 1476 05-07-2003 10:21:01 17 C 11 g/m*3 17 C 0 km/h
1477 05-07-2003 10:27:01 17 C 11.14 g/m*3 17 C 0 km/h
1478 05-07-2003 10:33:01 17.1 C 11.21 g/m*3 17.1 C 0 km/h
1479 05-07-2003 10:39:01 17.1 C 11.21 g/m*3 17.1 C 0 km/h
1480 05-07-2003 10:45:01 17 C 11.29 g/m*3 17 C 0 km/h
1481 05-07-2003 10:51:01 16.8 C 11.44 g/m*3 16.8 C 0 km/h
1482 05-07-2003 10:57:01 16.6 C 11.44 g/m*3 16.6 C 0 km/h
1483 05-07-2003 11:03:00 16.6 C 11.58 g/m*3 16.6 C 0 km/h
1484 05-07-2003 11:09:00 16.6 C 11.44 g/m*3 16.6 C 0 km/h
1485 05-07-2003 11:15:00 16.6 C 11.44 g/m*3 16.6 C 0 km/h
1486 05-07-2003 11:21:00 16.8 C 11.44 g/m*3 16.8 C 0 km/h
1487 05-07-2003 11:27:00 17.2 C 11.28 g/m*3 17.2 C 0 km/h
1488 05-07-2003 11:33:01 17.8 C 11.54 g/m*3 17.8 C 0 km/h
1489 05-07-2003 11:39:01 18.2 C 11.19 g/m*3 18.2 C 0 km/h
1490 05-07-2003 11:45:01 18.4 C 10.7 g/m*3 18.4 C 0 km/h
1491 05-07-2003 11:51:01 18.9 C 10.85 g/m*3 18.9 C 0 km/h
1492 05-07-2003 11:57:01 19.5 C 10.41 g/m*3 19.5 C 0 km/h
1493 05-07-2003 12:03:01 19.2 C 10.06 g/m*3 19.2 C 0 km/h
1494 05-07-2003 12:09:01 19.3 C 10.12 g/m*3 19.3 C 0 km/h
1495 05-07-2003 12:15:01 19.8 C 10.42 g/m*3 19.8 C 0 km/h
1496 05-07-2003 12:21:01 20.2 C 10.14 g/m*3 20.2 C 0 km/h
1497 05-07-2003 12:27:01 20 C 10.2 g/m*3 20 C 0 km/h
1498 05-07-2003 12:33:01 20 C 10.02 g/m*3 20 C 0 km/h
1499 05-07-2003 12:39:01 19.7 C 10.02 g/m*3 19.7 C 0 km/h
1500 05-07-2003 12:45:01 19.6 C 9.96 g/m*3 19.6 C 0 km/h
Sensor: Nr:Datum:Temp:Abs-Feuchte:Windchill:Wind:
Aussen-T/F 1501 05-07-2003 12:51:01 19.3 C 10.12 g/m*3 19.3 C 0 km/h
1502 05-07-2003 12:57:01 19.3 C 10.12 g/m*3 19.3 C 0 km/h
1503 05-07-2003 13:03:01 19.5 C 10.24 g/m*3 19.5 C 0 km/h
1504 05-07-2003 13:09:01 19.6 C 10.13 g/m*3 19.6 C 0 km/h
1505 05-07-2003 13:15:01 19.6 C 10.47 g/m*3 19.6 C 0 km/h
1506 05-07-2003 13:21:01 19.8 C 10.42 g/m*3 19.8 C 0 km/h
1507 05-07-2003 13:27:01 19.7 C 10.02 g/m*3 19.7 C 0 km/h
1508 05-07-2003 13:33:02 19.8 C 10.25 g/m*3 19.8 C 0 km/h
1509 05-07-2003 13:39:02 20 C 10.2 g/m*3 20 C 0 km/h
1510 05-07-2003 13:45:02 20.1 C 10.08 g/m*3 20.1 C 0 km/h
1511 05-07-2003 13:51:02 19.8 C 9.74 g/m*3 19.8 C 0 km/h
1512 05-07-2003 13:57:02 19.9 C 9.97 g/m*3 19.9 C 0 km/h
1513 05-07-2003 14:03:01 19.9 C 10.65 g/m*3 19.9 C 0 km/h
1514 05-07-2003 14:09:01 20.1 C 10.6 g/m*3 20.1 C 0 km/h
1515 05-07-2003 14:15:01 20.5 C 11.03 g/m*3 20.5 C 0 km/h
1516 05-07-2003 14:21:01 20.4 C 10.79 g/m*3 20.4 C 0 km/h
1517 05-07-2003 14:27:01 20.8 C 10.68 g/m*3 20.8 C 0 km/h
1518 05-07-2003 14:33:01 20.9 C 10.56 g/m*3 20.9 C 0 km/h
1519 05-07-2003 14:39:01 21.1 C 10.5 g/m*3 21.1 C 0 km/h
1520 05-07-2003 14:45:01 20.9 C 10.56 g/m*3 20.9 C 0 km/h
1521 05-07-2003 14:51:01 20.8 C 10.86 g/m*3 20.8 C 0 km/h
1522 05-07-2003 14:57:01 19.8 C 10.59 g/m*3 19.8 C 0 km/h
1523 05-07-2003 15:03:01 19.6 C 10.8 g/m*3 19.6 C 0 km/h
1524 05-07-2003 15:09:01 19.1 C 10.66 g/m*3 19.1 C 0 km/h
1525 05-07-2003 15:15:01 18.9 C 10.69 g/m*3 18.9 C 0 km/h
Sensor: Nr:Datum:Temp:Abs-Feuchte:Windchill:Wind:
Aussen-T/F 1526 05-07-2003 15:21:01 19 C 10.59 g/m*3 19 C 0 km/h
1527 05-07-2003 15:27:01 19.2 C 10.72 g/m*3 19.2 C 0 km/h
1528 05-07-2003 15:33:35 19.3 C 10.62 g/m*3 19.3 C 0 km/h
1529 05-07-2003 15:39:35 19.3 C 10.28 g/m*3 19.3 C 0 km/h
1530 05-07-2003 15:45:35 19.1 C 10.33 g/m*3 19.1 C 0 km/h
1531 05-07-2003 15:51:35 19.1 C 10.49 g/m*3 19.1 C 0 km/h
1532 05-07-2003 15:57:35 18.9 C 10.53 g/m*3 18.9 C 0 km/h
1533 05-07-2003 16:03:35 18.7 C 10.25 g/m*3 18.7 C 0 km/h
1534 05-07-2003 16:09:35 18.6 C 10.5 g/m*3 18.6 C 0 km/h
1535 05-07-2003 16:15:35 18.4 C 10.38 g/m*3 18.4 C 0 km/h
1536 05-07-2003 16:21:35 18.4 C 10.38 g/m*3 18.4 C 0 km/h
1537 05-07-2003 16:27:35 18.3 C 10.48 g/m*3 18.3 C 0 km/h
1538 05-07-2003 16:33:35 18.2 C 10.41 g/m*3 18.2 C 0 km/h
1539 05-07-2003 16:39:35 18.3 C 10.48 g/m*3 18.3 C 0 km/h
1540 05-07-2003 16:45:35 18.2 C 10.41 g/m*3 18.2 C 0 km/h
1541 05-07-2003 16:51:35 18.2 C 10.41 g/m*3 18.2 C 0 km/h
1542 05-07-2003 16:57:35 18.2 C 10.41 g/m*3 18.2 C 0 km/h
1543 05-07-2003 17:03:35 18 C 10.29 g/m*3 18 C 0 km/h
1544 05-07-2003 17:09:35 18 C 10.44 g/m*3 18 C 0 km/h
1545 05-07-2003 17:15:35 17.9 C 10.54 g/m*3 17.9 C 0 km/h
1546 05-07-2003 17:21:35 17.9 C 10.54 g/m*3 17.9 C 0 km/h
1547 05-07-2003 17:27:35 17.7 C 10.26 g/m*3 17.7 C 0 km/h
1548 05-07-2003 17:33:35 17.7 C 10.26 g/m*3 17.7 C 0 km/h
1549 05-07-2003 17:39:35 17.6 C 10.2 g/m*3 17.6 C 0 km/h
1550 05-07-2003 17:45:35 17.3 C 10.16 g/m*3 17.3 C 0 km/h
Sensor: Nr:Datum:Temp:Abs-Feuchte:Windchill:Wind:
Aussen-T/F 1551 05-07-2003 17:51:35 17.4 C 10.37 g/m*3 17.4 C 0 km/h
1552 05-07-2003 17:57:35 17.4 C 10.23 g/m*3 17.4 C 0 km/h
1553 05-07-2003 18:03:35 17.2 C 10.25 g/m*3 17.2 C 0 km/h
1554 05-07-2003 18:09:35 17.3 C 10.31 g/m*3 17.3 C 0 km/h
1555 05-07-2003 18:15:35 17.3 C 10.31 g/m*3 17.3 C 0 km/h
1556 05-07-2003 18:21:35 17.2 C 10.25 g/m*3 17.2 C 0 km/h
1557 05-07-2003 18:27:35 17.2 C 10.4 g/m*3 17.2 C 0 km/h
1558 05-07-2003 18:33:35 17.5 C 10.29 g/m*3 17.5 C 0 km/h
1559 05-07-2003 18:39:35 17.7 C 10.41 g/m*3 17.7 C 0 km/h
1560 05-07-2003 18:45:35 17.8 C 10.32 g/m*3 17.8 C 0 km/h
1561 05-07-2003 18:51:35 17.7 C 10.26 g/m*3 17.7 C 0 km/h
1562 05-07-2003 18:57:35 17.4 C 10.23 g/m*3 17.4 C 0 km/h
1563 05-07-2003 19:03:35 17.2 C 9.96 g/m*3 17.2 C 0 km/h
1564 05-07-2003 19:09:35 17.5 C 10.14 g/m*3 17.5 C 0 km/h
1565 05-07-2003 19:15:35 17.4 C 10.08 g/m*3 17.4 C 0 km/h
1566 05-07-2003 19:21:35 17.4 C 10.08 g/m*3 17.4 C 0 km/h
1567 05-07-2003 19:27:35 17.5 C 10.14 g/m*3 17.5 C 0 km/h
1568 05-07-2003 19:33:35 17.6 C 10.05 g/m*3 17.6 C 0 km/h
1569 05-07-2003 19:39:35 17.6 C 10.05 g/m*3 17.6 C 0 km/h
1570 05-07-2003 19:45:35 17.9 C 10.23 g/m*3 17.9 C 0 km/h
1571 05-07-2003 19:51:35 18 C 10.14 g/m*3 18 C 0 km/h
1572 05-07-2003 19:57:35 18 C 9.98 g/m*3 18 C 0 km/h
1573 05-07-2003 20:03:35 17.8 C 10.02 g/m*3 17.8 C 0 km/h
1574 05-07-2003 20:09:35 17.7 C 9.96 g/m*3 17.7 C 0 km/h
1575 05-07-2003 20:15:35 17.5 C 9.84 g/m*3 17.5 C 0 km/h
Sensor: Nr:Datum:Temp:Abs-Feuchte:Windchill:Wind:
Aussen-T/F 1576 05-07-2003 20:21:35 17.3 C 9.58 g/m*3 17.3 C 0 km/h
1577 05-07-2003 20:27:35 17.4 C 9.78 g/m*3 17.4 C 0 km/h
1578 05-07-2003 20:33:35 17.4 C 9.63 g/m*3 17.4 C 0 km/h
1579 05-07-2003 20:39:35 17.4 C 9.63 g/m*3 17.4 C 0 km/h
1580 05-07-2003 20:45:35 17.5 C 9.69 g/m*3 17.5 C 0 km/h
1581 05-07-2003 20:51:35 17.4 C 9.63 g/m*3 17.4 C 0 km/h
1582 05-07-2003 20:57:35 17.4 C 9.63 g/m*3 17.4 C 0 km/h
1583 05-07-2003 21:03:35 17.4 C 9.63 g/m*3 17.4 C 0 km/h
1584 05-07-2003 21:09:35 17.3 C 9.58 g/m*3 17.3 C 0 km/h
1585 05-07-2003 21:15:35 17.3 C 9.58 g/m*3 17.3 C 0 km/h
1586 05-07-2003 21:21:35 17.3 C 9.58 g/m*3 17.3 C 0 km/h
1587 05-07-2003 21:27:35 17.2 C 9.67 g/m*3 17.2 C 0 km/h
1588 05-07-2003 21:33:35 17.2 C 9.81 g/m*3 17.2 C 0 km/h
1589 05-07-2003 21:39:35 17.1 C 9.9 g/m*3 17.1 C 0 km/h
1590 05-07-2003 21:45:35 17 C 9.84 g/m*3 17 C 0 km/h
1591 05-07-2003 21:51:35 17 C 9.84 g/m*3 17 C 0 km/h
1592 05-07-2003 21:58:01 16.9 C 9.92 g/m*3 16.9 C 0 km/h
1593 05-07-2003 22:04:01 16.8 C 9.87 g/m*3 16.8 C 0 km/h
1594 05-07-2003 22:10:01 16.8 C 9.72 g/m*3 16.8 C 0 km/h
1595 05-07-2003 22:16:01 16.7 C 9.66 g/m*3 16.7 C 0 km/h
1596 05-07-2003 22:22:01 16.7 C 9.66 g/m*3 16.7 C 0 km/h
1597 05-07-2003 22:28:01 16.7 C 9.66 g/m*3 16.7 C 0 km/h
1598 05-07-2003 22:34:01 16.7 C 9.66 g/m*3 16.7 C 0 km/h
1599 05-07-2003 22:40:01 16.7 C 9.52 g/m*3 16.7 C 0 km/h
1600 05-07-2003 22:46:01 16.7 C 9.66 g/m*3 16.7 C 0 km/h
Sensor: Nr:Datum:Temp:Abs-Feuchte:Windchill:Wind:
Aussen-T/F 1601 05-07-2003 22:52:01 16.6 C 9.61 g/m*3 16.6 C 0 km/h
1602 05-07-2003 22:58:01 16.6 C 9.75 g/m*3 16.6 C 0 km/h
1603 05-07-2003 23:04:01 16.6 C 9.75 g/m*3 16.6 C 0 km/h
1604 05-07-2003 23:10:01 16.6 C 9.75 g/m*3 16.6 C 0 km/h
1605 05-07-2003 23:16:01 16.4 C 9.63 g/m*3 16.4 C 0 km/h
1606 05-07-2003 23:22:01 16.4 C 9.63 g/m*3 16.4 C 0 km/h
1607 05-07-2003 23:28:01 16.5 C 9.69 g/m*3 16.5 C 0 km/h
1608 05-07-2003 23:34:01 16.6 C 9.61 g/m*3 16.6 C 0 km/h
1609 05-07-2003 23:40:01 16.6 C 9.61 g/m*3 16.6 C 0 km/h
1610 05-07-2003 23:46:01 16.6 C 9.61 g/m*3 16.6 C 0 km/h
1611 05-07-2003 23:52:01 16.6 C 9.61 g/m*3 16.6 C 0 km/h
1612 05-07-2003 23:58:01 16.6 C 9.61 g/m*3 16.6 C 0 km/h
1613 06-07-2003 00:04:01 16.6 C 9.61 g/m*3 16.6 C 0 km/h
1614 06-07-2003 00:10:01 16.6 C 9.75 g/m*3 16.6 C 0 km/h
1615 06-07-2003 00:16:01 16.7 C 9.66 g/m*3 16.7 C 0 km/h
1616 06-07-2003 00:22:01 16.7 C 9.66 g/m*3 16.7 C 0 km/h
1617 06-07-2003 00:28:01 16.7 C 9.81 g/m*3 16.7 C 0 km/h
1618 06-07-2003 00:34:01 16.7 C 9.81 g/m*3 16.7 C 0 km/h
1619 06-07-2003 00:40:01 16.6 C 9.89 g/m*3 16.6 C 0 km/h
1620 06-07-2003 00:46:01 16.6 C 9.89 g/m*3 16.6 C 0 km/h
1621 06-07-2003 00:52:01 16.6 C 9.89 g/m*3 16.6 C 0 km/h
1622 06-07-2003 00:58:01 16.6 C 10.03 g/m*3 16.6 C 0 km/h
1623 06-07-2003 01:04:01 16.6 C 10.03 g/m*3 16.6 C 0 km/h
1624 06-07-2003 01:10:01 16.5 C 10.11 g/m*3 16.5 C 0 km/h
1625 06-07-2003 01:16:01 16.5 C 10.11 g/m*3 16.5 C 0 km/h
Sensor: Nr:Datum:Temp:Abs-Feuchte:Windchill:Wind:
Aussen-T/F 1626 06-07-2003 01:22:01 16.4 C 10.05 g/m*3 16.4 C 0 km/h
1627 06-07-2003 01:28:01 16.4 C 10.05 g/m*3 16.4 C 0 km/h
1628 06-07-2003 01:34:01 16.4 C 10.19 g/m*3 16.4 C 0 km/h
1629 06-07-2003 01:40:01 16.4 C 10.19 g/m*3 16.4 C 0 km/h
1630 06-07-2003 01:46:01 16.3 C 10.13 g/m*3 16.3 C 0 km/h
1631 06-07-2003 01:52:01 16.3 C 10.13 g/m*3 16.3 C 0 km/h
1632 06-07-2003 01:58:01 16.3 C 10.13 g/m*3 16.3 C 0 km/h
1633 06-07-2003 02:04:01 16.2 C 10.07 g/m*3 16.2 C 0 km/h
1634 06-07-2003 02:10:01 16.2 C 10.07 g/m*3 16.2 C 0 km/h
1635 06-07-2003 02:16:01 16.2 C 10.07 g/m*3 16.2 C 0 km/h
1636 06-07-2003 02:22:01 16.2 C 10.2 g/m*3 16.2 C 0 km/h
1637 06-07-2003 02:28:01 16.1 C 10.14 g/m*3 16.1 C 0 km/h
1638 06-07-2003 02:34:01 16.1 C 10.14 g/m*3 16.1 C 0 km/h
1639 06-07-2003 02:40:01 16.1 C 10.14 g/m*3 16.1 C 0 km/h
1640 06-07-2003 02:46:01 16 C 10.08 g/m*3 16 C 0 km/h
1641 06-07-2003 02:52:01 16 C 10.08 g/m*3 16 C 0 km/h
1642 06-07-2003 02:58:01 16 C 10.22 g/m*3 16 C 0 km/h
1643 06-07-2003 03:04:01 16 C 10.22 g/m*3 16 C 0 km/h
1644 06-07-2003 03:10:01 15.9 C 10.29 g/m*3 15.9 C 0 km/h
1645 06-07-2003 03:16:01 15.9 C 10.29 g/m*3 15.9 C 0 km/h
1646 06-07-2003 03:22:01 15.8 C 10.23 g/m*3 15.8 C 0 km/h
1647 06-07-2003 03:28:01 15.7 C 10.17 g/m*3 15.7 C 0 km/h
1648 06-07-2003 03:34:01 15.6 C 10.11 g/m*3 15.6 C 0 km/h
1649 06-07-2003 03:40:01 15.6 C 10.11 g/m*3 15.6 C 0 km/h
1650 06-07-2003 03:46:01 15.5 C 10.05 g/m*3 15.5 C 0 km/h
Sensor: Nr:Datum:Temp:Abs-Feuchte:Windchill:Wind:
Aussen-T/F 1651 06-07-2003 03:52:01 15.6 C 10.11 g/m*3 15.6 C 0 km/h
1652 06-07-2003 03:58:01 15.6 C 10.11 g/m*3 15.6 C 0 km/h
1653 06-07-2003 04:04:01 15.5 C 10.05 g/m*3 15.5 C 0 km/h
1654 06-07-2003 04:10:01 15.4 C 9.99 g/m*3 15.4 C 0 km/h
1655 06-07-2003 04:16:01 15.4 C 9.99 g/m*3 15.4 C 0 km/h
1656 06-07-2003 04:22:01 15.4 C 9.99 g/m*3 15.4 C 0 km/h
1657 06-07-2003 04:28:01 15.3 C 9.92 g/m*3 15.3 C 0 km/h
1658 06-07-2003 04:34:01 15.3 C 9.92 g/m*3 15.3 C 0 km/h
1659 06-07-2003 04:46:01 15.3 C 9.92 g/m*3 15.3 C 0 km/h
1660 06-07-2003 04:52:01 15.2 C 9.86 g/m*3 15.2 C 0 km/h
1661 06-07-2003 04:58:01 15.1 C 9.8 g/m*3 15.1 C 0 km/h
1662 06-07-2003 05:04:01 15.2 C 9.86 g/m*3 15.2 C 0 km/h
1663 06-07-2003 05:10:01 15.2 C 9.73 g/m*3 15.2 C 0 km/h
1664 06-07-2003 05:16:01 15.1 C 9.68 g/m*3 15.1 C 0 km/h
1665 06-07-2003 05:22:01 15.1 C 9.68 g/m*3 15.1 C 0 km/h
1666 06-07-2003 05:28:01 15.1 C 9.55 g/m*3 15.1 C 0 km/h
1667 06-07-2003 05:34:01 15.1 C 9.55 g/m*3 15.1 C 0 km/h
1668 06-07-2003 05:40:01 15.1 C 9.55 g/m*3 15.1 C 0 km/h
1669 06-07-2003 05:46:01 15.1 C 9.55 g/m*3 15.1 C 0 km/h
1670 06-07-2003 05:52:01 15.1 C 9.55 g/m*3 15.1 C 0 km/h
1671 06-07-2003 05:58:01 15.1 C 9.55 g/m*3 15.1 C 0 km/h
1672 06-07-2003 06:04:01 15.1 C 9.55 g/m*3 15.1 C 0 km/h
1673 06-07-2003 06:10:01 15.1 C 9.42 g/m*3 15.1 C 0 km/h
1674 06-07-2003 06:16:01 15.1 C 9.42 g/m*3 15.1 C 0 km/h
1675 06-07-2003 06:22:01 15.1 C 9.42 g/m*3 15.1 C 0 km/h
Sensor: Nr:Datum:Temp:Abs-Feuchte:Windchill:Wind:
Aussen-T/F 1676 06-07-2003 06:28:01 15.2 C 9.48 g/m*3 15.2 C 0 km/h
1677 06-07-2003 06:34:01 15.2 C 9.48 g/m*3 15.2 C 0 km/h
1678 06-07-2003 06:40:01 15.2 C 9.35 g/m*3 15.2 C 0 km/h
1679 06-07-2003 06:46:01 15.2 C 9.35 g/m*3 15.2 C 0 km/h
1680 06-07-2003 06:52:01 15.2 C 9.35 g/m*3 15.2 C 0 km/h
1681 06-07-2003 06:58:01 15.1 C 9.29 g/m*3 15.1 C 0 km/h
1682 06-07-2003 07:04:01 15.2 C 9.35 g/m*3 15.2 C 0 km/h
1683 06-07-2003 07:10:01 15.2 C 9.22 g/m*3 15.2 C 0 km/h
1684 06-07-2003 07:16:01 15.2 C 9.22 g/m*3 15.2 C 0 km/h
1685 06-07-2003 07:22:01 15.3 C 9.14 g/m*3 15.3 C 0 km/h
1686 06-07-2003 07:28:01 15.3 C 9.14 g/m*3 15.3 C 0 km/h
1687 06-07-2003 07:34:01 15.3 C 9.27 g/m*3 15.3 C 0 km/h
1688 06-07-2003 07:40:01 15.4 C 9.2 g/m*3 15.4 C 0 km/h
1689 06-07-2003 07:46:01 15.4 C 9.2 g/m*3 15.4 C 0 km/h
1690 06-07-2003 07:52:01 15.4 C 9.2 g/m*3 15.4 C 0 km/h
1691 06-07-2003 07:58:01 15.4 C 9.2 g/m*3 15.4 C 0 km/h
1692 06-07-2003 08:04:01 15.6 C 9.31 g/m*3 15.6 C 0 km/h
1693 06-07-2003 08:10:01 15.7 C 9.23 g/m*3 15.7 C 0 km/h
1694 06-07-2003 08:16:01 15.8 C 9.29 g/m*3 15.8 C 0 km/h
1695 06-07-2003 08:22:01 15.9 C 9.34 g/m*3 15.9 C 0 km/h
1696 06-07-2003 08:28:01 15.8 C 9.02 g/m*3 15.8 C 0 km/h
1697 06-07-2003 08:34:01 15.8 C 9.02 g/m*3 15.8 C 0 km/h
1698 06-07-2003 08:40:01 16.1 C 9.05 g/m*3 16.1 C 0 km/h
1699 06-07-2003 08:46:01 16.3 C 9.16 g/m*3 16.3 C 0 km/h
1700 06-07-2003 08:52:01 16.2 C 8.83 g/m*3 16.2 C 0 km/h
Sensor: Nr:Datum:Temp:Abs-Feuchte:Windchill:Wind:
Aussen-T/F 1701 06-07-2003 08:58:01 16.4 C 8.93 g/m*3 16.4 C 0 km/h
1702 06-07-2003 09:04:01 16.6 C 9.04 g/m*3 16.6 C 0 km/h
1703 06-07-2003 09:10:01 16.6 C 8.76 g/m*3 16.6 C 0 km/h
1704 06-07-2003 09:16:01 16.4 C 8.79 g/m*3 16.4 C 0 km/h
1705 06-07-2003 09:22:01 16.6 C 8.76 g/m*3 16.6 C 0 km/h
1706 06-07-2003 09:28:01 16.9 C 8.63 g/m*3 16.9 C 0 km/h
1707 06-07-2003 09:34:01 16.8 C 8.44 g/m*3 16.8 C 0 km/h
1708 06-07-2003 09:40:01 17 C 8.54 g/m*3 17 C 0 km/h
1709 06-07-2003 09:46:01 17.1 C 8.44 g/m*3 17.1 C 0 km/h
1710 06-07-2003 09:52:01 17.3 C 8.4 g/m*3 17.3 C 0 km/h
1711 06-07-2003 09:58:01 17.3 C 8.4 g/m*3 17.3 C 0 km/h
1712 06-07-2003 10:04:01 17 C 8.39 g/m*3 17 C 0 km/h
1713 06-07-2003 10:10:01 17 C 8.39 g/m*3 17 C 0 km/h
1714 06-07-2003 10:16:01 17 C 8.39 g/m*3 17 C 0 km/h
1715 06-07-2003 10:22:01 17.1 C 8.3 g/m*3 17.1 C 0 km/h
1716 06-07-2003 10:28:01 17.2 C 8.35 g/m*3 17.2 C 0 km/h
1717 06-07-2003 10:34:01 17.2 C 8.35 g/m*3 17.2 C 0 km/h
1718 06-07-2003 10:40:01 17.5 C 8.5 g/m*3 17.5 C 0 km/h
1719 06-07-2003 10:46:01 17.9 C 8.7 g/m*3 17.9 C 0 km/h
1720 06-07-2003 10:52:01 18.3 C 8.29 g/m*3 18.3 C 0 km/h
1721 06-07-2003 10:58:01 18.4 C 8.18 g/m*3 18.4 C 0 km/h
1722 06-07-2003 11:04:02 18.2 C 8.24 g/m*3 18.2 C 0 km/h
1723 06-07-2003 11:10:02 18.2 C 8.39 g/m*3 18.2 C 0 km/h
1724 06-07-2003 11:16:02 18.1 C 8.34 g/m*3 18.1 C 0 km/h
1725 06-07-2003 11:22:02 18.5 C 8.39 g/m*3 18.5 C 0 km/h
Sensor: Nr:Datum:Temp:Abs-Feuchte:Windchill:Wind:
Aussen-T/F 1726 06-07-2003 11:28:02 18.9 C 8.42 g/m*3 18.9 C 0 km/h
1727 06-07-2003 11:34:00 18.9 C 8.1 g/m*3 18.9 C 0 km/h
1728 06-07-2003 11:40:00 19.1 C 8.03 g/m*3 19.1 C 0 km/h
1729 06-07-2003 11:46:00 19.3 C 8.29 g/m*3 19.3 C 0 km/h
1730 06-07-2003 11:52:00 19.4 C 8.18 g/m*3 19.4 C 0 km/h
1731 06-07-2003 11:58:00 20 C 8.64 g/m*3 20 C 0 km/h
1732 06-07-2003 12:04:01 20.8 C 8.33 g/m*3 20.8 C 0 km/h
1733 06-07-2003 12:10:01 21 C 8.06 g/m*3 21 C 0 km/h
1734 06-07-2003 12:16:01 20.6 C 8.23 g/m*3 20.6 C 0 km/h
1735 06-07-2003 12:22:01 20.6 C 8.41 g/m*3 20.6 C 0 km/h
1736 06-07-2003 12:28:01 21.2 C 8.34 g/m*3 21.2 C 0 km/h
1737 06-07-2003 12:34:01 21.4 C 8.06 g/m*3 21.4 C 0 km/h
1738 06-07-2003 12:40:01 21.6 C 8.35 g/m*3 21.6 C 0 km/h
1739 06-07-2003 12:46:01 22.9 C 8.38 g/m*3 22.9 C 0 km/h
1740 06-07-2003 12:52:01 23.2 C 8.11 g/m*3 23.2 C 0 km/h
1741 06-07-2003 12:58:01 23.1 C 7.86 g/m*3 23.1 C 0 km/h
1742 06-07-2003 13:04:02 22.6 C 8.24 g/m*3 22.6 C 0 km/h
1743 06-07-2003 13:10:02 21.9 C 8.1 g/m*3 21.9 C 0 km/h
1744 06-07-2003 13:16:02 23.4 C 8.41 g/m*3 23.4 C 0 km/h
1745 06-07-2003 13:22:02 24.5 C 7.83 g/m*3 24.5 C 0 km/h
1746 06-07-2003 13:28:02 25.1 C 7.41 g/m*3 25.1 C 0 km/h
1747 06-07-2003 13:34:01 25.2 C 7.68 g/m*3 25.2 C 0 km/h
1748 06-07-2003 13:40:01 25.7 C 7.9 g/m*3 25.7 C 0 km/h
1749 06-07-2003 13:46:01 26.2 C 7.63 g/m*3 26.2 C 0 km/h
1750 06-07-2003 13:52:01 26.3 C 7.67 g/m*3 26.3 C 0 km/h
Sensor: Nr:Datum:Temp:Abs-Feuchte:Windchill:Wind:
Aussen-T/F 1751 06-07-2003 13:58:01 25.7 C 7.66 g/m*3 25.7 C 0 km/h
1752 06-07-2003 14:04:01 25.5 C 8.05 g/m*3 25.5 C 0 km/h
1753 06-07-2003 14:10:01 25.3 C 7.96 g/m*3 25.3 C 0 km/h
1754 06-07-2003 14:16:01 25.7 C 8.38 g/m*3 25.7 C 0 km/h
1755 06-07-2003 14:22:01 24.6 C 7.65 g/m*3 24.6 C 0 km/h
1756 06-07-2003 14:28:01 24.7 C 8.15 g/m*3 24.7 C 0 km/h
1757 06-07-2003 14:34:01 25 C 8.29 g/m*3 25 C 0 km/h
1758 06-07-2003 14:40:01 25.5 C 8.76 g/m*3 25.5 C 0 km/h
1759 06-07-2003 14:46:01 25.7 C 8.14 g/m*3 25.7 C 0 km/h
1760 06-07-2003 14:52:01 26 C 8.28 g/m*3 26 C 0 km/h
1761 06-07-2003 14:58:01 26.2 C 8.37 g/m*3 26.2 C 0 km/h
1762 06-07-2003 15:04:01 26.9 C 8.45 g/m*3 26.9 C 0 km/h
1763 06-07-2003 15:10:01 26.8 C 8.14 g/m*3 26.8 C 0 km/h
1764 06-07-2003 15:16:01 26 C 7.79 g/m*3 26 C 0 km/h
1765 06-07-2003 15:22:01 24.8 C 7.97 g/m*3 24.8 C 0 km/h
1766 06-07-2003 15:28:01 25.5 C 8.52 g/m*3 25.5 C 0 km/h
1767 06-07-2003 15:34:02 26.6 C 8.56 g/m*3 26.6 C 0 km/h
1768 06-07-2003 15:40:02 27 C 8.24 g/m*3 27 C 0 km/h
1769 06-07-2003 15:46:02 27.3 C 8.37 g/m*3 27.3 C 0 km/h
1770 06-07-2003 15:52:02 27 C 7.98 g/m*3 27 C 0 km/h
1771 06-07-2003 15:58:02 27 C 8.24 g/m*3 27 C 0 km/h
1772 06-07-2003 16:04:02 27.8 C 8.34 g/m*3 27.8 C 0 km/h
1773 06-07-2003 16:10:02 27.7 C 8.29 g/m*3 27.7 C 0 km/h
1774 06-07-2003 16:16:02 27.3 C 8.11 g/m*3 27.3 C 0 km/h
1775 06-07-2003 16:22:02 28 C 8.43 g/m*3 28 C 0 km/h
Sensor: Nr:Datum:Temp:Abs-Feuchte:Windchill:Wind:
Aussen-T/F 1776 06-07-2003 16:28:02 28.2 C 8.25 g/m*3 28.2 C 0 km/h
1777 06-07-2003 16:34:01 28.2 C 8.25 g/m*3 28.2 C 0 km/h
1778 06-07-2003 16:40:01 26.7 C 7.85 g/m*3 26.7 C 0 km/h
1779 06-07-2003 16:46:01 26.2 C 7.88 g/m*3 26.2 C 0 km/h
1780 06-07-2003 16:52:01 26.4 C 8.21 g/m*3 26.4 C 0 km/h
1781 06-07-2003 16:58:01 26.6 C 8.56 g/m*3 26.6 C 0 km/h
1782 06-07-2003 17:04:02 27.4 C 8.16 g/m*3 27.4 C 0 km/h
1783 06-07-2003 17:10:02 27.2 C 8.07 g/m*3 27.2 C 0 km/h
1784 06-07-2003 17:16:02 27.2 C 8.59 g/m*3 27.2 C 0 km/h
1785 06-07-2003 17:22:02 27.6 C 8.25 g/m*3 27.6 C 0 km/h
1786 06-07-2003 17:28:02 27.3 C 8.37 g/m*3 27.3 C 0 km/h
1787 06-07-2003 17:34:01 27.9 C 8.65 g/m*3 27.9 C 0 km/h
1788 06-07-2003 17:40:01 28 C 8.16 g/m*3 28 C 0 km/h
1789 06-07-2003 17:46:01 28.5 C 8.38 g/m*3 28.5 C 0 km/h
1790 06-07-2003 17:52:01 28.6 C 8.43 g/m*3 28.6 C 0 km/h
1791 06-07-2003 17:58:01 29.2 C 8.13 g/m*3 29.2 C 0 km/h
1792 06-07-2003 18:04:02 29.5 C 8.56 g/m*3 29.5 C 0 km/h
1793 06-07-2003 18:10:02 29.8 C 8.7 g/m*3 29.8 C 0 km/h
1794 06-07-2003 18:16:02 29.8 C 8.7 g/m*3 29.8 C 0 km/h
1795 06-07-2003 18:22:02 30 C 8.49 g/m*3 30 C 0 km/h
1796 06-07-2003 18:28:02 30 C 8.19 g/m*3 30 C 0 km/h
1797 06-07-2003 18:34:02 30.1 C 8.23 g/m*3 30.1 C 0 km/h
1798 06-07-2003 18:40:02 29.5 C 8.26 g/m*3 29.5 C 0 km/h
1799 06-07-2003 18:46:02 29.1 C 8.38 g/m*3 29.1 C 0 km/h
1800 06-07-2003 18:52:02 29.1 C 8.38 g/m*3 29.1 C 0 km/h
Sensor: Nr:Datum:Temp:Abs-Feuchte:Windchill:Wind:
Aussen-T/F 1801 06-07-2003 18:58:02 28.9 C 8.57 g/m*3 28.9 C 0 km/h
1802 06-07-2003 19:04:02 28.7 C 8.76 g/m*3 28.7 C 0 km/h
1803 06-07-2003 19:10:02 28.9 C 8.57 g/m*3 28.9 C 0 km/h
1804 06-07-2003 19:16:02 29 C 8.62 g/m*3 29 C 0 km/h
1805 06-07-2003 19:22:02 28.7 C 8.48 g/m*3 28.7 C 0 km/h
1806 06-07-2003 19:28:02 28.2 C 8.25 g/m*3 28.2 C 0 km/h
1807 06-07-2003 19:51:01 27.3 C 8.9 g/m*3 27.3 C 0 km/h
1808 06-07-2003 20:01:01 26.6 C 8.56 g/m*3 26.6 C 0 km/h
1809 06-07-2003 20:11:02 26.4 C 8.71 g/m*3 26.4 C 0 km/h
1810 06-07-2003 20:21:02 26.2 C 8.62 g/m*3 26.2 C 0 km/h
1811 06-07-2003 20:31:02 25.5 C 9 g/m*3 25.5 C 0 km/h
1812 06-07-2003 20:41:01 25.1 C 8.8 g/m*3 25.1 C 0 km/h
1813 06-07-2003 20:51:01 24.5 C 9.18 g/m*3 24.5 C 0 km/h
1814 06-07-2003 21:01:01 24 C 9.36 g/m*3 24 C 0 km/h
1815 06-07-2003 21:11:01 23.6 C 10 g/m*3 23.6 C 0 km/h
1816 06-07-2003 21:21:01 22.4 C 9.73 g/m*3 22.4 C 0 km/h
1817 06-07-2003 21:31:01 21.8 C 9.98 g/m*3 21.8 C 0 km/h
1818 06-07-2003 21:41:01 21.2 C 9.82 g/m*3 21.2 C 0 km/h
1819 06-07-2003 21:51:01 20.8 C 9.96 g/m*3 20.8 C 0 km/h
1820 06-07-2003 22:01:01 20.4 C 9.73 g/m*3 20.4 C 0 km/h
1821 06-07-2003 22:11:01 19.9 C 9.97 g/m*3 19.9 C 0 km/h
1822 06-07-2003 22:21:01 19.5 C 9.73 g/m*3 19.5 C 0 km/h
1823 06-07-2003 22:41:01 18.9 C 9.88 g/m*3 18.9 C 0 km/h
1824 06-07-2003 22:51:01 19 C 9.78 g/m*3 19 C 0 km/h
1825 06-07-2003 23:01:01 18.6 C 9.71 g/m*3 18.6 C 0 km/h
Sensor: Nr:Datum:Temp:Abs-Feuchte:Windchill:Wind:
Aussen-T/F 1826 06-07-2003 23:11:01 18.4 C 9.75 g/m*3 18.4 C 0 km/h
1827 06-07-2003 23:21:01 18 C 9.83 g/m*3 18 C 0 km/h
1828 06-07-2003 23:31:01 18.1 C 9.89 g/m*3 18.1 C 0 km/h
1829 06-07-2003 23:42:01 18.1 C 9.89 g/m*3 18.1 C 0 km/h
1830 06-07-2003 23:52:01 17.6 C 9.9 g/m*3 17.6 C 0 km/h
1831 07-07-2003 00:02:01 17.5 C 9.99 g/m*3 17.5 C 0 km/h
1832 07-07-2003 00:12:01 17.4 C 9.93 g/m*3 17.4 C 0 km/h
1833 07-07-2003 00:22:01 17.3 C 10.02 g/m*3 17.3 C 0 km/h
1834 07-07-2003 00:32:01 17.1 C 9.9 g/m*3 17.1 C 0 km/h
1835 07-07-2003 00:42:01 17 C 9.98 g/m*3 17 C 0 km/h
1836 07-07-2003 00:52:01 17.2 C 9.96 g/m*3 17.2 C 0 km/h
1837 07-07-2003 01:02:01 17.2 C 10.25 g/m*3 17.2 C 0 km/h
1838 07-07-2003 01:12:01 17 C 10.27 g/m*3 17 C 0 km/h
1839 07-07-2003 01:22:01 16.8 C 10.15 g/m*3 16.8 C 0 km/h
1840 07-07-2003 01:32:01 16.6 C 10.31 g/m*3 16.6 C 0 km/h
1841 07-07-2003 01:42:01 16.5 C 10.25 g/m*3 16.5 C 0 km/h
1842 07-07-2003 01:52:01 16.5 C 10.25 g/m*3 16.5 C 0 km/h
1843 07-07-2003 02:02:01 16.5 C 10.11 g/m*3 16.5 C 0 km/h
1844 07-07-2003 02:12:01 16.2 C 10.07 g/m*3 16.2 C 0 km/h
1845 07-07-2003 02:22:01 16.1 C 10.01 g/m*3 16.1 C 0 km/h
1846 07-07-2003 02:32:01 15.9 C 10.16 g/m*3 15.9 C 0 km/h
1847 07-07-2003 02:42:01 15.8 C 9.96 g/m*3 15.8 C 0 km/h
1848 07-07-2003 02:52:01 15.7 C 9.9 g/m*3 15.7 C 0 km/h
1849 07-07-2003 03:02:01 15.5 C 9.91 g/m*3 15.5 C 0 km/h
1850 07-07-2003 03:12:01 15.7 C 10.03 g/m*3 15.7 C 0 km/h
Sensor: Nr:Datum:Temp:Abs-Feuchte:Windchill:Wind:
Aussen-T/F 1851 07-07-2003 03:22:01 15.7 C 10.03 g/m*3 15.7 C 0 km/h
1852 07-07-2003 03:32:01 15.8 C 9.96 g/m*3 15.8 C 0 km/h
1853 07-07-2003 03:42:01 16 C 9.95 g/m*3 16 C 0 km/h
1854 07-07-2003 03:52:01 16.2 C 10.07 g/m*3 16.2 C 0 km/h
1855 07-07-2003 04:02:01 16.1 C 10.01 g/m*3 16.1 C 0 km/h
1856 07-07-2003 04:12:01 15.8 C 9.96 g/m*3 15.8 C 0 km/h
1857 07-07-2003 04:22:01 15.8 C 10.1 g/m*3 15.8 C 0 km/h
1858 07-07-2003 04:32:01 15.8 C 10.1 g/m*3 15.8 C 0 km/h
1859 07-07-2003 04:42:01 16 C 10.08 g/m*3 16 C 0 km/h
1860 07-07-2003 04:52:01 16 C 10.08 g/m*3 16 C 0 km/h
1861 07-07-2003 05:02:01 16 C 10.08 g/m*3 16 C 0 km/h
1862 07-07-2003 05:12:01 16 C 10.08 g/m*3 16 C 0 km/h
1863 07-07-2003 05:22:01 15.8 C 10.23 g/m*3 15.8 C 0 km/h
1864 07-07-2003 05:32:01 15.8 C 10.36 g/m*3 15.8 C 0 km/h
1865 07-07-2003 05:42:01 15.9 C 10.29 g/m*3 15.9 C 0 km/h
1866 07-07-2003 05:52:01 15.6 C 10.11 g/m*3 15.6 C 0 km/h
1867 07-07-2003 06:02:01 15.6 C 10.11 g/m*3 15.6 C 0 km/h
1868 07-07-2003 06:12:01 15.7 C 10.17 g/m*3 15.7 C 0 km/h
1869 07-07-2003 06:22:01 15.7 C 10.17 g/m*3 15.7 C 0 km/h
1870 07-07-2003 06:32:01 15.7 C 10.17 g/m*3 15.7 C 0 km/h
1871 07-07-2003 06:42:01 15.8 C 10.36 g/m*3 15.8 C 0 km/h
1872 07-07-2003 06:52:01 16 C 10.35 g/m*3 16 C 0 km/h
1873 07-07-2003 07:02:01 16.1 C 10.42 g/m*3 16.1 C 0 km/h
1874 07-07-2003 07:12:01 16.1 C 10.42 g/m*3 16.1 C 0 km/h
1875 07-07-2003 07:22:01 16.4 C 10.47 g/m*3 16.4 C 0 km/h
Sensor: Nr:Datum:Temp:Abs-Feuchte:Windchill:Wind:
Aussen-T/F 1876 07-07-2003 07:32:01 16.7 C 10.23 g/m*3 16.7 C 0 km/h
1877 07-07-2003 07:42:01 17 C 9.98 g/m*3 17 C 0 km/h
1878 07-07-2003 07:52:01 17.3 C 10.16 g/m*3 17.3 C 0 km/h
1879 07-07-2003 08:02:01 17.5 C 10.14 g/m*3 17.5 C 0 km/h
1880 07-07-2003 08:12:01 17.6 C 10.35 g/m*3 17.6 C 0 km/h
1881 07-07-2003 08:22:01 17.5 C 10.29 g/m*3 17.5 C 0 km/h
1882 07-07-2003 08:32:00 17.4 C 10.52 g/m*3 17.4 C 0 km/h
1883 07-07-2003 08:42:00 17.4 C 10.52 g/m*3 17.4 C 0 km/h
1884 07-07-2003 08:52:00 17.4 C 10.23 g/m*3 17.4 C 0 km/h
1885 07-07-2003 09:02:01 17.6 C 10.2 g/m*3 17.6 C 0 km/h
1886 07-07-2003 09:12:01 18.1 C 10.2 g/m*3 18.1 C 0 km/h
1887 07-07-2003 09:22:01 18.5 C 10.44 g/m*3 18.5 C 0 km/h
1888 07-07-2003 09:32:01 18.9 C 10.37 g/m*3 18.9 C 0 km/h
1889 07-07-2003 09:42:01 19.4 C 10.01 g/m*3 19.4 C 0 km/h
1890 07-07-2003 09:52:01 19.8 C 10.25 g/m*3 19.8 C 0 km/h
1891 07-07-2003 10:02:01 20.4 C 10.26 g/m*3 20.4 C 0 km/h
1892 07-07-2003 10:12:01 20.6 C 9.84 g/m*3 20.6 C 0 km/h
1893 07-07-2003 10:22:01 21.2 C 9.82 g/m*3 21.2 C 0 km/h
1894 07-07-2003 10:32:00 22 C 10.09 g/m*3 22 C 0 km/h
1895 07-07-2003 10:42:00 22.5 C 9.99 g/m*3 22.5 C 0 km/h
1896 07-07-2003 10:52:00 22.7 C 9.5 g/m*3 22.7 C 0 km/h
1897 07-07-2003 11:02:01 23.5 C 9.94 g/m*3 23.5 C 0 km/h
1898 07-07-2003 11:12:01 24.1 C 9.41 g/m*3 24.1 C 0 km/h
1899 07-07-2003 11:22:01 24.5 C 9.4 g/m*3 24.5 C 0 km/h
1900 07-07-2003 11:32:01 24.1 C 8.97 g/m*3 24.1 C 0 km/h
Sensor: Nr:Datum:Temp:Abs-Feuchte:Windchill:Wind:
Aussen-T/F 1901 07-07-2003 11:42:01 25 C 9.21 g/m*3 25 C 0 km/h
1902 07-07-2003 11:52:01 25.6 C 9.52 g/m*3 25.6 C 0 km/h
1903 07-07-2003 12:02:01 25.8 C 8.91 g/m*3 25.8 C 0 km/h
1904 07-07-2003 12:12:01 26 C 9.01 g/m*3 26 C 0 km/h
1905 07-07-2003 12:22:01 26.7 C 8.86 g/m*3 26.7 C 0 km/h
1906 07-07-2003 12:32:01 25.7 C 8.62 g/m*3 25.7 C 0 km/h
1907 07-07-2003 12:42:01 25.3 C 8.19 g/m*3 25.3 C 0 km/h
1908 07-07-2003 12:52:01 24.8 C 7.97 g/m*3 24.8 C 0 km/h
1909 07-07-2003 13:02:03 23.9 C 8 g/m*3 23.9 C 0 km/h
1910 07-07-2003 13:12:03 22.9 C 7.56 g/m*3 22.9 C 0 km/h
1911 07-07-2003 13:22:03 23.6 C 7.87 g/m*3 23.6 C 0 km/h
1912 07-07-2003 13:32:01 26.4 C 7.22 g/m*3 26.4 C 0 km/h
1913 07-07-2003 13:42:01 26.3 C 7.43 g/m*3 26.3 C 0 km/h
1914 07-07-2003 13:52:01 27 C 7.72 g/m*3 27 C 0 km/h
1915 07-07-2003 14:02:01 26.5 C 8.01 g/m*3 26.5 C 0 km/h
1916 07-07-2003 14:12:01 26.8 C 8.14 g/m*3 26.8 C 0 km/h
1917 07-07-2003 14:22:01 25.6 C 7.38 g/m*3 25.6 C 0 km/h
1918 07-07-2003 14:32:01 25.8 C 7.7 g/m*3 25.8 C 0 km/h
1919 07-07-2003 14:42:01 25.5 C 7.81 g/m*3 25.5 C 0 km/h
1920 07-07-2003 14:52:01 25 C 7.83 g/m*3 25 C 0 km/h
1921 07-07-2003 15:02:01 25.8 C 8.19 g/m*3 25.8 C 0 km/h
1922 07-07-2003 15:12:01 26.4 C 7.72 g/m*3 26.4 C 0 km/h
1923 07-07-2003 15:22:01 27 C 7.72 g/m*3 27 C 0 km/h
1924 07-07-2003 15:32:01 26.9 C 7.68 g/m*3 26.9 C 0 km/h
1925 07-07-2003 15:42:01 27.3 C 7.85 g/m*3 27.3 C 0 km/h
Sensor: Nr:Datum:Temp:Abs-Feuchte:Windchill:Wind:
Aussen-T/F 1926 07-07-2003 15:52:01 27.9 C 7.57 g/m*3 27.9 C 0 km/h
1927 07-07-2003 16:02:02 26.9 C 7.42 g/m*3 26.9 C 0 km/h
1928 07-07-2003 16:12:02 28.2 C 7.42 g/m*3 28.2 C 0 km/h
1929 07-07-2003 16:22:02 29.3 C 7.3 g/m*3 29.3 C 0 km/h
1930 07-07-2003 16:32:01 29.6 C 7.42 g/m*3 29.6 C 0 km/h
1931 07-07-2003 16:42:01 27.6 C 6.92 g/m*3 27.6 C 0 km/h
1932 07-07-2003 16:52:01 28.6 C 7.03 g/m*3 28.6 C 0 km/h
1933 07-07-2003 17:02:02 29.6 C 7.12 g/m*3 29.6 C 0 km/h
1934 07-07-2003 17:12:02 27.9 C 6.76 g/m*3 27.9 C 0 km/h
1935 07-07-2003 17:22:02 29.2 C 7.26 g/m*3 29.2 C 0 km/h
1936 07-07-2003 17:32:01 29.3 C 6.72 g/m*3 29.3 C 0 km/h
1937 07-07-2003 17:42:01 28.9 C 6.86 g/m*3 28.9 C 0 km/h
1938 07-07-2003 17:52:01 28.6 C 6.74 g/m*3 28.6 C 0 km/h
1939 07-07-2003 18:02:01 28.5 C 6.99 g/m*3 28.5 C 0 km/h
1940 07-07-2003 18:12:01 28.3 C 6.91 g/m*3 28.3 C 0 km/h
1941 07-07-2003 18:22:01 28.1 C 6.84 g/m*3 28.1 C 0 km/h
1942 07-07-2003 18:32:02 27.6 C 6.65 g/m*3 27.6 C 0 km/h
1943 07-07-2003 18:42:02 27.9 C 7.03 g/m*3 27.9 C 0 km/h
1944 07-07-2003 18:52:02 28.5 C 6.99 g/m*3 28.5 C 0 km/h
1945 07-07-2003 19:02:02 27.9 C 8.38 g/m*3 27.9 C 0 km/h
1946 07-07-2003 19:12:02 27.9 C 8.38 g/m*3 27.9 C 0 km/h
1947 07-07-2003 19:22:02 28.2 C 8.8 g/m*3 28.2 C 0 km/h
1948 07-07-2003 19:32:02 28.3 C 6.91 g/m*3 28.3 C 0 km/h
1949 07-07-2003 19:42:02 28.3 C 7.19 g/m*3 28.3 C 0 km/h
1950 07-07-2003 19:52:02 28.8 C 7.67 g/m*3 28.8 C 0 km/h
Sensor: Nr:Datum:Temp:Abs-Feuchte:Windchill:Wind:
Aussen-T/F 1951 07-07-2003 20:02:02 27.8 C 6.99 g/m*3 27.8 C 0 km/h
1952 07-07-2003 20:12:02 27.4 C 7.1 g/m*3 27.4 C 0 km/h
1953 07-07-2003 20:22:02 27.4 C 7.1 g/m*3 27.4 C 0 km/h
1954 07-07-2003 20:32:01 26.9 C 7.68 g/m*3 26.9 C 0 km/h
1955 07-07-2003 20:42:01 26.2 C 7.39 g/m*3 26.2 C 0 km/h
1956 07-07-2003 20:52:01 25.3 C 7.49 g/m*3 25.3 C 0 km/h
1957 07-07-2003 21:02:01 24.6 C 8.33 g/m*3 24.6 C 0 km/h
1958 07-07-2003 21:12:01 23.4 C 8.41 g/m*3 23.4 C 0 km/h
1959 07-07-2003 21:22:01 22.5 C 8.39 g/m*3 22.5 C 0 km/h
1960 07-07-2003 21:33:02 21.9 C 8.49 g/m*3 21.9 C 0 km/h
1961 07-07-2003 21:43:02 21.3 C 8.39 g/m*3 21.3 C 0 km/h
1962 07-07-2003 21:53:02 20.8 C 8.33 g/m*3 20.8 C 0 km/h
1963 07-07-2003 22:03:02 20.1 C 8.34 g/m*3 20.1 C 0 km/h
1964 07-07-2003 22:13:02 20.1 C 8.52 g/m*3 20.1 C 0 km/h
1965 07-07-2003 22:23:02 20 C 8.47 g/m*3 20 C 0 km/h
1966 07-07-2003 22:33:02 19.8 C 8.54 g/m*3 19.8 C 0 km/h
1967 07-07-2003 22:43:02 19.6 C 8.61 g/m*3 19.6 C 0 km/h
1968 07-07-2003 22:53:02 19.5 C 8.56 g/m*3 19.5 C 0 km/h
1969 07-07-2003 23:03:02 19.2 C 8.74 g/m*3 19.2 C 0 km/h
1970 07-07-2003 23:13:02 19.1 C 8.69 g/m*3 19.1 C 0 km/h
1971 07-07-2003 23:23:02 18.9 C 8.91 g/m*3 18.9 C 0 km/h
1972 07-07-2003 23:33:02 18.6 C 8.59 g/m*3 18.6 C 0 km/h
1973 07-07-2003 23:43:02 18.4 C 8.65 g/m*3 18.4 C 0 km/h
1974 07-07-2003 23:53:02 18.1 C 8.5 g/m*3 18.1 C 0 km/h
1975 08-07-2003 00:03:02 18 C 8.6 g/m*3 18 C 0 km/h
Sensor: Nr:Datum:Temp:Abs-Feuchte:Windchill:Wind:
Aussen-T/F 1976 08-07-2003 00:13:02 17.7 C 8.6 g/m*3 17.7 C 0 km/h
1977 08-07-2003 00:23:02 17.6 C 8.7 g/m*3 17.6 C 0 km/h
1978 08-07-2003 00:33:02 17.4 C 8.74 g/m*3 17.4 C 0 km/h
1979 08-07-2003 00:43:02 17.3 C 8.69 g/m*3 17.3 C 0 km/h
1980 08-07-2003 00:53:02 17.1 C 8.59 g/m*3 17.1 C 0 km/h
1981 08-07-2003 01:03:02 16.9 C 8.77 g/m*3 16.9 C 0 km/h
1982 08-07-2003 01:13:02 16.7 C 8.81 g/m*3 16.7 C 0 km/h
1983 08-07-2003 01:23:02 16.4 C 8.93 g/m*3 16.4 C 0 km/h
1984 08-07-2003 01:33:02 16.1 C 8.77 g/m*3 16.1 C 0 km/h
1985 08-07-2003 01:43:02 16.1 C 8.91 g/m*3 16.1 C 0 km/h
1986 08-07-2003 01:53:02 15.8 C 9.02 g/m*3 15.8 C 0 km/h
1987 08-07-2003 02:03:02 15.8 C 9.02 g/m*3 15.8 C 0 km/h
1988 08-07-2003 02:13:02 15.6 C 8.91 g/m*3 15.6 C 0 km/h
1989 08-07-2003 02:23:02 15.5 C 8.99 g/m*3 15.5 C 0 km/h
1990 08-07-2003 02:33:02 15.3 C 8.88 g/m*3 15.3 C 0 km/h
1991 08-07-2003 02:43:02 15.1 C 9.03 g/m*3 15.1 C 0 km/h
1992 08-07-2003 02:53:02 14.7 C 8.94 g/m*3 14.7 C 0 km/h
1993 08-07-2003 03:03:02 14.7 C 9.07 g/m*3 14.7 C 0 km/h
1994 08-07-2003 03:13:02 14.6 C 9.01 g/m*3 14.6 C 0 km/h
1995 08-07-2003 03:23:02 14.5 C 9.08 g/m*3 14.5 C 0 km/h
1996 08-07-2003 03:33:02 14.4 C 9.02 g/m*3 14.4 C 0 km/h
1997 08-07-2003 03:43:02 14.2 C 9.04 g/m*3 14.2 C 0 km/h
1998 08-07-2003 03:53:02 14.1 C 9.1 g/m*3 14.1 C 0 km/h
1999 08-07-2003 04:03:02 14 C 9.17 g/m*3 14 C 0 km/h
2000 08-07-2003 04:13:02 13.9 C 9.11 g/m*3 13.9 C 0 km/h
Sensor: Nr:Datum:Temp:Abs-Feuchte:Windchill:Wind:
Aussen-T/F 2001 08-07-2003 04:23:02 13.8 C 9.06 g/m*3 13.8 C 0 km/h
2002 08-07-2003 04:33:02 13.7 C 9 g/m*3 13.7 C 0 km/h
2003 08-07-2003 04:43:02 13.7 C 9.12 g/m*3 13.7 C 0 km/h
2004 08-07-2003 04:53:02 13.5 C 9.12 g/m*3 13.5 C 0 km/h
2005 08-07-2003 05:03:02 13.3 C 9.13 g/m*3 13.3 C 0 km/h
2006 08-07-2003 05:13:02 13.2 C 8.96 g/m*3 13.2 C 0 km/h
2007 08-07-2003 05:23:02 13.2 C 9.07 g/m*3 13.2 C 0 km/h
2008 08-07-2003 05:33:02 13.1 C 9.01 g/m*3 13.1 C 0 km/h
2009 08-07-2003 05:43:02 13.2 C 9.19 g/m*3 13.2 C 0 km/h
2010 08-07-2003 05:53:02 13.3 C 9.24 g/m*3 13.3 C 0 km/h
2011 08-07-2003 06:03:02 13.1 C 9.13 g/m*3 13.1 C 0 km/h
2012 08-07-2003 06:13:02 13 C 9.07 g/m*3 13 C 0 km/h
2013 08-07-2003 06:23:02 13.1 C 9.13 g/m*3 13.1 C 0 km/h
2014 08-07-2003 06:33:02 13.3 C 9.24 g/m*3 13.3 C 0 km/h
2015 08-07-2003 06:43:02 13.6 C 9.3 g/m*3 13.6 C 0 km/h
2016 08-07-2003 06:53:02 13.9 C 9.23 g/m*3 13.9 C 0 km/h
2017 08-07-2003 07:03:02 14.1 C 9.34 g/m*3 14.1 C 0 km/h
2018 08-07-2003 07:13:02 14.3 C 9.34 g/m*3 14.3 C 0 km/h
2019 08-07-2003 07:23:02 14 C 9.17 g/m*3 14 C 0 km/h
2020 08-07-2003 07:33:02 14.3 C 9.46 g/m*3 14.3 C 0 km/h
2021 08-07-2003 07:43:02 14.3 C 9.46 g/m*3 14.3 C 0 km/h
2022 08-07-2003 07:53:02 14.4 C 9.27 g/m*3 14.4 C 0 km/h
2023 08-07-2003 08:03:01 14.6 C 9.13 g/m*3 14.6 C 0 km/h
2024 08-07-2003 08:13:01 14.9 C 9.18 g/m*3 14.9 C 0 km/h
2025 08-07-2003 08:23:01 15 C 9.36 g/m*3 15 C 0 km/h
Sensor: Nr:Datum:Temp:Abs-Feuchte:Windchill:Wind:
Aussen-T/F 2026 08-07-2003 08:33:01 15.3 C 9.4 g/m*3 15.3 C 0 km/h
2027 08-07-2003 08:43:01 15.7 C 9.37 g/m*3 15.7 C 0 km/h
2028 08-07-2003 08:53:01 16.1 C 9.05 g/m*3 16.1 C 0 km/h
2029 08-07-2003 09:03:01 16.6 C 9.46 g/m*3 16.6 C 0 km/h
2030 08-07-2003 09:13:01 16.9 C 9.35 g/m*3 16.9 C 0 km/h
2031 08-07-2003 09:23:01 17.4 C 9.19 g/m*3 17.4 C 0 km/h
2032 08-07-2003 09:33:00 18.1 C 9.27 g/m*3 18.1 C 0 km/h
2033 08-07-2003 09:43:00 18.6 C 9.39 g/m*3 18.6 C 0 km/h
2034 08-07-2003 09:53:00 19.2 C 9.56 g/m*3 19.2 C 0 km/h
2035 08-07-2003 10:03:02 19.8 C 9.74 g/m*3 19.8 C 0 km/h
2036 08-07-2003 10:13:02 20.8 C 9.96 g/m*3 20.8 C 0 km/h
2037 08-07-2003 10:23:02 21.5 C 9.99 g/m*3 21.5 C 0 km/h
2038 08-07-2003 10:33:01 22 C 9.7 g/m*3 22 C 0 km/h
2039 08-07-2003 10:43:01 22.8 C 9.55 g/m*3 22.8 C 0 km/h
2040 08-07-2003 10:53:01 23.3 C 9.41 g/m*3 23.3 C 0 km/h
2041 08-07-2003 11:03:01 23.4 C 9.25 g/m*3 23.4 C 0 km/h
2042 08-07-2003 11:13:01 24.2 C 9.24 g/m*3 24.2 C 0 km/h
2043 08-07-2003 11:23:01 24.5 C 9.18 g/m*3 24.5 C 0 km/h
2044 08-07-2003 11:33:01 25.2 C 9.08 g/m*3 25.2 C 0 km/h
2045 08-07-2003 11:43:01 25.2 C 9.31 g/m*3 25.2 C 0 km/h
2046 08-07-2003 11:53:01 26.1 C 8.81 g/m*3 26.1 C 0 km/h
2047 08-07-2003 12:03:01 26.5 C 8.26 g/m*3 26.5 C 0 km/h
2048 08-07-2003 12:13:01 26.4 C 7.97 g/m*3 26.4 C 0 km/h
2049 08-07-2003 12:23:01 26.2 C 7.88 g/m*3 26.2 C 0 km/h
2050 08-07-2003 12:33:01 26.6 C 7.8 g/m*3 26.6 C 0 km/h
Sensor: Nr:Datum:Temp:Abs-Feuchte:Windchill:Wind:
Aussen-T/F 2051 08-07-2003 12:43:01 26.5 C 7.76 g/m*3 26.5 C 0 km/h
2052 08-07-2003 12:53:01 26.4 C 7.47 g/m*3 26.4 C 0 km/h
2053 08-07-2003 13:03:01 26.4 C 7.47 g/m*3 26.4 C 0 km/h
2054 08-07-2003 13:13:01 25.9 C 7.75 g/m*3 25.9 C 0 km/h
2055 08-07-2003 13:23:01 25.8 C 7.94 g/m*3 25.8 C 0 km/h
2056 08-07-2003 13:33:02 26.4 C 7.72 g/m*3 26.4 C 0 km/h
2057 08-07-2003 13:43:02 26 C 8.28 g/m*3 26 C 0 km/h
2058 08-07-2003 13:53:02 26.5 C 8.01 g/m*3 26.5 C 0 km/h
2059 08-07-2003 14:03:02 28.2 C 8.25 g/m*3 28.2 C 0 km/h
2060 08-07-2003 14:13:02 27.8 C 7.8 g/m*3 27.8 C 0 km/h
2061 08-07-2003 14:23:02 28.6 C 8.15 g/m*3 28.6 C 0 km/h
2062 08-07-2003 14:33:01 28.6 C 8.15 g/m*3 28.6 C 0 km/h
2063 08-07-2003 14:43:01 27.1 C 8.02 g/m*3 27.1 C 0 km/h
2064 08-07-2003 14:53:01 27.5 C 8.2 g/m*3 27.5 C 0 km/h
2065 08-07-2003 15:03:01 27.3 C 8.37 g/m*3 27.3 C 0 km/h
2066 08-07-2003 15:13:01 27.9 C 8.65 g/m*3 27.9 C 0 km/h
2067 08-07-2003 15:23:01 27.4 C 8.16 g/m*3 27.4 C 0 km/h
2068 08-07-2003 15:33:01 28.4 C 8.34 g/m*3 28.4 C 0 km/h
2069 08-07-2003 15:43:01 28 C 8.16 g/m*3 28 C 0 km/h
2070 08-07-2003 15:53:01 28 C 8.16 g/m*3 28 C 0 km/h
2071 08-07-2003 16:03:03 27.8 C 8.07 g/m*3 27.8 C 0 km/h
2072 08-07-2003 16:13:03 27.7 C 8.29 g/m*3 27.7 C 0 km/h
2073 08-07-2003 16:23:03 29.8 C 9 g/m*3 29.8 C 0 km/h
2074 08-07-2003 16:33:01 29.7 C 8.06 g/m*3 29.7 C 0 km/h
2075 08-07-2003 16:43:01 29.4 C 8.22 g/m*3 29.4 C 0 km/h
Sensor: Nr:Datum:Temp:Abs-Feuchte:Windchill:Wind:
Aussen-T/F 2076 08-07-2003 16:53:01 30.1 C 7.93 g/m*3 30.1 C 0 km/h
2077 08-07-2003 17:03:02 30.4 C 8.06 g/m*3 30.4 C 0 km/h
2078 08-07-2003 17:23:02 31.2 C 7.44 g/m*3 31.2 C 0 km/h
2079 08-07-2003 17:33:01 31.4 C 7.19 g/m*3 31.4 C 0 km/h
2080 08-07-2003 17:43:01 31.7 C 7.31 g/m*3 31.7 C 0 km/h
2081 08-07-2003 17:53:01 31.4 C 6.87 g/m*3 31.4 C 0 km/h
2082 08-07-2003 18:03:01 30.5 C 7.79 g/m*3 30.5 C 0 km/h
2083 08-07-2003 18:13:01 30.1 C 7.62 g/m*3 30.1 C 0 km/h
2084 08-07-2003 18:23:01 30.4 C 7.75 g/m*3 30.4 C 0 km/h
2085 08-07-2003 18:33:01 30.9 C 7.32 g/m*3 30.9 C 0 km/h
2086 08-07-2003 18:43:01 30.6 C 7.2 g/m*3 30.6 C 0 km/h
2087 08-07-2003 18:53:01 29.8 C 7.5 g/m*3 29.8 C 0 km/h
2088 08-07-2003 19:03:02 29.5 C 7.38 g/m*3 29.5 C 0 km/h
2089 08-07-2003 19:13:02 29.9 C 7.54 g/m*3 29.9 C 0 km/h
2090 08-07-2003 19:23:02 29.5 C 7.67 g/m*3 29.5 C 0 km/h
2091 08-07-2003 19:33:01 28.3 C 7.46 g/m*3 28.3 C 0 km/h
2092 08-07-2003 19:43:01 27.5 C 7.94 g/m*3 27.5 C 0 km/h
2093 08-07-2003 19:53:01 26.4 C 8.71 g/m*3 26.4 C 0 km/h
2094 08-07-2003 20:03:02 26.3 C 8.91 g/m*3 26.3 C 0 km/h
2095 08-07-2003 20:13:02 26.1 C 9.06 g/m*3 26.1 C 0 km/h
2096 08-07-2003 20:23:02 26.2 C 9.35 g/m*3 26.2 C 0 km/h
2097 08-07-2003 20:33:02 26 C 9.01 g/m*3 26 C 0 km/h
2098 08-07-2003 20:43:02 25.5 C 9.23 g/m*3 25.5 C 0 km/h
2099 08-07-2003 20:53:02 24.7 C 9.05 g/m*3 24.7 C 0 km/h
2100 08-07-2003 21:03:03 24.1 C 8.97 g/m*3 24.1 C 0 km/h
Sensor: Nr:Datum:Temp:Abs-Feuchte:Windchill:Wind:
Aussen-T/F 2101 08-07-2003 21:13:03 24.2 C 9.46 g/m*3 24.2 C 0 km/h
2102 08-07-2003 21:23:03 24 C 9.14 g/m*3 24 C 0 km/h
2103 08-07-2003 21:33:01 23.5 C 9.31 g/m*3 23.5 C 0 km/h
2104 08-07-2003 21:43:01 23.4 C 9.25 g/m*3 23.4 C 0 km/h
2105 08-07-2003 21:53:01 23.2 C 9.36 g/m*3 23.2 C 0 km/h
2106 08-07-2003 22:03:02 22.9 C 9.4 g/m*3 22.9 C 0 km/h
2107 08-07-2003 22:13:02 22.7 C 9.5 g/m*3 22.7 C 0 km/h
2108 08-07-2003 22:23:02 22.4 C 9.53 g/m*3 22.4 C 0 km/h
2109 08-07-2003 22:34:01 22.3 C 9.48 g/m*3 22.3 C 0 km/h
2110 08-07-2003 22:44:01 21.9 C 9.65 g/m*3 21.9 C 0 km/h
2111 08-07-2003 22:54:01 21.9 C 9.65 g/m*3 21.9 C 0 km/h
2112 08-07-2003 23:04:01 21.8 C 9.4 g/m*3 21.8 C 0 km/h
2113 08-07-2003 23:14:01 21.8 C 9.4 g/m*3 21.8 C 0 km/h
2114 08-07-2003 23:24:01 21.8 C 9.59 g/m*3 21.8 C 0 km/h
2115 08-07-2003 23:34:01 21.6 C 9.48 g/m*3 21.6 C 0 km/h
2116 08-07-2003 23:44:01 21.4 C 9.37 g/m*3 21.4 C 0 km/h
2117 08-07-2003 23:54:01 21.2 C 9.45 g/m*3 21.2 C 0 km/h
2118 09-07-2003 00:04:01 21.1 C 9.4 g/m*3 21.1 C 0 km/h
2119 09-07-2003 00:14:01 21.1 C 9.4 g/m*3 21.1 C 0 km/h
2120 09-07-2003 00:24:01 20.8 C 9.42 g/m*3 20.8 C 0 km/h
2121 09-07-2003 00:34:01 20.7 C 9.54 g/m*3 20.7 C 0 km/h
2122 09-07-2003 00:44:01 20.3 C 9.5 g/m*3 20.3 C 0 km/h
2123 09-07-2003 00:54:01 19.9 C 9.62 g/m*3 19.9 C 0 km/h
2124 09-07-2003 01:04:01 19.8 C 9.74 g/m*3 19.8 C 0 km/h
2125 09-07-2003 01:14:01 19.7 C 9.68 g/m*3 19.7 C 0 km/h
Sensor: Nr:Datum:Temp:Abs-Feuchte:Windchill:Wind:
Aussen-T/F 2126 09-07-2003 01:24:01 19.5 C 9.73 g/m*3 19.5 C 0 km/h
2127 09-07-2003 01:34:01 19.3 C 9.79 g/m*3 19.3 C 0 km/h
2128 09-07-2003 01:44:01 19.3 C 9.79 g/m*3 19.3 C 0 km/h
2129 09-07-2003 01:54:01 19.2 C 9.89 g/m*3 19.2 C 0 km/h
2130 09-07-2003 02:04:01 19.1 C 10 g/m*3 19.1 C 0 km/h
2131 09-07-2003 02:14:01 19 C 9.78 g/m*3 19 C 0 km/h
2132 09-07-2003 02:24:01 18.8 C 9.99 g/m*3 18.8 C 0 km/h
2133 09-07-2003 02:34:01 18.7 C 10.09 g/m*3 18.7 C 0 km/h
2134 09-07-2003 02:44:01 18.6 C 10.19 g/m*3 18.6 C 0 km/h
2135 09-07-2003 02:54:01 18.5 C 10.28 g/m*3 18.5 C 0 km/h
2136 09-07-2003 03:04:01 18.4 C 10.22 g/m*3 18.4 C 0 km/h
2137 09-07-2003 03:14:01 18 C 10.29 g/m*3 18 C 0 km/h
2138 09-07-2003 03:24:01 18 C 10.29 g/m*3 18 C 0 km/h
2139 09-07-2003 03:34:01 17.7 C 10.26 g/m*3 17.7 C 0 km/h
2140 09-07-2003 03:44:01 17.6 C 10.35 g/m*3 17.6 C 0 km/h
2141 09-07-2003 03:54:01 17.5 C 10.29 g/m*3 17.5 C 0 km/h
2142 09-07-2003 04:04:01 17.6 C 10.5 g/m*3 17.6 C 0 km/h
2143 09-07-2003 04:14:01 17.3 C 10.46 g/m*3 17.3 C 0 km/h
2144 09-07-2003 04:24:01 17.2 C 10.4 g/m*3 17.2 C 0 km/h
2145 09-07-2003 04:34:01 17.2 C 10.54 g/m*3 17.2 C 0 km/h
2146 09-07-2003 04:44:01 17.2 C 10.54 g/m*3 17.2 C 0 km/h
2147 09-07-2003 04:54:01 17.1 C 10.48 g/m*3 17.1 C 0 km/h
2148 09-07-2003 05:04:01 17 C 10.42 g/m*3 17 C 0 km/h
2149 09-07-2003 05:14:01 16.8 C 10.58 g/m*3 16.8 C 0 km/h
2150 09-07-2003 05:24:01 16.9 C 10.5 g/m*3 16.9 C 0 km/h
Sensor: Nr:Datum:Temp:Abs-Feuchte:Windchill:Wind:
Aussen-T/F 2151 09-07-2003 05:34:01 16.8 C 10.58 g/m*3 16.8 C 0 km/h
2152 09-07-2003 05:44:01 16.7 C 10.52 g/m*3 16.7 C 0 km/h
2153 09-07-2003 05:54:01 16.6 C 10.59 g/m*3 16.6 C 0 km/h
2154 09-07-2003 06:04:01 16.7 C 10.66 g/m*3 16.7 C 0 km/h
2155 09-07-2003 06:14:01 16.7 C 10.66 g/m*3 16.7 C 0 km/h
2156 09-07-2003 06:24:01 16.8 C 10.72 g/m*3 16.8 C 0 km/h
2157 09-07-2003 06:34:01 17 C 10.71 g/m*3 17 C 0 km/h
2158 09-07-2003 06:44:01 17.2 C 10.69 g/m*3 17.2 C 0 km/h
2159 09-07-2003 06:54:01 17.1 C 10.77 g/m*3 17.1 C 0 km/h
2160 09-07-2003 07:04:01 17.3 C 10.75 g/m*3 17.3 C 0 km/h
2161 09-07-2003 07:14:01 17.5 C 10.88 g/m*3 17.5 C 0 km/h
2162 09-07-2003 07:24:01 17.2 C 10.69 g/m*3 17.2 C 0 km/h
2163 09-07-2003 07:34:01 17.5 C 10.88 g/m*3 17.5 C 0 km/h
2164 09-07-2003 07:44:01 17.7 C 11.01 g/m*3 17.7 C 0 km/h
2165 09-07-2003 07:54:01 17.9 C 10.99 g/m*3 17.9 C 0 km/h
2166 09-07-2003 08:04:01 17.9 C 10.99 g/m*3 17.9 C 0 km/h
2167 09-07-2003 08:14:01 18.1 C 10.82 g/m*3 18.1 C 0 km/h
2168 09-07-2003 08:24:01 18.4 C 11.17 g/m*3 18.4 C 0 km/h
2169 09-07-2003 08:34:01 18.5 C 11.08 g/m*3 18.5 C 0 km/h
2170 09-07-2003 08:44:01 18.9 C 10.85 g/m*3 18.9 C 0 km/h
2171 09-07-2003 08:54:01 19.5 C 10.74 g/m*3 19.5 C 0 km/h
2172 09-07-2003 09:04:01 19.7 C 10.53 g/m*3 19.7 C 0 km/h
2173 09-07-2003 09:14:01 19.9 C 10.48 g/m*3 19.9 C 0 km/h
2174 09-07-2003 09:24:01 19.5 C 10.57 g/m*3 19.5 C 0 km/h
2175 09-07-2003 09:34:01 20 C 10.54 g/m*3 20 C 0 km/h
Sensor: Nr:Datum:Temp:Abs-Feuchte:Windchill:Wind:
Aussen-T/F 2176 09-07-2003 09:44:01 20.1 C 10.43 g/m*3 20.1 C 0 km/h
2177 09-07-2003 09:54:01 20.2 C 10.32 g/m*3 20.2 C 0 km/h
2178 09-07-2003 10:04:01 20.5 C 10.5 g/m*3 20.5 C 0 km/h
2179 09-07-2003 10:14:01 21 C 10.62 g/m*3 21 C 0 km/h
2180 09-07-2003 10:24:01 21.1 C 10.5 g/m*3 21.1 C 0 km/h
2181 09-07-2003 10:34:01 22.2 C 10.21 g/m*3 22.2 C 0 km/h
2182 09-07-2003 10:44:01 22 C 9.9 g/m*3 22 C 0 km/h
2183 09-07-2003 10:54:01 22.5 C 10.39 g/m*3 22.5 C 0 km/h
2184 09-07-2003 11:04:01 22.2 C 10.21 g/m*3 22.2 C 0 km/h
2185 09-07-2003 11:14:01 21.8 C 10.36 g/m*3 21.8 C 0 km/h
2186 09-07-2003 11:24:01 22.9 C 10.63 g/m*3 22.9 C 0 km/h
2187 09-07-2003 11:34:02 24 C 10.01 g/m*3 24 C 0 km/h
2188 09-07-2003 11:44:02 24.3 C 9.96 g/m*3 24.3 C 0 km/h
2189 09-07-2003 11:54:02 25.6 C 10 g/m*3 25.6 C 0 km/h
2190 09-07-2003 12:04:02 25.5 C 10.18 g/m*3 25.5 C 0 km/h
2191 09-07-2003 12:14:02 24.8 C 10.02 g/m*3 24.8 C 0 km/h
2192 09-07-2003 12:24:02 25.4 C 9.65 g/m*3 25.4 C 0 km/h
2193 09-07-2003 12:34:01 25.3 C 9.6 g/m*3 25.3 C 0 km/h
2194 09-07-2003 12:44:01 24.8 C 10.02 g/m*3 24.8 C 0 km/h
2195 09-07-2003 12:54:01 25.4 C 9.89 g/m*3 25.4 C 0 km/h
2196 09-07-2003 13:04:01 25.3 C 9.83 g/m*3 25.3 C 0 km/h
2197 09-07-2003 13:14:01 26.1 C 10.04 g/m*3 26.1 C 0 km/h
2198 09-07-2003 13:24:01 24.8 C 9.79 g/m*3 24.8 C 0 km/h
2199 09-07-2003 13:34:01 24.3 C 10.18 g/m*3 24.3 C 0 km/h
2200 09-07-2003 13:44:01 24 C 10.01 g/m*3 24 C 0 km/h
Sensor: Nr:Datum:Temp:Abs-Feuchte:Windchill:Wind:
Aussen-T/F 2201 09-07-2003 13:54:01 24.3 C 10.18 g/m*3 24.3 C 0 km/h
2202 09-07-2003 14:04:01 25 C 9.9 g/m*3 25 C 0 km/h
2203 09-07-2003 14:14:01 25.3 C 9.83 g/m*3 25.3 C 0 km/h
2204 09-07-2003 14:24:01 24.3 C 10.18 g/m*3 24.3 C 0 km/h
2205 09-07-2003 14:34:01 24.6 C 10.13 g/m*3 24.6 C 0 km/h
2206 09-07-2003 14:44:01 24 C 10.01 g/m*3 24 C 0 km/h
2207 09-07-2003 14:54:01 23.5 C 10.36 g/m*3 23.5 C 0 km/h
2208 09-07-2003 15:04:02 23.5 C 10.36 g/m*3 23.5 C 0 km/h
2209 09-07-2003 15:14:02 23.6 C 10.42 g/m*3 23.6 C 0 km/h
2210 09-07-2003 15:24:02 24.4 C 10.24 g/m*3 24.4 C 0 km/h
2211 09-07-2003 15:34:01 24.3 C 10.18 g/m*3 24.3 C 0 km/h
2212 09-07-2003 15:44:01 23.7 C 10.48 g/m*3 23.7 C 0 km/h
2213 09-07-2003 15:54:01 23.4 C 10.3 g/m*3 23.4 C 0 km/h
2214 09-07-2003 16:04:01 23.3 C 10.25 g/m*3 23.3 C 0 km/h
2215 09-07-2003 16:14:01 23.7 C 10.27 g/m*3 23.7 C 0 km/h
2216 09-07-2003 16:24:01 23.8 C 10.33 g/m*3 23.8 C 0 km/h
2217 09-07-2003 16:34:01 23.2 C 9.98 g/m*3 23.2 C 0 km/h
2218 09-07-2003 16:44:01 23.1 C 10.13 g/m*3 23.1 C 0 km/h
2219 09-07-2003 16:54:01 23.1 C 10.34 g/m*3 23.1 C 0 km/h
2220 09-07-2003 17:04:01 22.9 C 10.22 g/m*3 22.9 C 0 km/h
2221 09-07-2003 17:14:01 23 C 9.87 g/m*3 23 C 0 km/h
2222 09-07-2003 17:24:01 22.9 C 10.22 g/m*3 22.9 C 0 km/h
2223 09-07-2003 17:34:02 22.9 C 10.22 g/m*3 22.9 C 0 km/h
2224 09-07-2003 17:44:02 23.3 C 10.04 g/m*3 23.3 C 0 km/h
2225 09-07-2003 17:54:02 23.2 C 9.98 g/m*3 23.2 C 0 km/h
Sensor: Nr:Datum:Temp:Abs-Feuchte:Windchill:Wind:
Aussen-T/F 2226 09-07-2003 18:04:02 23.2 C 9.98 g/m*3 23.2 C 0 km/h
2227 09-07-2003 18:14:02 23.1 C 10.34 g/m*3 23.1 C 0 km/h
2228 09-07-2003 18:24:02 22.9 C 10.42 g/m*3 22.9 C 0 km/h
2229 09-07-2003 18:34:02 23 C 10.28 g/m*3 23 C 0 km/h
2230 09-07-2003 18:44:02 23 C 10.28 g/m*3 23 C 0 km/h
2231 09-07-2003 18:54:02 22.6 C 10.25 g/m*3 22.6 C 0 km/h
2232 09-07-2003 19:04:02 22.8 C 10.16 g/m*3 22.8 C 0 km/h
2233 09-07-2003 19:14:02 23.5 C 10.15 g/m*3 23.5 C 0 km/h
2234 09-07-2003 19:24:02 23.3 C 9.83 g/m*3 23.3 C 0 km/h
2235 09-07-2003 19:44:12 23.4 C 10.09 g/m*3 23.4 C 0 km/h
2236 09-07-2003 19:54:12 23.9 C 10.38 g/m*3 23.9 C 0 km/h
2237 09-07-2003 20:04:01 23.3 C 10.04 g/m*3 23.3 C 0 km/h
2238 09-07-2003 20:14:01 23.2 C 9.98 g/m*3 23.2 C 0 km/h
2239 09-07-2003 20:24:01 23 C 10.07 g/m*3 23 C 0 km/h
2240 09-07-2003 20:34:01 22.5 C 10.19 g/m*3 22.5 C 0 km/h
2241 09-07-2003 20:44:01 22.5 C 10.39 g/m*3 22.5 C 0 km/h
2242 09-07-2003 20:54:01 22.1 C 10.54 g/m*3 22.1 C 0 km/h
2243 09-07-2003 21:04:01 22 C 10.29 g/m*3 22 C 0 km/h
2244 09-07-2003 21:14:01 21.6 C 10.62 g/m*3 21.6 C 0 km/h
2245 09-07-2003 21:24:01 21.1 C 10.5 g/m*3 21.1 C 0 km/h
2246 09-07-2003 21:34:02 20.5 C 10.5 g/m*3 20.5 C 0 km/h
2247 09-07-2003 21:44:02 19.8 C 10.42 g/m*3 19.8 C 0 km/h
2248 09-07-2003 21:54:02 19.5 C 10.41 g/m*3 19.5 C 0 km/h
2249 09-07-2003 22:04:01 19.3 C 10.45 g/m*3 19.3 C 0 km/h
2250 09-07-2003 22:14:01 19.2 C 10.39 g/m*3 19.2 C 0 km/h
Sensor: Nr:Datum:Temp:Abs-Feuchte:Windchill:Wind:
Aussen-T/F 2251 09-07-2003 22:24:01 19 C 10.43 g/m*3 19 C 0 km/h
2252 09-07-2003 22:34:01 18.9 C 10.69 g/m*3 18.9 C 0 km/h
2253 09-07-2003 22:44:01 19.1 C 10.98 g/m*3 19.1 C 0 km/h
2254 09-07-2003 22:54:01 18.7 C 11.05 g/m*3 18.7 C 0 km/h
2255 09-07-2003 23:04:00 18.5 C 10.92 g/m*3 18.5 C 0 km/h
2256 09-07-2003 23:14:00 18.3 C 10.79 g/m*3 18.3 C 0 km/h
2257 09-07-2003 23:24:00 18.2 C 10.88 g/m*3 18.2 C 0 km/h
2258 09-07-2003 23:34:00 18 C 10.75 g/m*3 18 C 0 km/h
2259 09-07-2003 23:44:00 17.8 C 10.93 g/m*3 17.8 C 0 km/h
2260 09-07-2003 23:54:00 17.6 C 11.1 g/m*3 17.6 C 0 km/h
2261 10-07-2003 00:04:02 17.2 C 10.84 g/m*3 17.2 C 0 km/h
2262 10-07-2003 00:14:02 17.1 C 10.92 g/m*3 17.1 C 0 km/h
2263 10-07-2003 00:24:02 16.9 C 11.08 g/m*3 16.9 C 0 km/h
2264 10-07-2003 00:34:01 16.8 C 11.01 g/m*3 16.8 C 0 km/h
2265 10-07-2003 00:44:01 16.5 C 10.95 g/m*3 16.5 C 0 km/h
2266 10-07-2003 00:54:01 16.5 C 11.09 g/m*3 16.5 C 0 km/h
2267 10-07-2003 01:05:03 16.2 C 10.89 g/m*3 16.2 C 0 km/h
2268 10-07-2003 01:15:03 16.2 C 10.89 g/m*3 16.2 C 0 km/h
2269 10-07-2003 01:25:03 16 C 10.76 g/m*3 16 C 0 km/h
2270 10-07-2003 01:35:03 15.9 C 10.97 g/m*3 15.9 C 0 km/h
2271 10-07-2003 01:45:03 15.8 C 10.77 g/m*3 15.8 C 0 km/h
2272 10-07-2003 01:55:03 15.5 C 10.71 g/m*3 15.5 C 0 km/h
2273 10-07-2003 02:05:03 15.5 C 10.84 g/m*3 15.5 C 0 km/h
2274 10-07-2003 02:15:03 15.4 C 10.64 g/m*3 15.4 C 0 km/h
2275 10-07-2003 02:25:03 15.3 C 10.71 g/m*3 15.3 C 0 km/h
Sensor: Nr:Datum:Temp:Abs-Feuchte:Windchill:Wind:
Aussen-T/F 2276 10-07-2003 02:35:03 15.2 C 10.51 g/m*3 15.2 C 0 km/h
2277 10-07-2003 02:45:03 15.2 C 10.51 g/m*3 15.2 C 0 km/h
2278 10-07-2003 02:55:03 15 C 10.51 g/m*3 15 C 0 km/h
2279 10-07-2003 03:05:03 14.9 C 10.58 g/m*3 14.9 C 0 km/h
2280 10-07-2003 03:15:03 14.8 C 10.51 g/m*3 14.8 C 0 km/h
2281 10-07-2003 03:25:03 14.7 C 10.58 g/m*3 14.7 C 0 km/h
2282 10-07-2003 03:35:03 14.7 C 10.58 g/m*3 14.7 C 0 km/h
2283 10-07-2003 03:45:03 14.6 C 10.51 g/m*3 14.6 C 0 km/h
2284 10-07-2003 03:55:03 14.4 C 10.38 g/m*3 14.4 C 0 km/h
2285 10-07-2003 04:05:03 14.4 C 10.51 g/m*3 14.4 C 0 km/h
2286 10-07-2003 04:15:03 14.3 C 10.44 g/m*3 14.3 C 0 km/h
2287 10-07-2003 04:25:03 14.2 C 10.38 g/m*3 14.2 C 0 km/h
2288 10-07-2003 04:35:03 14.1 C 10.32 g/m*3 14.1 C 0 km/h
2289 10-07-2003 04:45:03 14.1 C 10.44 g/m*3 14.1 C 0 km/h
2290 10-07-2003 04:55:03 13.9 C 10.31 g/m*3 13.9 C 0 km/h
2291 10-07-2003 05:05:03 13.7 C 10.3 g/m*3 13.7 C 0 km/h
2292 10-07-2003 05:15:03 13.6 C 10.24 g/m*3 13.6 C 0 km/h
2293 10-07-2003 05:25:03 13.5 C 10.18 g/m*3 13.5 C 0 km/h
2294 10-07-2003 05:35:03 13.5 C 10.18 g/m*3 13.5 C 0 km/h
2295 10-07-2003 05:45:03 13.3 C 10.05 g/m*3 13.3 C 0 km/h
2296 10-07-2003 05:55:03 13.2 C 10.1 g/m*3 13.2 C 0 km/h
2297 10-07-2003 06:05:03 13.2 C 10.1 g/m*3 13.2 C 0 km/h
2298 10-07-2003 06:15:03 13.2 C 10.1 g/m*3 13.2 C 0 km/h
2299 10-07-2003 06:25:03 13.2 C 10.1 g/m*3 13.2 C 0 km/h
2300 10-07-2003 06:35:03 13.2 C 10.1 g/m*3 13.2 C 0 km/h
Sensor: Nr:Datum:Temp:Abs-Feuchte:Windchill:Wind:
Aussen-T/F 2301 10-07-2003 06:45:03 13.4 C 10.23 g/m*3 13.4 C 0 km/h
2302 10-07-2003 06:55:03 13.4 C 10.23 g/m*3 13.4 C 0 km/h
2303 10-07-2003 07:05:03 13.2 C 9.99 g/m*3 13.2 C 0 km/h
2304 10-07-2003 07:15:03 13.3 C 10.17 g/m*3 13.3 C 0 km/h
2305 10-07-2003 07:25:03 13.4 C 10.23 g/m*3 13.4 C 0 km/h
2306 10-07-2003 07:35:01 13.5 C 10.29 g/m*3 13.5 C 0 km/h
2307 10-07-2003 07:45:01 13.6 C 10.36 g/m*3 13.6 C 0 km/h
2308 10-07-2003 07:55:01 13.7 C 10.42 g/m*3 13.7 C 0 km/h
2309 10-07-2003 08:05:01 13.8 C 10.37 g/m*3 13.8 C 0 km/h
2310 10-07-2003 08:15:01 14.3 C 10.44 g/m*3 14.3 C 0 km/h
2311 10-07-2003 08:25:01 14.5 C 10.45 g/m*3 14.5 C 0 km/h
2312 10-07-2003 08:35:01 14.8 C 10.51 g/m*3 14.8 C 0 km/h
2313 10-07-2003 08:45:01 15.3 C 10.45 g/m*3 15.3 C 0 km/h
2314 10-07-2003 08:55:01 15.7 C 10.44 g/m*3 15.7 C 0 km/h
2315 10-07-2003 09:05:01 16.1 C 10.01 g/m*3 16.1 C 0 km/h
2316 10-07-2003 09:15:01 16.5 C 10.25 g/m*3 16.5 C 0 km/h
2317 10-07-2003 09:25:01 16.8 C 10.29 g/m*3 16.8 C 0 km/h
2318 10-07-2003 09:35:01 17.4 C 10.23 g/m*3 17.4 C 0 km/h
2319 10-07-2003 09:45:01 17.9 C 10.23 g/m*3 17.9 C 0 km/h
2320 10-07-2003 09:55:01 18.1 C 10.04 g/m*3 18.1 C 0 km/h
2321 10-07-2003 10:05:02 18.9 C 10.37 g/m*3 18.9 C 0 km/h
2322 10-07-2003 10:15:02 19.8 C 10.42 g/m*3 19.8 C 0 km/h
2323 10-07-2003 10:25:02 21.2 C 9.64 g/m*3 21.2 C 0 km/h
2324 10-07-2003 10:35:02 21.6 C 10.24 g/m*3 21.6 C 0 km/h
2325 10-07-2003 10:45:02 21.6 C 9.67 g/m*3 21.6 C 0 km/h
Sensor: Nr:Datum:Temp:Abs-Feuchte:Windchill:Wind:
Aussen-T/F 2326 10-07-2003 10:55:02 21.4 C 9 g/m*3 21.4 C 0 km/h
2327 10-07-2003 11:05:01 21.9 C 9.26 g/m*3 21.9 C 0 km/h
2328 10-07-2003 11:15:01 22.6 C 9.24 g/m*3 22.6 C 0 km/h
2329 10-07-2003 11:25:01 22.9 C 8.58 g/m*3 22.9 C 0 km/h
2330 10-07-2003 11:35:02 23.3 C 8.36 g/m*3 23.3 C 0 km/h
2331 10-07-2003 11:45:02 24.1 C 8.53 g/m*3 24.1 C 0 km/h
2332 10-07-2003 12:05:01 23.9 C 7.57 g/m*3 23.9 C 0 km/h
2333 10-07-2003 12:15:01 24.9 C 7.55 g/m*3 24.9 C 0 km/h
2334 10-07-2003 12:25:01 24.6 C 6.98 g/m*3 24.6 C 0 km/h
2335 10-07-2003 12:35:01 25.1 C 6.71 g/m*3 25.1 C 0 km/h
2336 10-07-2003 12:45:01 26.1 C 7.1 g/m*3 26.1 C 0 km/h
2337 10-07-2003 12:55:01 26.2 C 6.4 g/m*3 26.2 C 0 km/h
2338 10-07-2003 13:05:01 26.9 C 6.4 g/m*3 26.9 C 0 km/h
2339 10-07-2003 13:15:01 26.7 C 5.82 g/m*3 26.7 C 0 km/h
2340 10-07-2003 13:25:01 27.7 C 6.42 g/m*3 27.7 C 0 km/h
2341 10-07-2003 13:35:00 29.1 C 6.35 g/m*3 29.1 C 0 km/h
2342 10-07-2003 13:45:00 28.6 C 5.9 g/m*3 28.6 C 0 km/h
2343 10-07-2003 13:55:00 28.3 C 6.36 g/m*3 28.3 C 0 km/h
2344 10-07-2003 14:05:01 28.7 C 6.78 g/m*3 28.7 C 0 km/h
2345 10-07-2003 14:15:01 28.3 C 7.19 g/m*3 28.3 C 0 km/h
2346 10-07-2003 14:25:01 28.2 C 6.87 g/m*3 28.2 C 0 km/h
2347 10-07-2003 14:35:01 27.8 C 6.19 g/m*3 27.8 C 0 km/h
2348 10-07-2003 14:45:01 27.7 C 7.22 g/m*3 27.7 C 0 km/h
2349 10-07-2003 14:55:01 28.6 C 7.03 g/m*3 28.6 C 0 km/h
2350 10-07-2003 15:05:01 28.9 C 6 g/m*3 28.9 C 0 km/h
Sensor: Nr:Datum:Temp:Abs-Feuchte:Windchill:Wind:
Aussen-T/F 2351 10-07-2003 15:15:01 29.8 C 6.3 g/m*3 29.8 C 0 km/h
2352 10-07-2003 15:25:01 29.6 C 5.94 g/m*3 29.6 C 0 km/h
2353 10-07-2003 15:35:01 28.9 C 6.28 g/m*3 28.9 C 0 km/h
2354 10-07-2003 15:45:01 29.6 C 6.53 g/m*3 29.6 C 0 km/h
2355 10-07-2003 15:55:01 30.3 C 6.47 g/m*3 30.3 C 0 km/h
2356 10-07-2003 16:05:02 30.7 C 6.3 g/m*3 30.7 C 0 km/h
2357 10-07-2003 16:15:02 30.6 C 6.26 g/m*3 30.6 C 0 km/h
2358 10-07-2003 16:25:02 31 C 6.4 g/m*3 31 C 0 km/h
2359 10-07-2003 16:35:01 30.8 C 6.33 g/m*3 30.8 C 0 km/h
2360 10-07-2003 16:45:01 30.4 C 6.51 g/m*3 30.4 C 0 km/h
2361 10-07-2003 16:55:01 30.6 C 6.26 g/m*3 30.6 C 0 km/h
2362 10-07-2003 17:05:01 31 C 6.4 g/m*3 31 C 0 km/h
2363 10-07-2003 17:15:01 31 C 6.4 g/m*3 31 C 0 km/h
2364 10-07-2003 17:25:01 31 C 6.72 g/m*3 31 C 0 km/h
2365 10-07-2003 17:35:02 30.7 C 6.61 g/m*3 30.7 C 0 km/h
2366 10-07-2003 17:45:02 31.3 C 6.5 g/m*3 31.3 C 0 km/h
2367 10-07-2003 17:55:02 31 C 6.4 g/m*3 31 C 0 km/h
2368 10-07-2003 18:05:02 30.6 C 6.58 g/m*3 30.6 C 0 km/h
2369 10-07-2003 18:15:02 30.1 C 6.71 g/m*3 30.1 C 0 km/h
2370 10-07-2003 18:25:02 30.9 C 6.68 g/m*3 30.9 C 0 km/h
2371 10-07-2003 18:35:01 30.9 C 6.68 g/m*3 30.9 C 0 km/h
2372 10-07-2003 18:45:01 30.7 C 6.61 g/m*3 30.7 C 0 km/h
2373 10-07-2003 18:55:01 31.2 C 6.79 g/m*3 31.2 C 0 km/h
2374 10-07-2003 19:05:01 30.6 C 6.89 g/m*3 30.6 C 0 km/h
2375 10-07-2003 19:15:01 30.6 C 6.58 g/m*3 30.6 C 0 km/h
Sensor: Nr:Datum:Temp:Abs-Feuchte:Windchill:Wind:
Aussen-T/F 2376 10-07-2003 19:25:01 30.4 C 7.13 g/m*3 30.4 C 0 km/h
2377 10-07-2003 19:35:01 30.6 C 6.89 g/m*3 30.6 C 0 km/h
2378 10-07-2003 19:45:01 30.1 C 7.01 g/m*3 30.1 C 0 km/h
2379 10-07-2003 19:55:01 29.5 C 7.38 g/m*3 29.5 C 0 km/h
2380 10-07-2003 20:05:02 29.7 C 7.46 g/m*3 29.7 C 0 km/h
2381 10-07-2003 20:15:02 29.1 C 7.51 g/m*3 29.1 C 0 km/h
2382 10-07-2003 20:25:02 29 C 7.76 g/m*3 29 C 0 km/h
2383 10-07-2003 20:35:01 28.9 C 7.71 g/m*3 28.9 C 0 km/h
2384 10-07-2003 20:45:01 28.4 C 7.51 g/m*3 28.4 C 0 km/h
2385 10-07-2003 20:55:01 27.9 C 7.57 g/m*3 27.9 C 0 km/h
2386 10-07-2003 21:05:01 27.6 C 8.25 g/m*3 27.6 C 0 km/h
2387 10-07-2003 21:15:01 27.1 C 8.02 g/m*3 27.1 C 0 km/h
2388 10-07-2003 21:25:01 26.5 C 8.26 g/m*3 26.5 C 0 km/h
2389 10-07-2003 21:35:02 25.2 C 8.38 g/m*3 25.2 C 0 km/h
2390 10-07-2003 21:45:02 25.2 C 8.38 g/m*3 25.2 C 0 km/h
2391 10-07-2003 21:55:02 24 C 8.27 g/m*3 24 C 0 km/h
2392 10-07-2003 22:05:02 24 C 8.27 g/m*3 24 C 0 km/h
2393 10-07-2003 22:15:02 24 C 8.27 g/m*3 24 C 0 km/h
2394 10-07-2003 22:25:02 23.1 C 8.68 g/m*3 23.1 C 0 km/h
2395 10-07-2003 22:35:01 22.5 C 8.79 g/m*3 22.5 C 0 km/h
2396 10-07-2003 22:45:01 22.3 C 8.89 g/m*3 22.3 C 0 km/h
2397 10-07-2003 22:55:01 22.1 C 8.78 g/m*3 22.1 C 0 km/h
2398 10-07-2003 23:06:01 22 C 8.93 g/m*3 22 C 0 km/h
2399 10-07-2003 23:16:01 21.9 C 9.07 g/m*3 21.9 C 0 km/h
2400 10-07-2003 23:26:01 21.7 C 9.16 g/m*3 21.7 C 0 km/h
Sensor: Nr:Datum:Temp:Abs-Feuchte:Windchill:Wind:
Aussen-T/F 2401 10-07-2003 23:36:01 21.2 C 9.08 g/m*3 21.2 C 0 km/h
2402 10-07-2003 23:46:01 21 C 8.98 g/m*3 21 C 0 km/h
2403 10-07-2003 23:56:01 20.7 C 9.18 g/m*3 20.7 C 0 km/h
2404 11-07-2003 00:06:01 20.5 C 9.25 g/m*3 20.5 C 0 km/h
2405 11-07-2003 00:16:01 20.3 C 9.15 g/m*3 20.3 C 0 km/h
2406 11-07-2003 00:26:01 20 C 9.16 g/m*3 20 C 0 km/h
2407 11-07-2003 00:36:01 19.6 C 9.12 g/m*3 19.6 C 0 km/h
2408 11-07-2003 00:46:01 19.4 C 9.18 g/m*3 19.4 C 0 km/h
2409 11-07-2003 00:56:01 19 C 9.13 g/m*3 19 C 0 km/h
2410 11-07-2003 01:06:01 18.9 C 9.4 g/m*3 18.9 C 0 km/h
2411 11-07-2003 01:16:01 18.8 C 9.34 g/m*3 18.8 C 0 km/h
2412 11-07-2003 01:26:01 18.5 C 9.33 g/m*3 18.5 C 0 km/h
2413 11-07-2003 01:36:01 18.5 C 9.33 g/m*3 18.5 C 0 km/h
2414 11-07-2003 01:46:01 18.2 C 9.33 g/m*3 18.2 C 0 km/h
2415 11-07-2003 01:56:01 18.1 C 9.43 g/m*3 18.1 C 0 km/h
2416 11-07-2003 02:06:01 17.9 C 9.47 g/m*3 17.9 C 0 km/h
2417 11-07-2003 02:16:01 17.7 C 9.35 g/m*3 17.7 C 0 km/h
2418 11-07-2003 02:26:01 17.4 C 9.34 g/m*3 17.4 C 0 km/h
2419 11-07-2003 02:36:01 17.3 C 9.28 g/m*3 17.3 C 0 km/h
2420 11-07-2003 02:46:01 17.1 C 9.17 g/m*3 17.1 C 0 km/h
2421 11-07-2003 02:56:01 16.9 C 9.35 g/m*3 16.9 C 0 km/h
2422 11-07-2003 03:06:01 16.7 C 9.38 g/m*3 16.7 C 0 km/h
2423 11-07-2003 03:16:01 16.8 C 9.29 g/m*3 16.8 C 0 km/h
2424 11-07-2003 03:26:01 16.6 C 9.32 g/m*3 16.6 C 0 km/h
2425 11-07-2003 03:36:01 16.6 C 9.32 g/m*3 16.6 C 0 km/h
Sensor: Nr:Datum:Temp:Abs-Feuchte:Windchill:Wind:
Aussen-T/F 2426 11-07-2003 03:46:01 16.4 C 9.21 g/m*3 16.4 C 0 km/h
2427 11-07-2003 03:56:01 16.2 C 9.1 g/m*3 16.2 C 0 km/h
2428 11-07-2003 04:06:01 16.1 C 9.05 g/m*3 16.1 C 0 km/h
2429 11-07-2003 04:16:01 16 C 9.13 g/m*3 16 C 0 km/h
2430 11-07-2003 04:26:01 15.8 C 9.29 g/m*3 15.8 C 0 km/h
2431 11-07-2003 04:36:01 15.7 C 9.1 g/m*3 15.7 C 0 km/h
2432 11-07-2003 04:46:01 15.3 C 9.01 g/m*3 15.3 C 0 km/h
2433 11-07-2003 04:56:01 15.3 C 9.01 g/m*3 15.3 C 0 km/h
2434 11-07-2003 05:06:01 15 C 9.1 g/m*3 15 C 0 km/h
2435 11-07-2003 05:16:01 14.9 C 9.3 g/m*3 14.9 C 0 km/h
2436 11-07-2003 05:26:01 14.8 C 9.12 g/m*3 14.8 C 0 km/h
2437 11-07-2003 05:36:01 14.8 C 9.12 g/m*3 14.8 C 0 km/h
2438 11-07-2003 05:46:01 14.6 C 9.26 g/m*3 14.6 C 0 km/h
2439 11-07-2003 05:56:01 14.6 C 9.13 g/m*3 14.6 C 0 km/h
2440 11-07-2003 06:06:01 14.7 C 9.19 g/m*3 14.7 C 0 km/h
2441 11-07-2003 06:16:01 14.6 C 9.13 g/m*3 14.6 C 0 km/h
2442 11-07-2003 06:26:01 14.2 C 9.28 g/m*3 14.2 C 0 km/h
2443 11-07-2003 06:36:01 14.3 C 9.34 g/m*3 14.3 C 0 km/h
2444 11-07-2003 06:46:01 14.5 C 9.45 g/m*3 14.5 C 0 km/h
2445 11-07-2003 06:56:01 14.5 C 9.45 g/m*3 14.5 C 0 km/h
2446 11-07-2003 07:06:01 14.7 C 9.44 g/m*3 14.7 C 0 km/h
2447 11-07-2003 07:16:01 14.8 C 9.5 g/m*3 14.8 C 0 km/h
2448 11-07-2003 07:26:01 14.8 C 9.37 g/m*3 14.8 C 0 km/h
2449 11-07-2003 07:36:01 15.1 C 9.55 g/m*3 15.1 C 0 km/h
2450 11-07-2003 07:46:01 15.4 C 9.59 g/m*3 15.4 C 0 km/h
Sensor: Nr:Datum:Temp:Abs-Feuchte:Windchill:Wind:
Aussen-T/F 2451 11-07-2003 07:56:01 15.6 C 9.58 g/m*3 15.6 C 0 km/h
2452 11-07-2003 08:06:01 15.8 C 9.56 g/m*3 15.8 C 0 km/h
2453 11-07-2003 08:16:01 16 C 9.4 g/m*3 16 C 0 km/h
2454 11-07-2003 08:26:01 16.2 C 9.52 g/m*3 16.2 C 0 km/h
2455 11-07-2003 08:36:01 16.7 C 9.66 g/m*3 16.7 C 0 km/h
2456 11-07-2003 08:46:01 17 C 9.84 g/m*3 17 C 0 km/h
2457 11-07-2003 08:56:01 17.7 C 9.96 g/m*3 17.7 C 0 km/h
2458 11-07-2003 09:06:02 17.7 C 9.96 g/m*3 17.7 C 0 km/h
2459 11-07-2003 09:16:02 18.4 C 9.91 g/m*3 18.4 C 0 km/h
2460 11-07-2003 09:26:02 19.2 C 10.06 g/m*3 19.2 C 0 km/h
2461 11-07-2003 09:36:01 20 C 10.2 g/m*3 20 C 0 km/h
2462 11-07-2003 09:46:01 20.7 C 10.26 g/m*3 20.7 C 0 km/h
2463 11-07-2003 09:56:01 21.2 C 10.19 g/m*3 21.2 C 0 km/h
2464 11-07-2003 10:06:01 21.9 C 10.42 g/m*3 21.9 C 0 km/h
2465 11-07-2003 10:16:01 22.8 C 10.36 g/m*3 22.8 C 0 km/h
2466 11-07-2003 10:26:01 23.3 C 10.25 g/m*3 23.3 C 0 km/h
2467 11-07-2003 10:36:01 24.2 C 9.46 g/m*3 24.2 C 0 km/h
2468 11-07-2003 10:46:01 25.3 C 9.36 g/m*3 25.3 C 0 km/h
2469 11-07-2003 10:56:01 25 C 8.98 g/m*3 25 C 0 km/h
2470 11-07-2003 11:06:01 25.5 C 9.94 g/m*3 25.5 C 0 km/h
2471 11-07-2003 11:16:01 25.9 C 9.2 g/m*3 25.9 C 0 km/h
2472 11-07-2003 11:26:01 25.9 C 10.41 g/m*3 25.9 C 0 km/h
2473 11-07-2003 11:36:02 27.3 C 9.94 g/m*3 27.3 C 0 km/h
2474 11-07-2003 11:46:02 27.3 C 9.42 g/m*3 27.3 C 0 km/h
2475 11-07-2003 11:56:02 27.9 C 10.28 g/m*3 27.9 C 0 km/h
Sensor: Nr:Datum:Temp:Abs-Feuchte:Windchill:Wind:
Aussen-T/F 2476 11-07-2003 12:06:02 28.8 C 9.38 g/m*3 28.8 C 0 km/h
2477 11-07-2003 12:16:02 29.3 C 9.34 g/m*3 29.3 C 0 km/h
2478 11-07-2003 12:26:02 30 C 9.4 g/m*3 30 C 0 km/h
2479 11-07-2003 12:36:01 28.7 C 9.32 g/m*3 28.7 C 0 km/h
2480 11-07-2003 12:46:01 28.8 C 9.66 g/m*3 28.8 C 0 km/h
2481 11-07-2003 12:56:01 29.2 C 9.87 g/m*3 29.2 C 0 km/h
2482 11-07-2003 13:06:02 28.8 C 10.51 g/m*3 28.8 C 0 km/h
2483 11-07-2003 13:16:02 28.5 C 9.78 g/m*3 28.5 C 0 km/h
2484 11-07-2003 13:26:02 29.2 C 9.58 g/m*3 29.2 C 0 km/h
2485 11-07-2003 13:36:01 29.7 C 10.44 g/m*3 29.7 C 0 km/h
2486 11-07-2003 13:46:01 30.1 C 9.45 g/m*3 30.1 C 0 km/h
2487 11-07-2003 13:56:01 29.5 C 9.44 g/m*3 29.5 C 0 km/h
2488 11-07-2003 14:06:02 30.2 C 9.2 g/m*3 30.2 C 0 km/h
2489 11-07-2003 14:16:02 30 C 9.1 g/m*3 30 C 0 km/h
2490 11-07-2003 14:26:02 30.2 C 9.81 g/m*3 30.2 C 0 km/h
2491 11-07-2003 14:36:01 30.1 C 9.45 g/m*3 30.1 C 0 km/h
2492 11-07-2003 14:46:01 30.2 C 9.5 g/m*3 30.2 C 0 km/h
2493 11-07-2003 14:56:01 29.6 C 10.09 g/m*3 29.6 C 0 km/h
2494 11-07-2003 15:06:01 29.8 C 9 g/m*3 29.8 C 0 km/h
2495 11-07-2003 15:16:01 30 C 10.01 g/m*3 30 C 0 km/h
2496 11-07-2003 15:26:01 29.3 C 10.51 g/m*3 29.3 C 0 km/h
2497 11-07-2003 15:36:00 29.2 C 9.87 g/m*3 29.2 C 0 km/h
2498 11-07-2003 15:46:00 28.7 C 11.02 g/m*3 28.7 C 0 km/h
2499 11-07-2003 15:56:00 28.6 C 10.96 g/m*3 28.6 C 0 km/h
2500 11-07-2003 16:06:00 28.8 C 11.08 g/m*3 28.8 C 0 km/h
Sensor: Nr:Datum:Temp:Abs-Feuchte:Windchill:Wind:
Aussen-T/F 2501 11-07-2003 16:16:00 28.8 C 11.36 g/m*3 28.8 C 0 km/h
2502 11-07-2003 16:26:00 29.8 C 10.5 g/m*3 29.8 C 0 km/h
2503 11-07-2003 16:36:01 29.8 C 11.1 g/m*3 29.8 C 0 km/h
2504 11-07-2003 16:46:01 28.7 C 11.87 g/m*3 28.7 C 0 km/h
2505 11-07-2003 16:56:01 26.6 C 14.1 g/m*3 26.6 C 0 km/h
2506 11-07-2003 17:06:01 26.1 C 12.98 g/m*3 26.1 C 0 km/h
2507 11-07-2003 17:16:01 27.3 C 12.82 g/m*3 27.3 C 0 km/h
2508 11-07-2003 17:26:01 27.7 C 12.84 g/m*3 27.7 C 0 km/h
2509 11-07-2003 17:36:01 28.1 C 12.58 g/m*3 28.1 C 0 km/h
2510 11-07-2003 17:46:01 28.7 C 12.72 g/m*3 28.7 C 0 km/h
2511 11-07-2003 17:56:01 28.1 C 12.58 g/m*3 28.1 C 0 km/h
2512 11-07-2003 18:06:02 27.8 C 12.64 g/m*3 27.8 C 0 km/h
2513 11-07-2003 18:16:02 28.3 C 11.06 g/m*3 28.3 C 0 km/h
2514 11-07-2003 18:26:02 28.3 C 11.06 g/m*3 28.3 C 0 km/h
2515 11-07-2003 18:36:01 28.3 C 11.06 g/m*3 28.3 C 0 km/h
2516 11-07-2003 18:46:01 29.5 C 10.03 g/m*3 29.5 C 0 km/h
2517 11-07-2003 18:56:01 29.6 C 10.09 g/m*3 29.6 C 0 km/h
2518 11-07-2003 19:06:00 29.6 C 10.09 g/m*3 29.6 C 0 km/h
2519 11-07-2003 19:16:00 29.8 C 10.2 g/m*3 29.8 C 0 km/h
2520 11-07-2003 19:26:00 29.7 C 9.85 g/m*3 29.7 C 0 km/h
2521 11-07-2003 19:36:00 29.2 C 10.16 g/m*3 29.2 C 0 km/h
2522 11-07-2003 19:46:00 28.6 C 9.84 g/m*3 28.6 C 0 km/h
2523 11-07-2003 19:56:00 28.3 C 9.68 g/m*3 28.3 C 0 km/h
2524 11-07-2003 20:06:01 28.4 C 10.01 g/m*3 28.4 C 0 km/h
2525 11-07-2003 20:16:01 28.6 C 10.4 g/m*3 28.6 C 0 km/h
Sensor: Nr:Datum:Temp:Abs-Feuchte:Windchill:Wind:
Aussen-T/F 2526 11-07-2003 20:26:01 28.3 C 10.51 g/m*3 28.3 C 0 km/h
2527 11-07-2003 20:36:01 27.6 C 10.64 g/m*3 27.6 C 0 km/h
2528 11-07-2003 20:46:01 27.4 C 10.79 g/m*3 27.4 C 0 km/h
2529 11-07-2003 20:56:01 26.8 C 10.94 g/m*3 26.8 C 0 km/h
2530 11-07-2003 21:06:01 26.4 C 10.95 g/m*3 26.4 C 0 km/h
2531 11-07-2003 21:16:01 26.2 C 10.83 g/m*3 26.2 C 0 km/h
2532 11-07-2003 21:26:01 26 C 11.2 g/m*3 26 C 0 km/h
2533 11-07-2003 21:36:01 25.8 C 11.32 g/m*3 25.8 C 0 km/h
2534 11-07-2003 21:46:01 25.4 C 11.54 g/m*3 25.4 C 0 km/h
2535 11-07-2003 21:56:01 25.1 C 11.57 g/m*3 25.1 C 0 km/h
2536 11-07-2003 22:06:01 24.7 C 12.22 g/m*3 24.7 C 0 km/h
2537 11-07-2003 22:16:01 24.3 C 12.39 g/m*3 24.3 C 0 km/h
2538 11-07-2003 22:26:01 24.2 C 12.54 g/m*3 24.2 C 0 km/h
2539 11-07-2003 22:37:02 23.8 C 12.69 g/m*3 23.8 C 0 km/h
2540 11-07-2003 22:47:02 23.7 C 12.62 g/m*3 23.7 C 0 km/h
2541 11-07-2003 22:57:02 23.5 C 12.48 g/m*3 23.5 C 0 km/h
2542 11-07-2003 23:07:02 23.4 C 12.2 g/m*3 23.4 C 0 km/h
2543 11-07-2003 23:17:02 23.4 C 11.99 g/m*3 23.4 C 0 km/h
2544 11-07-2003 23:27:02 22.9 C 11.65 g/m*3 22.9 C 0 km/h
2545 11-07-2003 23:37:02 22.7 C 11.52 g/m*3 22.7 C 0 km/h
2546 11-07-2003 23:47:02 22.5 C 11.19 g/m*3 22.5 C 0 km/h
2547 11-07-2003 23:57:02 22 C 11.06 g/m*3 22 C 0 km/h
2548 12-07-2003 00:07:02 21.9 C 11.19 g/m*3 21.9 C 0 km/h
2549 12-07-2003 00:17:02 21.7 C 11.06 g/m*3 21.7 C 0 km/h
2550 12-07-2003 00:27:02 21.4 C 11.06 g/m*3 21.4 C 0 km/h
Sensor: Nr:Datum:Temp:Abs-Feuchte:Windchill:Wind:
Aussen-T/F 2551 12-07-2003 00:37:02 21.8 C 11.13 g/m*3 21.8 C 0 km/h
2552 12-07-2003 00:47:02 21.2 C 10.19 g/m*3 21.2 C 0 km/h
2553 12-07-2003 00:57:02 21.1 C 10.32 g/m*3 21.1 C 0 km/h
2554 12-07-2003 01:07:02 20.9 C 10.38 g/m*3 20.9 C 0 km/h
2555 12-07-2003 01:17:02 20.7 C 10.26 g/m*3 20.7 C 0 km/h
2556 12-07-2003 01:27:02 20.3 C 10.2 g/m*3 20.3 C 0 km/h
2557 12-07-2003 01:37:02 19.7 C 10.19 g/m*3 19.7 C 0 km/h
2558 12-07-2003 01:47:02 19.5 C 10.24 g/m*3 19.5 C 0 km/h
2559 12-07-2003 01:57:02 19.2 C 10.06 g/m*3 19.2 C 0 km/h
2560 12-07-2003 02:07:02 19 C 9.94 g/m*3 19 C 0 km/h
2561 12-07-2003 02:17:02 18.7 C 10.09 g/m*3 18.7 C 0 km/h
2562 12-07-2003 02:27:02 18.5 C 9.65 g/m*3 18.5 C 0 km/h
2563 12-07-2003 02:37:02 18.3 C 9.54 g/m*3 18.3 C 0 km/h
2564 12-07-2003 02:47:02 18.2 C 9.48 g/m*3 18.2 C 0 km/h
2565 12-07-2003 02:57:02 18 C 9.37 g/m*3 18 C 0 km/h
2566 12-07-2003 03:07:02 17.9 C 9.47 g/m*3 17.9 C 0 km/h
2567 12-07-2003 03:17:02 17.7 C 9.35 g/m*3 17.7 C 0 km/h
2568 12-07-2003 03:27:02 17.5 C 9.24 g/m*3 17.5 C 0 km/h
2569 12-07-2003 03:37:02 17.3 C 9.13 g/m*3 17.3 C 0 km/h
2570 12-07-2003 03:47:02 17.1 C 9.03 g/m*3 17.1 C 0 km/h
2571 12-07-2003 03:57:02 16.8 C 9.15 g/m*3 16.8 C 0 km/h
2572 12-07-2003 04:07:02 16.7 C 9.1 g/m*3 16.7 C 0 km/h
2573 12-07-2003 04:17:02 16.6 C 9.18 g/m*3 16.6 C 0 km/h
2574 12-07-2003 04:27:02 16.6 C 9.18 g/m*3 16.6 C 0 km/h
2575 12-07-2003 04:37:02 16.4 C 9.07 g/m*3 16.4 C 0 km/h
Sensor: Nr:Datum:Temp:Abs-Feuchte:Windchill:Wind:
Aussen-T/F 2576 12-07-2003 04:47:02 16.3 C 9.16 g/m*3 16.3 C 0 km/h
2577 12-07-2003 04:57:02 16.2 C 9.1 g/m*3 16.2 C 0 km/h
2578 12-07-2003 05:07:02 16.1 C 9.05 g/m*3 16.1 C 0 km/h
2579 12-07-2003 05:17:02 16 C 9.13 g/m*3 16 C 0 km/h
2580 12-07-2003 05:27:02 15.9 C 9.21 g/m*3 15.9 C 0 km/h
2581 12-07-2003 05:37:02 16 C 9.13 g/m*3 16 C 0 km/h
2582 12-07-2003 05:47:02 15.9 C 9.21 g/m*3 15.9 C 0 km/h
2583 12-07-2003 05:57:02 15.9 C 9.21 g/m*3 15.9 C 0 km/h
2584 12-07-2003 06:07:02 15.9 C 9.21 g/m*3 15.9 C 0 km/h
2585 12-07-2003 06:17:02 15.7 C 9.1 g/m*3 15.7 C 0 km/h
2586 12-07-2003 06:27:02 15.7 C 9.1 g/m*3 15.7 C 0 km/h
2587 12-07-2003 06:47:02 15.7 C 9.1 g/m*3 15.7 C 0 km/h
2588 12-07-2003 06:57:02 15.9 C 9.21 g/m*3 15.9 C 0 km/h
2589 12-07-2003 07:07:02 16.1 C 9.05 g/m*3 16.1 C 0 km/h
2590 12-07-2003 07:17:02 16 C 8.86 g/m*3 16 C 0 km/h
2591 12-07-2003 07:27:02 16.3 C 8.88 g/m*3 16.3 C 0 km/h
2592 12-07-2003 07:37:02 16.7 C 8.95 g/m*3 16.7 C 0 km/h
2593 12-07-2003 07:47:02 16.9 C 9.21 g/m*3 16.9 C 0 km/h
2594 12-07-2003 07:57:02 17.1 C 8.73 g/m*3 17.1 C 0 km/h
2595 12-07-2003 08:07:02 17 C 8.54 g/m*3 17 C 0 km/h
2596 12-07-2003 08:17:02 17.2 C 8.79 g/m*3 17.2 C 0 km/h
2597 12-07-2003 08:27:02 17.7 C 8.9 g/m*3 17.7 C 0 km/h
2598 12-07-2003 08:37:02 17.7 C 8.6 g/m*3 17.7 C 0 km/h
2599 12-07-2003 08:47:02 17.8 C 8.2 g/m*3 17.8 C 0 km/h
2600 12-07-2003 08:57:02 17.7 C 8.15 g/m*3 17.7 C 0 km/h
Sensor: Nr:Datum:Temp:Abs-Feuchte:Windchill:Wind:
Aussen-T/F 2601 12-07-2003 09:07:02 17.8 C 8.2 g/m*3 17.8 C 0 km/h
2602 12-07-2003 09:17:02 17.7 C 8.15 g/m*3 17.7 C 0 km/h
2603 12-07-2003 09:27:02 17.6 C 8.1 g/m*3 17.6 C 0 km/h
2604 12-07-2003 09:37:02 18.1 C 8.03 g/m*3 18.1 C 0 km/h
2605 12-07-2003 09:47:02 17.8 C 8.2 g/m*3 17.8 C 0 km/h
2606 12-07-2003 09:57:02 18.5 C 8.07 g/m*3 18.5 C 0 km/h
2607 12-07-2003 10:07:01 19.1 C 8.03 g/m*3 19.1 C 0 km/h
2608 12-07-2003 10:17:01 20.4 C 8.14 g/m*3 20.4 C 0 km/h
2609 12-07-2003 10:27:01 20.9 C 8.01 g/m*3 20.9 C 0 km/h
2610 12-07-2003 10:37:01 19.7 C 7.64 g/m*3 19.7 C 0 km/h
2611 12-07-2003 10:47:01 20.4 C 7.96 g/m*3 20.4 C 0 km/h
2612 12-07-2003 10:57:01 20.6 C 7.52 g/m*3 20.6 C 0 km/h
2613 12-07-2003 11:07:01 20.8 C 7.42 g/m*3 20.8 C 0 km/h
2614 12-07-2003 11:17:01 21 C 7.33 g/m*3 21 C 0 km/h
2615 12-07-2003 11:27:01 20.8 C 7.6 g/m*3 20.8 C 0 km/h
2616 12-07-2003 11:37:01 21.7 C 7.82 g/m*3 21.7 C 0 km/h
2617 12-07-2003 11:47:01 22 C 7.18 g/m*3 22 C 0 km/h
2618 12-07-2003 11:57:01 22.9 C 7.56 g/m*3 22.9 C 0 km/h
2619 12-07-2003 12:07:02 23.5 C 7.19 g/m*3 23.5 C 0 km/h
2620 12-07-2003 12:17:02 24 C 6.96 g/m*3 24 C 0 km/h
2621 12-07-2003 12:27:02 24 C 6.74 g/m*3 24 C 0 km/h
2622 12-07-2003 12:37:01 23.5 C 6.77 g/m*3 23.5 C 0 km/h
2623 12-07-2003 12:47:01 24.2 C 6.82 g/m*3 24.2 C 0 km/h
2624 12-07-2003 12:57:01 24.7 C 6.34 g/m*3 24.7 C 0 km/h
2625 12-07-2003 13:07:01 25.5 C 6.39 g/m*3 25.5 C 0 km/h
Sensor: Nr:Datum:Temp:Abs-Feuchte:Windchill:Wind:
Aussen-T/F 2626 12-07-2003 13:17:01 26 C 6.33 g/m*3 26 C 0 km/h
2627 12-07-2003 13:27:01 25.5 C 6.16 g/m*3 25.5 C 0 km/h
2628 12-07-2003 13:37:01 27 C 6.69 g/m*3 27 C 0 km/h
2629 12-07-2003 13:47:01 27.5 C 6.08 g/m*3 27.5 C 0 km/h
2630 12-07-2003 13:57:01 26.1 C 6.12 g/m*3 26.1 C 0 km/h
2631 12-07-2003 14:07:01 25.8 C 6.02 g/m*3 25.8 C 0 km/h
2632 12-07-2003 14:17:01 26.5 C 6.51 g/m*3 26.5 C 0 km/h
2633 12-07-2003 14:27:01 27.4 C 7.1 g/m*3 27.4 C 0 km/h
2634 12-07-2003 14:37:02 27.1 C 6.47 g/m*3 27.1 C 0 km/h
2635 12-07-2003 14:47:02 27.9 C 6.76 g/m*3 27.9 C 0 km/h
2636 12-07-2003 14:57:02 27.8 C 6.72 g/m*3 27.8 C 0 km/h
2637 12-07-2003 15:07:02 27.6 C 6.65 g/m*3 27.6 C 0 km/h
2638 12-07-2003 15:17:02 27 C 6.69 g/m*3 27 C 0 km/h
2639 12-07-2003 15:27:02 27.7 C 6.95 g/m*3 27.7 C 0 km/h
2640 12-07-2003 15:37:01 27.6 C 6.65 g/m*3 27.6 C 0 km/h
2641 12-07-2003 15:47:01 27.5 C 6.61 g/m*3 27.5 C 0 km/h
2642 12-07-2003 15:57:01 28.2 C 6.6 g/m*3 28.2 C 0 km/h
2643 12-07-2003 16:07:01 28.4 C 6.12 g/m*3 28.4 C 0 km/h
2644 12-07-2003 16:17:01 27.9 C 6.76 g/m*3 27.9 C 0 km/h
2645 12-07-2003 16:27:01 28.1 C 6.56 g/m*3 28.1 C 0 km/h
2646 12-07-2003 16:37:01 28 C 6.53 g/m*3 28 C 0 km/h
2647 12-07-2003 16:47:01 28.8 C 6.53 g/m*3 28.8 C 0 km/h
2648 12-07-2003 16:57:01 29.1 C 6.93 g/m*3 29.1 C 0 km/h
2649 12-07-2003 17:07:02 27 C 6.43 g/m*3 27 C 0 km/h
2650 12-07-2003 17:17:02 27.8 C 6.72 g/m*3 27.8 C 0 km/h
Sensor: Nr:Datum:Temp:Abs-Feuchte:Windchill:Wind:
Aussen-T/F 2651 12-07-2003 17:27:02 27 C 6.43 g/m*3 27 C 0 km/h
2652 12-07-2003 17:37:01 27.6 C 6.65 g/m*3 27.6 C 0 km/h
2653 12-07-2003 17:47:01 27.7 C 6.69 g/m*3 27.7 C 0 km/h
2654 12-07-2003 17:57:01 28.1 C 6.56 g/m*3 28.1 C 0 km/h
2655 12-07-2003 18:07:01 28.3 C 6.36 g/m*3 28.3 C 0 km/h
2656 12-07-2003 18:17:01 27.9 C 6.76 g/m*3 27.9 C 0 km/h
2657 12-07-2003 18:27:01 28.4 C 6.67 g/m*3 28.4 C 0 km/h
2658 12-07-2003 18:37:01 28 C 6.53 g/m*3 28 C 0 km/h
2659 12-07-2003 18:47:01 28.2 C 6.87 g/m*3 28.2 C 0 km/h
2660 12-07-2003 18:57:01 27 C 6.43 g/m*3 27 C 0 km/h
2661 12-07-2003 19:07:00 27 C 6.69 g/m*3 27 C 0 km/h
2662 12-07-2003 19:17:00 27.2 C 6.51 g/m*3 27.2 C 0 km/h
2663 12-07-2003 19:27:00 26.6 C 6.54 g/m*3 26.6 C 0 km/h
2664 12-07-2003 19:37:01 26 C 6.57 g/m*3 26 C 0 km/h
2665 12-07-2003 19:47:01 26.1 C 6.85 g/m*3 26.1 C 0 km/h
2666 12-07-2003 19:57:01 26.3 C 6.93 g/m*3 26.3 C 0 km/h
2667 12-07-2003 20:07:02 26 C 6.82 g/m*3 26 C 0 km/h
2668 12-07-2003 20:17:02 25.9 C 7.02 g/m*3 25.9 C 0 km/h
2669 12-07-2003 20:27:02 26.1 C 6.85 g/m*3 26.1 C 0 km/h
2670 12-07-2003 20:37:01 25.7 C 7.18 g/m*3 25.7 C 0 km/h
2671 12-07-2003 20:47:01 24.4 C 6.9 g/m*3 24.4 C 0 km/h
2672 12-07-2003 20:57:01 23.6 C 7.02 g/m*3 23.6 C 0 km/h
2673 12-07-2003 21:07:02 22.9 C 7.36 g/m*3 22.9 C 0 km/h
2674 12-07-2003 21:17:02 22.8 C 7.32 g/m*3 22.8 C 0 km/h
2675 12-07-2003 21:27:02 22.7 C 7.48 g/m*3 22.7 C 0 km/h
Sensor: Nr:Datum:Temp:Abs-Feuchte:Windchill:Wind:
Aussen-T/F 2676 12-07-2003 21:37:01 22.6 C 7.83 g/m*3 22.6 C 0 km/h
2677 12-07-2003 21:47:01 22.1 C 7.81 g/m*3 22.1 C 0 km/h
2678 12-07-2003 21:57:01 21.8 C 7.87 g/m*3 21.8 C 0 km/h
2679 12-07-2003 22:07:01 21.4 C 7.87 g/m*3 21.4 C 0 km/h
2680 12-07-2003 22:17:01 21.1 C 7.74 g/m*3 21.1 C 0 km/h
2681 12-07-2003 22:27:01 20.9 C 8.01 g/m*3 20.9 C 0 km/h
2682 12-07-2003 22:38:01 20.6 C 8.05 g/m*3 20.6 C 0 km/h
2683 12-07-2003 22:48:01 19.9 C 8.08 g/m*3 19.9 C 0 km/h
2684 12-07-2003 22:58:01 19.5 C 8.06 g/m*3 19.5 C 0 km/h
2685 12-07-2003 23:08:01 19.4 C 8.18 g/m*3 19.4 C 0 km/h
2686 12-07-2003 23:18:01 19.3 C 8.13 g/m*3 19.3 C 0 km/h
2687 12-07-2003 23:28:01 19.3 C 7.96 g/m*3 19.3 C 0 km/h
2688 12-07-2003 23:38:01 19.1 C 7.87 g/m*3 19.1 C 0 km/h
2689 12-07-2003 23:48:01 18.9 C 8.1 g/m*3 18.9 C 0 km/h
2690 12-07-2003 23:58:01 18.7 C 8.17 g/m*3 18.7 C 0 km/h
2691 13-07-2003 00:08:01 18.3 C 8.13 g/m*3 18.3 C 0 km/h
2692 13-07-2003 00:18:01 18.2 C 8.08 g/m*3 18.2 C 0 km/h
2693 13-07-2003 00:28:01 18 C 8.14 g/m*3 18 C 0 km/h
2694 13-07-2003 00:38:01 17.9 C 8.24 g/m*3 17.9 C 0 km/h
2695 13-07-2003 00:48:01 17.8 C 8.2 g/m*3 17.8 C 0 km/h
2696 13-07-2003 00:58:01 17.6 C 8.25 g/m*3 17.6 C 0 km/h
2697 13-07-2003 01:08:01 17.4 C 8.15 g/m*3 17.4 C 0 km/h
2698 13-07-2003 01:18:01 17.2 C 8.2 g/m*3 17.2 C 0 km/h
2699 13-07-2003 01:28:01 16.9 C 8.49 g/m*3 16.9 C 0 km/h
2700 13-07-2003 01:38:01 16.7 C 8.53 g/m*3 16.7 C 0 km/h
Sensor: Nr:Datum:Temp:Abs-Feuchte:Windchill:Wind:
Aussen-T/F 2701 13-07-2003 01:48:01 16.6 C 8.48 g/m*3 16.6 C 0 km/h
2702 13-07-2003 01:58:01 16.3 C 8.46 g/m*3 16.3 C 0 km/h
2703 13-07-2003 02:08:01 16 C 8.58 g/m*3 16 C 0 km/h
2704 13-07-2003 02:18:01 15.8 C 8.62 g/m*3 15.8 C 0 km/h
2705 13-07-2003 02:28:01 15.7 C 8.56 g/m*3 15.7 C 0 km/h
2706 13-07-2003 02:38:01 15.7 C 8.56 g/m*3 15.7 C 0 km/h
2707 13-07-2003 02:48:01 15.5 C 8.59 g/m*3 15.5 C 0 km/h
2708 13-07-2003 02:58:01 15.2 C 8.57 g/m*3 15.2 C 0 km/h
2709 13-07-2003 03:08:01 15 C 8.46 g/m*3 15 C 0 km/h
2710 13-07-2003 03:18:01 15 C 8.46 g/m*3 15 C 0 km/h
2711 13-07-2003 03:28:01 14.8 C 8.61 g/m*3 14.8 C 0 km/h
2712 13-07-2003 03:38:01 14.7 C 8.56 g/m*3 14.7 C 0 km/h
2713 13-07-2003 03:48:01 14.5 C 8.58 g/m*3 14.5 C 0 km/h
2714 13-07-2003 03:58:01 14.3 C 8.6 g/m*3 14.3 C 0 km/h
2715 13-07-2003 04:08:01 14.2 C 8.55 g/m*3 14.2 C 0 km/h
2716 13-07-2003 04:18:01 13.8 C 8.7 g/m*3 13.8 C 0 km/h
2717 13-07-2003 04:28:01 13.7 C 8.64 g/m*3 13.7 C 0 km/h
2718 13-07-2003 04:38:01 13.7 C 8.64 g/m*3 13.7 C 0 km/h
2719 13-07-2003 04:48:01 13.6 C 8.71 g/m*3 13.6 C 0 km/h
2720 13-07-2003 04:58:01 13.5 C 8.54 g/m*3 13.5 C 0 km/h
2721 13-07-2003 05:08:01 13.5 C 8.66 g/m*3 13.5 C 0 km/h
2722 13-07-2003 05:18:01 13.4 C 8.6 g/m*3 13.4 C 0 km/h
2723 13-07-2003 05:28:01 13.2 C 8.5 g/m*3 13.2 C 0 km/h
2724 13-07-2003 05:38:01 13.3 C 8.55 g/m*3 13.3 C 0 km/h
2725 13-07-2003 05:48:01 13.2 C 8.61 g/m*3 13.2 C 0 km/h
Sensor: Nr:Datum:Temp:Abs-Feuchte:Windchill:Wind:
Aussen-T/F 2726 13-07-2003 05:58:01 13 C 8.62 g/m*3 13 C 0 km/h
2727 13-07-2003 06:08:01 13 C 8.62 g/m*3 13 C 0 km/h
2728 13-07-2003 06:18:01 12.8 C 8.74 g/m*3 12.8 C 0 km/h
2729 13-07-2003 06:28:01 12.8 C 8.85 g/m*3 12.8 C 0 km/h
2730 13-07-2003 06:38:01 12.7 C 8.79 g/m*3 12.7 C 0 km/h
2731 13-07-2003 06:48:01 12.7 C 8.79 g/m*3 12.7 C 0 km/h
2732 13-07-2003 06:58:01 13 C 8.85 g/m*3 13 C 0 km/h
2733 13-07-2003 07:08:01 13.1 C 8.9 g/m*3 13.1 C 0 km/h
2734 13-07-2003 07:18:01 13.2 C 8.84 g/m*3 13.2 C 0 km/h
2735 13-07-2003 07:28:01 13.4 C 8.95 g/m*3 13.4 C 0 km/h
2736 13-07-2003 07:38:01 13.7 C 9 g/m*3 13.7 C 0 km/h
2737 13-07-2003 07:48:01 13.8 C 8.82 g/m*3 13.8 C 0 km/h
2738 13-07-2003 07:58:01 14 C 8.81 g/m*3 14 C 0 km/h
2739 13-07-2003 08:08:01 14.4 C 9.02 g/m*3 14.4 C 0 km/h
2740 13-07-2003 08:18:01 14.7 C 9.07 g/m*3 14.7 C 0 km/h
2741 13-07-2003 08:28:01 14.8 C 9.12 g/m*3 14.8 C 0 km/h
2742 13-07-2003 08:38:01 15.1 C 9.03 g/m*3 15.1 C 0 km/h
2743 13-07-2003 08:48:01 15.6 C 9.31 g/m*3 15.6 C 0 km/h
2744 13-07-2003 08:58:01 16.2 C 9.38 g/m*3 16.2 C 0 km/h
2745 13-07-2003 09:08:01 16.6 C 9.32 g/m*3 16.6 C 0 km/h
2746 13-07-2003 09:18:01 17 C 9.26 g/m*3 17 C 0 km/h
2747 13-07-2003 09:28:01 17.7 C 9.51 g/m*3 17.7 C 0 km/h
2748 13-07-2003 09:38:01 18 C 9.37 g/m*3 18 C 0 km/h
2749 13-07-2003 09:48:01 18.7 C 9.45 g/m*3 18.7 C 0 km/h
2750 13-07-2003 09:58:01 19.4 C 9.68 g/m*3 19.4 C 0 km/h
Sensor: Nr:Datum:Temp:Abs-Feuchte:Windchill:Wind:
Aussen-T/F 2751 13-07-2003 10:08:01 20.1 C 9.73 g/m*3 20.1 C 0 km/h
2752 13-07-2003 10:18:01 20.8 C 9.42 g/m*3 20.8 C 0 km/h
2753 13-07-2003 10:28:01 21.1 C 9.03 g/m*3 21.1 C 0 km/h
2754 13-07-2003 10:38:01 21.7 C 9.16 g/m*3 21.7 C 0 km/h
2755 13-07-2003 10:48:01 22.2 C 8.83 g/m*3 22.2 C 0 km/h
2756 13-07-2003 10:58:01 22.5 C 8.79 g/m*3 22.5 C 0 km/h
2757 13-07-2003 11:08:02 22.7 C 8.89 g/m*3 22.7 C 0 km/h
2758 13-07-2003 11:18:02 22.9 C 8.79 g/m*3 22.9 C 0 km/h
2759 13-07-2003 11:28:02 23.3 C 8.78 g/m*3 23.3 C 0 km/h
2760 13-07-2003 11:38:02 23 C 8.43 g/m*3 23 C 0 km/h
2761 13-07-2003 11:48:02 23.2 C 8.11 g/m*3 23.2 C 0 km/h
2762 13-07-2003 11:58:02 24.1 C 8.31 g/m*3 24.1 C 0 km/h
2763 13-07-2003 12:08:03 24.6 C 7.88 g/m*3 24.6 C 0 km/h
2764 13-07-2003 12:18:03 25.6 C 7.62 g/m*3 25.6 C 0 km/h
2765 13-07-2003 12:28:03 25.8 C 7.22 g/m*3 25.8 C 0 km/h
2766 13-07-2003 12:38:01 26.6 C 7.3 g/m*3 26.6 C 0 km/h
2767 13-07-2003 12:48:01 27.6 C 6.92 g/m*3 27.6 C 0 km/h
2768 13-07-2003 12:58:01 27.6 C 6.92 g/m*3 27.6 C 0 km/h
2769 13-07-2003 13:08:02 27.6 C 6.12 g/m*3 27.6 C 0 km/h
2770 13-07-2003 13:18:02 29 C 6.61 g/m*3 29 C 0 km/h
2771 13-07-2003 13:28:02 28.7 C 5.65 g/m*3 28.7 C 0 km/h
2772 13-07-2003 13:38:01 29.8 C 6 g/m*3 29.8 C 0 km/h
2773 13-07-2003 13:48:01 30.3 C 6.16 g/m*3 30.3 C 0 km/h
2774 13-07-2003 13:58:01 30 C 6.06 g/m*3 30 C 0 km/h
2775 13-07-2003 14:08:01 30 C 6.06 g/m*3 30 C 0 km/h
Sensor: Nr:Datum:Temp:Abs-Feuchte:Windchill:Wind:
Aussen-T/F 2776 13-07-2003 14:18:01 29.9 C 6.03 g/m*3 29.9 C 0 km/h
2777 13-07-2003 14:28:01 29.7 C 6.27 g/m*3 29.7 C 0 km/h
2778 13-07-2003 14:38:02 30.2 C 6.13 g/m*3 30.2 C 0 km/h
2779 13-07-2003 14:48:02 29.7 C 5.97 g/m*3 29.7 C 0 km/h
2780 13-07-2003 14:58:02 30 C 6.06 g/m*3 30 C 0 km/h
2781 13-07-2003 15:08:02 30.3 C 6.16 g/m*3 30.3 C 0 km/h
2782 13-07-2003 15:18:02 30.6 C 6.26 g/m*3 30.6 C 0 km/h
2783 13-07-2003 15:28:02 31 C 6.4 g/m*3 31 C 0 km/h
2784 13-07-2003 15:38:02 31 C 6.4 g/m*3 31 C 0 km/h
2785 13-07-2003 15:48:02 30.6 C 6.58 g/m*3 30.6 C 0 km/h
2786 13-07-2003 15:58:02 30.7 C 7.87 g/m*3 30.7 C 0 km/h
2787 13-07-2003 16:08:01 30.6 C 6.89 g/m*3 30.6 C 0 km/h
2788 13-07-2003 16:18:01 31.3 C 7.15 g/m*3 31.3 C 0 km/h
2789 13-07-2003 16:28:01 31.4 C 6.54 g/m*3 31.4 C 0 km/h
2790 13-07-2003 16:38:01 31.5 C 6.57 g/m*3 31.5 C 0 km/h
2791 13-07-2003 16:48:01 31.9 C 6.72 g/m*3 31.9 C 0 km/h
2792 13-07-2003 16:58:01 32 C 6.75 g/m*3 32 C 0 km/h
2793 13-07-2003 17:08:00 31.7 C 6.64 g/m*3 31.7 C 0 km/h
2794 13-07-2003 17:18:00 31.6 C 6.61 g/m*3 31.6 C 0 km/h
2795 13-07-2003 17:28:00 31.8 C 6.68 g/m*3 31.8 C 0 km/h
2796 13-07-2003 17:38:02 31.2 C 6.47 g/m*3 31.2 C 0 km/h
2797 13-07-2003 17:48:02 31.5 C 6.57 g/m*3 31.5 C 0 km/h
2798 13-07-2003 17:58:02 32.3 C 6.86 g/m*3 32.3 C 0 km/h
2799 13-07-2003 18:08:01 32.1 C 6.79 g/m*3 32.1 C 0 km/h
2800 13-07-2003 18:18:01 31.9 C 6.72 g/m*3 31.9 C 0 km/h
Sensor: Nr:Datum:Temp:Abs-Feuchte:Windchill:Wind:
Aussen-T/F 2801 13-07-2003 18:28:01 32 C 6.75 g/m*3 32 C 0 km/h
2802 13-07-2003 18:38:01 32.2 C 6.82 g/m*3 32.2 C 0 km/h
2803 13-07-2003 18:48:01 32.5 C 6.93 g/m*3 32.5 C 0 km/h
2804 13-07-2003 18:58:01 32.6 C 6.97 g/m*3 32.6 C 0 km/h
2805 13-07-2003 19:08:01 32.6 C 6.97 g/m*3 32.6 C 0 km/h
2806 13-07-2003 19:18:01 32.6 C 6.97 g/m*3 32.6 C 0 km/h
2807 13-07-2003 19:28:01 32.4 C 6.9 g/m*3 32.4 C 0 km/h
2808 13-07-2003 19:38:01 32 C 6.75 g/m*3 32 C 0 km/h
2809 13-07-2003 19:48:01 32 C 6.75 g/m*3 32 C 0 km/h
2810 13-07-2003 19:58:01 31.8 C 7.01 g/m*3 31.8 C 0 km/h
2811 13-07-2003 20:08:01 31.3 C 6.83 g/m*3 31.3 C 0 km/h
2812 13-07-2003 20:18:01 31 C 7.04 g/m*3 31 C 0 km/h
2813 13-07-2003 20:28:01 30.9 C 7.32 g/m*3 30.9 C 0 km/h
2814 13-07-2003 20:38:01 30.6 C 7.52 g/m*3 30.6 C 0 km/h
2815 13-07-2003 20:48:01 30.3 C 8.01 g/m*3 30.3 C 0 km/h
2816 13-07-2003 20:58:01 29.5 C 8.26 g/m*3 29.5 C 0 km/h
2817 13-07-2003 21:08:01 28.6 C 8.43 g/m*3 28.6 C 0 km/h
2818 13-07-2003 21:18:01 27.5 C 8.47 g/m*3 27.5 C 0 km/h
2819 13-07-2003 21:28:01 26.4 C 8.46 g/m*3 26.4 C 0 km/h
2820 13-07-2003 21:38:00 25.9 C 8.47 g/m*3 25.9 C 0 km/h
2821 13-07-2003 21:48:00 25.2 C 8.38 g/m*3 25.2 C 0 km/h
2822 13-07-2003 21:58:00 24.7 C 8.37 g/m*3 24.7 C 0 km/h
2823 13-07-2003 22:08:02 24.2 C 8.14 g/m*3 24.2 C 0 km/h
2824 13-07-2003 22:18:02 23.8 C 8.39 g/m*3 23.8 C 0 km/h
2825 13-07-2003 22:28:02 23.7 C 8.34 g/m*3 23.7 C 0 km/h
Sensor: Nr:Datum:Temp:Abs-Feuchte:Windchill:Wind:
Aussen-T/F 2826 13-07-2003 22:39:01 23.5 C 8.25 g/m*3 23.5 C 0 km/h
2827 13-07-2003 22:49:01 23.3 C 7.95 g/m*3 23.3 C 0 km/h
2828 13-07-2003 22:59:01 23 C 7.81 g/m*3 23 C 0 km/h
2829 13-07-2003 23:09:01 22.9 C 8.17 g/m*3 22.9 C 0 km/h
2830 13-07-2003 23:19:01 22.8 C 8.13 g/m*3 22.8 C 0 km/h
2831 13-07-2003 23:29:01 22.6 C 7.83 g/m*3 22.6 C 0 km/h
2832 13-07-2003 23:39:01 22.5 C 7.79 g/m*3 22.5 C 0 km/h
2833 13-07-2003 23:49:01 22.4 C 7.75 g/m*3 22.4 C 0 km/h
2834 13-07-2003 23:59:01 22.1 C 7.61 g/m*3 22.1 C 0 km/h
2835 14-07-2003 00:09:01 22 C 7.76 g/m*3 22 C 0 km/h
2836 14-07-2003 00:19:01 21.8 C 7.87 g/m*3 21.8 C 0 km/h
2837 14-07-2003 00:29:01 21.7 C 7.82 g/m*3 21.7 C 0 km/h
2838 14-07-2003 00:39:01 21.5 C 7.73 g/m*3 21.5 C 0 km/h
2839 14-07-2003 00:49:01 21.2 C 7.78 g/m*3 21.2 C 0 km/h
2840 14-07-2003 00:59:01 21 C 7.88 g/m*3 21 C 0 km/h
2841 14-07-2003 01:09:01 20.7 C 8.1 g/m*3 20.7 C 0 km/h
2842 14-07-2003 01:29:01 20.4 C 7.96 g/m*3 20.4 C 0 km/h
2843 14-07-2003 01:39:01 20.3 C 7.91 g/m*3 20.3 C 0 km/h
2844 14-07-2003 01:49:01 20.2 C 8.04 g/m*3 20.2 C 0 km/h
2845 14-07-2003 01:59:01 20 C 7.95 g/m*3 20 C 0 km/h
2846 14-07-2003 02:09:01 19.8 C 8.03 g/m*3 19.8 C 0 km/h
2847 14-07-2003 02:19:01 19.6 C 8.1 g/m*3 19.6 C 0 km/h
2848 14-07-2003 02:29:01 19.5 C 7.89 g/m*3 19.5 C 0 km/h
2849 14-07-2003 02:39:01 19.2 C 7.91 g/m*3 19.2 C 0 km/h
2850 14-07-2003 02:49:01 19 C 7.99 g/m*3 19 C 0 km/h
Sensor: Nr:Datum:Temp:Abs-Feuchte:Windchill:Wind:
Aussen-T/F 2851 14-07-2003 02:59:01 19 C 8.15 g/m*3 19 C 0 km/h
2852 14-07-2003 03:09:01 18.6 C 8.12 g/m*3 18.6 C 0 km/h
2853 14-07-2003 03:19:01 18.3 C 8.13 g/m*3 18.3 C 0 km/h
2854 14-07-2003 03:29:01 18 C 8.14 g/m*3 18 C 0 km/h
2855 14-07-2003 03:39:01 17.7 C 8.15 g/m*3 17.7 C 0 km/h
2856 14-07-2003 03:49:01 17.5 C 8.2 g/m*3 17.5 C 0 km/h
2857 14-07-2003 03:59:01 17.4 C 8.15 g/m*3 17.4 C 0 km/h
2858 14-07-2003 04:09:01 17.1 C 8.01 g/m*3 17.1 C 0 km/h
2859 14-07-2003 04:19:01 17 C 7.96 g/m*3 17 C 0 km/h
2860 14-07-2003 04:29:01 16.7 C 8.1 g/m*3 16.7 C 0 km/h
2861 14-07-2003 04:39:01 16.4 C 8.1 g/m*3 16.4 C 0 km/h
2862 14-07-2003 04:49:01 16.3 C 8.19 g/m*3 16.3 C 0 km/h
2863 14-07-2003 04:59:01 16.2 C 8.14 g/m*3 16.2 C 0 km/h
2864 14-07-2003 05:09:01 16 C 8.17 g/m*3 16 C 0 km/h
2865 14-07-2003 05:19:01 16 C 8.17 g/m*3 16 C 0 km/h
2866 14-07-2003 05:29:01 15.8 C 8.35 g/m*3 15.8 C 0 km/h
2867 14-07-2003 05:39:01 15.6 C 8.25 g/m*3 15.6 C 0 km/h
2868 14-07-2003 05:49:01 15.6 C 8.25 g/m*3 15.6 C 0 km/h
2869 14-07-2003 05:59:01 15.7 C 8.3 g/m*3 15.7 C 0 km/h
2870 14-07-2003 06:09:01 15.7 C 8.16 g/m*3 15.7 C 0 km/h
2871 14-07-2003 06:19:01 15.8 C 8.21 g/m*3 15.8 C 0 km/h
2872 14-07-2003 06:29:01 15.9 C 8.13 g/m*3 15.9 C 0 km/h
2873 14-07-2003 06:39:01 16.1 C 8.36 g/m*3 16.1 C 0 km/h
2874 14-07-2003 06:49:01 16 C 8.31 g/m*3 16 C 0 km/h
2875 14-07-2003 06:59:01 16 C 8.45 g/m*3 16 C 0 km/h
Sensor: Nr:Datum:Temp:Abs-Feuchte:Windchill:Wind:
Aussen-T/F 2876 14-07-2003 07:09:01 16.2 C 8.69 g/m*3 16.2 C 0 km/h
2877 14-07-2003 07:19:01 16.3 C 8.6 g/m*3 16.3 C 0 km/h
2878 14-07-2003 07:29:01 16.4 C 8.65 g/m*3 16.4 C 0 km/h
2879 14-07-2003 07:39:01 16.7 C 8.67 g/m*3 16.7 C 0 km/h
2880 14-07-2003 07:49:01 16.8 C 8.44 g/m*3 16.8 C 0 km/h
2881 14-07-2003 07:59:01 17.2 C 8.2 g/m*3 17.2 C 0 km/h
2882 14-07-2003 08:09:00 17.4 C 8.15 g/m*3 17.4 C 0 km/h
2883 14-07-2003 08:19:00 17.6 C 8.55 g/m*3 17.6 C 0 km/h
2884 14-07-2003 08:29:00 17.8 C 8.35 g/m*3 17.8 C 0 km/h
2885 14-07-2003 08:39:01 18.2 C 8.24 g/m*3 18.2 C 0 km/h
2886 14-07-2003 08:49:01 18.6 C 8.28 g/m*3 18.6 C 0 km/h
2887 14-07-2003 08:59:01 19 C 8.15 g/m*3 19 C 0 km/h
2888 14-07-2003 09:09:01 19.3 C 8.13 g/m*3 19.3 C 0 km/h
2889 14-07-2003 09:19:01 19.7 C 7.98 g/m*3 19.7 C 0 km/h
2890 14-07-2003 09:29:01 20.1 C 8 g/m*3 20.1 C 0 km/h
2891 14-07-2003 09:39:00 20.7 C 8.1 g/m*3 20.7 C 0 km/h
2892 14-07-2003 09:49:00 21.2 C 8.15 g/m*3 21.2 C 0 km/h
2893 14-07-2003 09:59:00 21.7 C 8.2 g/m*3 21.7 C 0 km/h
2894 14-07-2003 10:09:01 21.9 C 8.1 g/m*3 21.9 C 0 km/h
2895 14-07-2003 10:19:01 22.3 C 8.1 g/m*3 22.3 C 0 km/h
2896 14-07-2003 10:29:01 23.3 C 8.15 g/m*3 23.3 C 0 km/h
2897 14-07-2003 10:39:08 23.4 C 7.78 g/m*3 23.4 C 0 km/h
2898 14-07-2003 10:49:08 23.9 C 8 g/m*3 23.9 C 0 km/h
2899 14-07-2003 10:59:08 24.5 C 8.06 g/m*3 24.5 C 0 km/h
2900 14-07-2003 11:09:02 24.7 C 7.7 g/m*3 24.7 C 0 km/h
Sensor: Nr:Datum:Temp:Abs-Feuchte:Windchill:Wind:
Aussen-T/F 2901 14-07-2003 11:19:02 24.8 C 7.97 g/m*3 24.8 C 0 km/h
2902 14-07-2003 11:29:02 25.5 C 7.81 g/m*3 25.5 C 0 km/h
2903 14-07-2003 11:39:01 25.6 C 7.38 g/m*3 25.6 C 0 km/h
2904 14-07-2003 11:49:01 26.2 C 7.39 g/m*3 26.2 C 0 km/h
2905 14-07-2003 11:59:01 26.7 C 7.59 g/m*3 26.7 C 0 km/h
2906 14-07-2003 12:09:01 26.5 C 7.01 g/m*3 26.5 C 0 km/h
2907 14-07-2003 12:19:01 27.5 C 7.14 g/m*3 27.5 C 0 km/h
2908 14-07-2003 12:29:01 28.3 C 6.91 g/m*3 28.3 C 0 km/h
2909 14-07-2003 12:39:01 28.4 C 6.39 g/m*3 28.4 C 0 km/h
2910 14-07-2003 12:49:01 28.8 C 6.25 g/m*3 28.8 C 0 km/h
2911 14-07-2003 12:59:01 28.9 C 6 g/m*3 28.9 C 0 km/h
2912 14-07-2003 13:09:02 29.7 C 6.27 g/m*3 29.7 C 0 km/h
2913 14-07-2003 13:19:02 30 C 6.37 g/m*3 30 C 0 km/h
2914 14-07-2003 13:29:02 30.4 C 6.51 g/m*3 30.4 C 0 km/h
2915 14-07-2003 13:39:01 30.6 C 6.26 g/m*3 30.6 C 0 km/h
2916 14-07-2003 13:49:01 30.5 C 6.23 g/m*3 30.5 C 0 km/h
2917 14-07-2003 13:59:01 30.4 C 6.2 g/m*3 30.4 C 0 km/h
2918 14-07-2003 14:09:02 30.6 C 6.26 g/m*3 30.6 C 0 km/h
2919 14-07-2003 14:19:02 30.6 C 6.26 g/m*3 30.6 C 0 km/h
2920 14-07-2003 14:29:02 30.4 C 6.51 g/m*3 30.4 C 0 km/h
2921 14-07-2003 14:39:01 30.6 C 6.26 g/m*3 30.6 C 0 km/h
2922 14-07-2003 14:49:01 31.1 C 6.43 g/m*3 31.1 C 0 km/h
2923 14-07-2003 14:59:01 31 C 6.4 g/m*3 31 C 0 km/h
2924 14-07-2003 15:09:01 31.3 C 6.5 g/m*3 31.3 C 0 km/h
2925 14-07-2003 15:19:01 31.3 C 6.5 g/m*3 31.3 C 0 km/h
Sensor: Nr:Datum:Temp:Abs-Feuchte:Windchill:Wind:
Aussen-T/F 2926 14-07-2003 15:29:01 31.4 C 6.54 g/m*3 31.4 C 0 km/h
2927 14-07-2003 15:39:01 31.7 C 6.64 g/m*3 31.7 C 0 km/h
2928 14-07-2003 15:49:01 31.8 C 6.68 g/m*3 31.8 C 0 km/h
2929 14-07-2003 15:59:01 31.8 C 6.68 g/m*3 31.8 C 0 km/h
2930 14-07-2003 16:09:02 31.6 C 6.61 g/m*3 31.6 C 0 km/h
2931 14-07-2003 16:19:02 31.6 C 6.61 g/m*3 31.6 C 0 km/h
2932 14-07-2003 16:29:02 31.8 C 6.68 g/m*3 31.8 C 0 km/h
2933 14-07-2003 16:39:01 32.2 C 6.82 g/m*3 32.2 C 0 km/h
2934 14-07-2003 16:49:01 31.9 C 6.72 g/m*3 31.9 C 0 km/h
2935 14-07-2003 16:59:01 32.4 C 6.9 g/m*3 32.4 C 0 km/h
2936 14-07-2003 17:09:02 32.9 C 7.08 g/m*3 32.9 C 0 km/h
2937 14-07-2003 17:19:02 33 C 7.12 g/m*3 33 C 0 km/h
2938 14-07-2003 17:29:02 33.1 C 7.16 g/m*3 33.1 C 0 km/h
2939 14-07-2003 17:39:02 33.2 C 7.2 g/m*3 33.2 C 0 km/h
2940 14-07-2003 17:49:02 33.1 C 7.16 g/m*3 33.1 C 0 km/h
2941 14-07-2003 17:59:02 33 C 7.12 g/m*3 33 C 0 km/h
2942 14-07-2003 18:09:01 33.1 C 7.16 g/m*3 33.1 C 0 km/h
2943 14-07-2003 18:19:01 33.1 C 7.16 g/m*3 33.1 C 0 km/h
2944 14-07-2003 18:29:01 32.9 C 7.08 g/m*3 32.9 C 0 km/h
2945 14-07-2003 18:39:01 33 C 7.12 g/m*3 33 C 0 km/h
2946 14-07-2003 18:49:01 33 C 7.12 g/m*3 33 C 0 km/h
2947 14-07-2003 18:59:01 32.9 C 7.08 g/m*3 32.9 C 0 km/h
2948 14-07-2003 19:09:01 32.7 C 7.01 g/m*3 32.7 C 0 km/h
2949 14-07-2003 19:19:01 32.7 C 7.01 g/m*3 32.7 C 0 km/h
2950 14-07-2003 19:29:01 32.5 C 6.93 g/m*3 32.5 C 0 km/h
Sensor: Nr:Datum:Temp:Abs-Feuchte:Windchill:Wind:
Aussen-T/F 2951 14-07-2003 19:39:01 32.6 C 6.97 g/m*3 32.6 C 0 km/h
2952 14-07-2003 19:49:01 32 C 6.75 g/m*3 32 C 0 km/h
2953 14-07-2003 19:59:01 32 C 6.75 g/m*3 32 C 0 km/h
2954 14-07-2003 20:09:01 31.9 C 6.72 g/m*3 31.9 C 0 km/h
2955 14-07-2003 20:19:01 31.8 C 6.68 g/m*3 31.8 C 0 km/h
2956 14-07-2003 20:29:01 31.4 C 6.54 g/m*3 31.4 C 0 km/h
2957 14-07-2003 20:39:01 31.4 C 6.54 g/m*3 31.4 C 0 km/h
2958 14-07-2003 20:49:01 30.8 C 6.65 g/m*3 30.8 C 0 km/h
2959 14-07-2003 20:59:01 30.3 C 6.78 g/m*3 30.3 C 0 km/h
2960 14-07-2003 21:09:01 29 C 7.18 g/m*3 29 C 0 km/h
2961 14-07-2003 21:19:01 27.5 C 6.88 g/m*3 27.5 C 0 km/h
2962 14-07-2003 21:29:01 26.6 C 7.05 g/m*3 26.6 C 0 km/h
2963 14-07-2003 21:39:01 26.1 C 6.85 g/m*3 26.1 C 0 km/h
2964 14-07-2003 21:49:01 25.7 C 6.94 g/m*3 25.7 C 0 km/h
2965 14-07-2003 21:59:01 25.3 C 6.79 g/m*3 25.3 C 0 km/h
2966 14-07-2003 22:10:01 24.7 C 6.79 g/m*3 24.7 C 0 km/h
2967 14-07-2003 22:20:01 24.4 C 6.9 g/m*3 24.4 C 0 km/h
2968 14-07-2003 22:30:01 24.1 C 6.78 g/m*3 24.1 C 0 km/h
2969 14-07-2003 22:40:01 23.9 C 6.92 g/m*3 23.9 C 0 km/h
2970 14-07-2003 22:50:01 23.7 C 7.06 g/m*3 23.7 C 0 km/h
2971 14-07-2003 23:00:01 23.2 C 7.48 g/m*3 23.2 C 0 km/h
2972 14-07-2003 23:10:01 23.1 C 7.23 g/m*3 23.1 C 0 km/h
2973 14-07-2003 23:20:01 22.8 C 7.72 g/m*3 22.8 C 0 km/h
2974 14-07-2003 23:30:01 22.6 C 7.43 g/m*3 22.6 C 0 km/h
2975 14-07-2003 23:40:01 22.3 C 7.31 g/m*3 22.3 C 0 km/h
Sensor: Nr:Datum:Temp:Abs-Feuchte:Windchill:Wind:
Aussen-T/F 2976 14-07-2003 23:50:01 22 C 7.96 g/m*3 22 C 0 km/h
2977 15-07-2003 00:00:01 21.7 C 7.82 g/m*3 21.7 C 0 km/h
2978 15-07-2003 00:10:01 21.6 C 7.97 g/m*3 21.6 C 0 km/h
2979 15-07-2003 00:20:01 21.4 C 8.06 g/m*3 21.4 C 0 km/h
2980 15-07-2003 00:30:01 20.9 C 8.2 g/m*3 20.9 C 0 km/h
2981 15-07-2003 00:40:01 20.8 C 8.33 g/m*3 20.8 C 0 km/h
2982 15-07-2003 00:50:01 20.7 C 8.46 g/m*3 20.7 C 0 km/h
2983 15-07-2003 01:00:01 20.7 C 8.46 g/m*3 20.7 C 0 km/h
2984 15-07-2003 01:10:01 20.5 C 8.36 g/m*3 20.5 C 0 km/h
2985 15-07-2003 01:20:01 20.6 C 8.41 g/m*3 20.6 C 0 km/h
2986 15-07-2003 01:30:01 20.6 C 8.41 g/m*3 20.6 C 0 km/h
2987 15-07-2003 01:40:01 20.6 C 8.41 g/m*3 20.6 C 0 km/h
2988 15-07-2003 01:50:01 20.4 C 8.31 g/m*3 20.4 C 0 km/h
2989 15-07-2003 02:00:01 20.4 C 8.31 g/m*3 20.4 C 0 km/h
2990 15-07-2003 02:10:01 20.3 C 8.27 g/m*3 20.3 C 0 km/h
2991 15-07-2003 02:20:01 20.1 C 8.17 g/m*3 20.1 C 0 km/h
2992 15-07-2003 02:30:01 19.9 C 8.25 g/m*3 19.9 C 0 km/h
2993 15-07-2003 02:40:01 19.9 C 8.25 g/m*3 19.9 C 0 km/h
2994 15-07-2003 02:50:01 19.6 C 8.27 g/m*3 19.6 C 0 km/h
2995 15-07-2003 03:00:01 19.4 C 8.18 g/m*3 19.4 C 0 km/h
2996 15-07-2003 03:10:01 19 C 8.15 g/m*3 19 C 0 km/h
2997 15-07-2003 03:20:01 18.7 C 8.17 g/m*3 18.7 C 0 km/h
2998 15-07-2003 03:30:01 18.8 C 8.21 g/m*3 18.8 C 0 km/h
2999 15-07-2003 03:40:01 18.7 C 8.17 g/m*3 18.7 C 0 km/h
3000 15-07-2003 03:50:01 18.6 C 8.12 g/m*3 18.6 C 0 km/h
Sensor: Nr:Datum:Temp:Abs-Feuchte:Windchill:Wind:
Aussen-T/F 3001 15-07-2003 04:00:01 18.5 C 8.23 g/m*3 18.5 C 0 km/h
3002 15-07-2003 04:10:01 18.4 C 8.18 g/m*3 18.4 C 0 km/h
3003 15-07-2003 04:20:01 18.3 C 8.13 g/m*3 18.3 C 0 km/h
3004 15-07-2003 04:30:01 18.2 C 8.08 g/m*3 18.2 C 0 km/h
3005 15-07-2003 04:40:01 18.2 C 8.08 g/m*3 18.2 C 0 km/h
3006 15-07-2003 04:50:01 18.1 C 8.19 g/m*3 18.1 C 0 km/h
3007 15-07-2003 05:00:01 17.9 C 8.24 g/m*3 17.9 C 0 km/h
3008 15-07-2003 05:10:01 17.7 C 8.45 g/m*3 17.7 C 0 km/h
3009 15-07-2003 05:20:01 17.3 C 8.1 g/m*3 17.3 C 0 km/h
3010 15-07-2003 05:30:01 17.3 C 8.4 g/m*3 17.3 C 0 km/h
3011 15-07-2003 05:40:01 17 C 8.39 g/m*3 17 C 0 km/h
3012 15-07-2003 05:50:01 16.8 C 8.58 g/m*3 16.8 C 0 km/h
3013 15-07-2003 06:00:01 16.6 C 8.76 g/m*3 16.6 C 0 km/h
3014 15-07-2003 06:10:01 16.4 C 8.65 g/m*3 16.4 C 0 km/h
3015 15-07-2003 06:20:01 16.4 C 8.79 g/m*3 16.4 C 0 km/h
3016 15-07-2003 06:30:01 16.4 C 8.93 g/m*3 16.4 C 0 km/h
3017 15-07-2003 06:40:01 16.3 C 9.02 g/m*3 16.3 C 0 km/h
3018 15-07-2003 06:50:01 16.3 C 9.02 g/m*3 16.3 C 0 km/h
3019 15-07-2003 07:00:01 16.8 C 9.44 g/m*3 16.8 C 0 km/h
3020 15-07-2003 07:10:01 16.4 C 9.21 g/m*3 16.4 C 0 km/h
3021 15-07-2003 07:20:01 16.6 C 9.18 g/m*3 16.6 C 0 km/h
3022 15-07-2003 07:30:01 16.6 C 9.18 g/m*3 16.6 C 0 km/h
3023 15-07-2003 07:40:01 16.9 C 9.35 g/m*3 16.9 C 0 km/h
3024 15-07-2003 07:50:01 17.2 C 9.37 g/m*3 17.2 C 0 km/h
3025 15-07-2003 08:00:01 17.5 C 9.39 g/m*3 17.5 C 0 km/h
Sensor: Nr:Datum:Temp:Abs-Feuchte:Windchill:Wind:
Aussen-T/F 3026 15-07-2003 08:10:00 17.9 C 9.62 g/m*3 17.9 C 0 km/h
3027 15-07-2003 08:20:00 18.3 C 9.38 g/m*3 18.3 C 0 km/h
3028 15-07-2003 08:30:00 18.6 C 9.39 g/m*3 18.6 C 0 km/h
3029 15-07-2003 08:40:02 18.8 C 9.34 g/m*3 18.8 C 0 km/h
3030 15-07-2003 08:50:02 19.4 C 9.18 g/m*3 19.4 C 0 km/h
3031 15-07-2003 09:00:02 19.9 C 8.76 g/m*3 19.9 C 0 km/h
3032 15-07-2003 09:10:03 20.7 C 8.64 g/m*3 20.7 C 0 km/h
3033 15-07-2003 09:20:03 21.2 C 8.52 g/m*3 21.2 C 0 km/h
3034 15-07-2003 09:30:03 21.9 C 8.68 g/m*3 21.9 C 0 km/h
3035 15-07-2003 09:40:01 22.3 C 8.69 g/m*3 22.3 C 0 km/h
3036 15-07-2003 09:50:01 22.9 C 8.79 g/m*3 22.9 C 0 km/h
3037 15-07-2003 10:00:01 23.6 C 8.51 g/m*3 23.6 C 0 km/h
3038 15-07-2003 10:10:01 24 C 8.49 g/m*3 24 C 0 km/h
3039 15-07-2003 10:20:01 24.8 C 8.65 g/m*3 24.8 C 0 km/h
3040 15-07-2003 10:30:01 25.3 C 8.43 g/m*3 25.3 C 0 km/h
3041 15-07-2003 10:40:01 26 C 8.28 g/m*3 26 C 0 km/h
3042 15-07-2003 10:50:01 26.6 C 8.05 g/m*3 26.6 C 0 km/h
3043 15-07-2003 11:00:01 26.7 C 7.59 g/m*3 26.7 C 0 km/h
3044 15-07-2003 11:10:01 27.4 C 7.37 g/m*3 27.4 C 0 km/h
3045 15-07-2003 11:20:01 27.8 C 6.99 g/m*3 27.8 C 0 km/h
3046 15-07-2003 11:30:01 28.3 C 6.91 g/m*3 28.3 C 0 km/h
3047 15-07-2003 11:40:01 28.4 C 6.95 g/m*3 28.4 C 0 km/h
3048 15-07-2003 11:50:01 29 C 6.89 g/m*3 29 C 0 km/h
3049 15-07-2003 12:00:01 29.5 C 7.08 g/m*3 29.5 C 0 km/h
3050 15-07-2003 12:10:01 29.7 C 6.56 g/m*3 29.7 C 0 km/h
Sensor: Nr:Datum:Temp:Abs-Feuchte:Windchill:Wind:
Aussen-T/F 3051 15-07-2003 12:20:01 29.9 C 6.33 g/m*3 29.9 C 0 km/h
3052 15-07-2003 12:30:01 30.3 C 6.16 g/m*3 30.3 C 0 km/h
3053 15-07-2003 12:40:00 30.6 C 6.26 g/m*3 30.6 C 0 km/h
3054 15-07-2003 12:50:00 30.6 C 6.26 g/m*3 30.6 C 0 km/h
3055 15-07-2003 13:00:00 30.9 C 6.37 g/m*3 30.9 C 0 km/h
3056 15-07-2003 13:10:01 31.3 C 6.5 g/m*3 31.3 C 0 km/h
3057 15-07-2003 13:20:01 31.9 C 6.72 g/m*3 31.9 C 0 km/h
3058 15-07-2003 13:30:01 32.3 C 6.86 g/m*3 32.3 C 0 km/h
3059 15-07-2003 13:40:01 32.3 C 6.86 g/m*3 32.3 C 0 km/h
3060 15-07-2003 13:50:01 32.4 C 6.9 g/m*3 32.4 C 0 km/h
3061 15-07-2003 14:00:01 32.3 C 6.86 g/m*3 32.3 C 0 km/h
3062 15-07-2003 14:10:02 32.1 C 6.79 g/m*3 32.1 C 0 km/h
3063 15-07-2003 14:20:02 32.2 C 6.82 g/m*3 32.2 C 0 km/h
3064 15-07-2003 14:30:02 32.1 C 6.79 g/m*3 32.1 C 0 km/h
3065 15-07-2003 14:40:01 32.1 C 6.79 g/m*3 32.1 C 0 km/h
3066 15-07-2003 14:50:01 32.4 C 6.9 g/m*3 32.4 C 0 km/h
3067 15-07-2003 15:00:01 32.7 C 7.01 g/m*3 32.7 C 0 km/h
3068 15-07-2003 15:10:01 32.5 C 6.93 g/m*3 32.5 C 0 km/h
3069 15-07-2003 15:20:01 32.8 C 7.04 g/m*3 32.8 C 0 km/h
3070 15-07-2003 15:30:01 32.8 C 7.04 g/m*3 32.8 C 0 km/h
3071 15-07-2003 15:40:02 33.1 C 7.16 g/m*3 33.1 C 0 km/h
3072 15-07-2003 15:50:02 33.2 C 7.2 g/m*3 33.2 C 0 km/h
3073 15-07-2003 16:00:02 33.3 C 7.23 g/m*3 33.3 C 0 km/h
3074 15-07-2003 16:10:00 33.5 C 7.31 g/m*3 33.5 C 0 km/h
3075 15-07-2003 16:20:00 33.7 C 7.39 g/m*3 33.7 C 0 km/h
Sensor: Nr:Datum:Temp:Abs-Feuchte:Windchill:Wind:
Aussen-T/F 3076 15-07-2003 16:30:00 33.4 C 7.27 g/m*3 33.4 C 0 km/h
3077 15-07-2003 16:40:01 33.8 C 7.43 g/m*3 33.8 C 0 km/h
3078 15-07-2003 16:50:01 34.1 C 7.54 g/m*3 34.1 C 0 km/h
3079 15-07-2003 17:00:01 34.4 C 7.66 g/m*3 34.4 C 0 km/h
3080 15-07-2003 17:10:02 34.4 C 7.66 g/m*3 34.4 C 0 km/h
3081 15-07-2003 17:20:02 34.4 C 7.66 g/m*3 34.4 C 0 km/h
3082 15-07-2003 17:30:02 34.6 C 7.74 g/m*3 34.6 C 0 km/h
3083 15-07-2003 17:40:01 34.4 C 7.66 g/m*3 34.4 C 0 km/h
3084 15-07-2003 17:50:01 34.2 C 7.58 g/m*3 34.2 C 0 km/h
3085 15-07-2003 18:00:01 34.3 C 7.62 g/m*3 34.3 C 0 km/h
3086 15-07-2003 18:10:01 34.5 C 7.7 g/m*3 34.5 C 0 km/h
3087 15-07-2003 18:20:01 34.5 C 7.7 g/m*3 34.5 C 0 km/h
3088 15-07-2003 18:30:01 34.6 C 7.74 g/m*3 34.6 C 0 km/h
3089 15-07-2003 18:40:01 34.6 C 7.74 g/m*3 34.6 C 0 km/h
3090 15-07-2003 18:50:01 34.4 C 7.66 g/m*3 34.4 C 0 km/h
3091 15-07-2003 19:00:01 34.4 C 7.66 g/m*3 34.4 C 0 km/h
3092 15-07-2003 19:10:01 34.4 C 7.66 g/m*3 34.4 C 0 km/h
3093 15-07-2003 19:20:01 34.4 C 7.66 g/m*3 34.4 C 0 km/h
3094 15-07-2003 19:30:01 34.3 C 7.62 g/m*3 34.3 C 0 km/h
3095 15-07-2003 19:40:01 34.3 C 7.62 g/m*3 34.3 C 0 km/h
3096 15-07-2003 19:50:01 34.2 C 7.58 g/m*3 34.2 C 0 km/h
3097 15-07-2003 20:10:01 33.8 C 7.43 g/m*3 33.8 C 0 km/h
3098 15-07-2003 20:20:01 33.5 C 7.31 g/m*3 33.5 C 0 km/h
3099 15-07-2003 20:30:01 33.2 C 7.2 g/m*3 33.2 C 0 km/h
3100 15-07-2003 20:40:02 32.3 C 6.86 g/m*3 32.3 C 0 km/h
Sensor: Nr:Datum:Temp:Abs-Feuchte:Windchill:Wind:
Aussen-T/F 3101 15-07-2003 20:50:02 31.7 C 6.64 g/m*3 31.7 C 0 km/h
3102 15-07-2003 21:00:02 30.9 C 7.32 g/m*3 30.9 C 0 km/h
3103 15-07-2003 21:10:02 30.3 C 7.4 g/m*3 30.3 C 0 km/h
3104 15-07-2003 21:20:02 29.7 C 7.46 g/m*3 29.7 C 0 km/h
3105 15-07-2003 21:30:02 29.2 C 7.26 g/m*3 29.2 C 0 km/h
3106 15-07-2003 21:40:02 28.8 C 7.1 g/m*3 28.8 C 0 km/h
3107 15-07-2003 21:50:02 28.3 C 7.19 g/m*3 28.3 C 0 km/h
3108 15-07-2003 22:00:02 27.9 C 7.3 g/m*3 27.9 C 0 km/h
3109 15-07-2003 22:10:01 27.6 C 7.45 g/m*3 27.6 C 0 km/h
3110 15-07-2003 22:20:01 26.9 C 7.68 g/m*3 26.9 C 0 km/h
3111 15-07-2003 22:30:01 26.7 C 7.59 g/m*3 26.7 C 0 km/h
3112 15-07-2003 22:40:01 26.5 C 7.51 g/m*3 26.5 C 0 km/h
3113 15-07-2003 22:50:01 26.2 C 7.39 g/m*3 26.2 C 0 km/h
3114 15-07-2003 23:00:01 25.9 C 7.99 g/m*3 25.9 C 0 km/h
3115 15-07-2003 23:11:02 25.6 C 7.86 g/m*3 25.6 C 0 km/h
3116 15-07-2003 23:21:02 25.4 C 8 g/m*3 25.4 C 0 km/h
3117 15-07-2003 23:31:02 25.4 C 7.77 g/m*3 25.4 C 0 km/h
3118 15-07-2003 23:41:02 25.2 C 7.92 g/m*3 25.2 C 0 km/h
3119 15-07-2003 23:51:02 24.6 C 8.1 g/m*3 24.6 C 0 km/h
3120 16-07-2003 00:01:02 24.3 C 8.19 g/m*3 24.3 C 0 km/h
3121 16-07-2003 00:11:02 24.2 C 8.14 g/m*3 24.2 C 0 km/h
3122 16-07-2003 00:21:02 24.2 C 8.14 g/m*3 24.2 C 0 km/h
3123 16-07-2003 00:31:02 24 C 8.27 g/m*3 24 C 0 km/h
3124 16-07-2003 00:41:02 23.8 C 8.39 g/m*3 23.8 C 0 km/h
3125 16-07-2003 00:51:02 23.6 C 8.51 g/m*3 23.6 C 0 km/h
Sensor: Nr:Datum:Temp:Abs-Feuchte:Windchill:Wind:
Aussen-T/F 3126 16-07-2003 01:01:02 23.3 C 8.57 g/m*3 23.3 C 0 km/h
3127 16-07-2003 01:11:02 23.2 C 8.52 g/m*3 23.2 C 0 km/h
3128 16-07-2003 01:21:02 22.8 C 8.94 g/m*3 22.8 C 0 km/h
3129 16-07-2003 01:31:02 22.4 C 8.54 g/m*3 22.4 C 0 km/h
3130 16-07-2003 01:41:02 22.3 C 8.69 g/m*3 22.3 C 0 km/h
3131 16-07-2003 01:51:02 22.1 C 8.39 g/m*3 22.1 C 0 km/h
3132 16-07-2003 02:01:02 22.2 C 8.64 g/m*3 22.2 C 0 km/h
3133 16-07-2003 02:11:02 21.9 C 8.68 g/m*3 21.9 C 0 km/h
3134 16-07-2003 02:21:02 21.7 C 8.97 g/m*3 21.7 C 0 km/h
3135 16-07-2003 02:31:02 21.5 C 8.86 g/m*3 21.5 C 0 km/h
3136 16-07-2003 02:41:02 21.3 C 8.76 g/m*3 21.3 C 0 km/h
3137 16-07-2003 02:51:02 21.2 C 8.71 g/m*3 21.2 C 0 km/h
3138 16-07-2003 03:01:02 21 C 8.79 g/m*3 21 C 0 km/h
3139 16-07-2003 03:11:02 20.7 C 9 g/m*3 20.7 C 0 km/h
3140 16-07-2003 03:21:02 20.5 C 9.07 g/m*3 20.5 C 0 km/h
3141 16-07-2003 03:31:02 20.3 C 9.15 g/m*3 20.3 C 0 km/h
3142 16-07-2003 03:41:02 20.2 C 9.09 g/m*3 20.2 C 0 km/h
3143 16-07-2003 03:51:02 20.1 C 9.04 g/m*3 20.1 C 0 km/h
3144 16-07-2003 04:01:02 19.9 C 9.28 g/m*3 19.9 C 0 km/h
3145 16-07-2003 04:11:02 19.6 C 9.28 g/m*3 19.6 C 0 km/h
3146 16-07-2003 04:21:02 19.5 C 9.23 g/m*3 19.5 C 0 km/h
3147 16-07-2003 04:31:02 19.5 C 9.23 g/m*3 19.5 C 0 km/h
3148 16-07-2003 04:41:02 19.4 C 9.34 g/m*3 19.4 C 0 km/h
3149 16-07-2003 04:51:02 19.3 C 9.12 g/m*3 19.3 C 0 km/h
3150 16-07-2003 05:01:02 19.2 C 9.23 g/m*3 19.2 C 0 km/h
Sensor: Nr:Datum:Temp:Abs-Feuchte:Windchill:Wind:
Aussen-T/F 3151 16-07-2003 05:11:02 19.1 C 9.34 g/m*3 19.1 C 0 km/h
3152 16-07-2003 05:21:02 18.9 C 9.4 g/m*3 18.9 C 0 km/h
3153 16-07-2003 05:31:02 18.8 C 9.5 g/m*3 18.8 C 0 km/h
3154 16-07-2003 05:41:02 18.7 C 9.45 g/m*3 18.7 C 0 km/h
3155 16-07-2003 05:51:02 18.6 C 9.55 g/m*3 18.6 C 0 km/h
3156 16-07-2003 06:01:02 18.7 C 9.61 g/m*3 18.7 C 0 km/h
3157 16-07-2003 06:11:02 18.7 C 9.77 g/m*3 18.7 C 0 km/h
3158 16-07-2003 06:21:02 18.8 C 9.82 g/m*3 18.8 C 0 km/h
3159 16-07-2003 06:31:02 19 C 9.78 g/m*3 19 C 0 km/h
3160 16-07-2003 06:41:02 19.2 C 9.89 g/m*3 19.2 C 0 km/h
3161 16-07-2003 06:51:02 19.3 C 9.79 g/m*3 19.3 C 0 km/h
3162 16-07-2003 07:01:02 19.7 C 9.85 g/m*3 19.7 C 0 km/h
3163 16-07-2003 07:11:02 20.1 C 9.91 g/m*3 20.1 C 0 km/h
3164 16-07-2003 07:21:02 20.4 C 10.08 g/m*3 20.4 C 0 km/h
3165 16-07-2003 07:31:02 20.7 C 10.08 g/m*3 20.7 C 0 km/h
3166 16-07-2003 07:41:02 21 C 10.26 g/m*3 21 C 0 km/h
3167 16-07-2003 07:51:02 21.1 C 10.32 g/m*3 21.1 C 0 km/h
3168 16-07-2003 08:01:02 21.3 C 10.25 g/m*3 21.3 C 0 km/h
3169 16-07-2003 08:11:01 21.5 C 10.37 g/m*3 21.5 C 0 km/h
3170 16-07-2003 08:21:01 21.8 C 10.17 g/m*3 21.8 C 0 km/h
3171 16-07-2003 08:31:01 22 C 10.09 g/m*3 22 C 0 km/h
3172 16-07-2003 08:41:01 22.2 C 10.21 g/m*3 22.2 C 0 km/h
3173 16-07-2003 08:51:01 22.5 C 9.79 g/m*3 22.5 C 0 km/h
3174 16-07-2003 09:01:01 22.9 C 9.81 g/m*3 22.9 C 0 km/h
3175 16-07-2003 09:11:01 23.2 C 9.15 g/m*3 23.2 C 0 km/h
Sensor: Nr:Datum:Temp:Abs-Feuchte:Windchill:Wind:
Aussen-T/F 3176 16-07-2003 09:21:01 23.7 C 9.41 g/m*3 23.7 C 0 km/h
3177 16-07-2003 09:31:01 24.1 C 9.19 g/m*3 24.1 C 0 km/h
3178 16-07-2003 09:41:01 24.4 C 9.12 g/m*3 24.4 C 0 km/h
3179 16-07-2003 09:51:01 24.8 C 9.33 g/m*3 24.8 C 0 km/h
3180 16-07-2003 10:01:01 25.4 C 9.42 g/m*3 25.4 C 0 km/h
3181 16-07-2003 10:11:01 26.2 C 9.6 g/m*3 26.2 C 0 km/h
3182 16-07-2003 10:21:01 26.9 C 9.47 g/m*3 26.9 C 0 km/h
3183 16-07-2003 10:31:01 27.6 C 9.31 g/m*3 27.6 C 0 km/h
3184 16-07-2003 10:41:01 28 C 8.97 g/m*3 28 C 0 km/h
3185 16-07-2003 10:51:01 28 C 8.97 g/m*3 28 C 0 km/h
3186 16-07-2003 11:01:01 28.8 C 9.09 g/m*3 28.8 C 0 km/h
3187 16-07-2003 11:11:02 29.1 C 8.95 g/m*3 29.1 C 0 km/h
3188 16-07-2003 11:21:02 29.8 C 9.3 g/m*3 29.8 C 0 km/h
3189 16-07-2003 11:31:02 30.3 C 9.25 g/m*3 30.3 C 0 km/h
3190 16-07-2003 11:41:01 30.4 C 8.99 g/m*3 30.4 C 0 km/h
3191 16-07-2003 11:51:01 31 C 8.64 g/m*3 31 C 0 km/h
3192 16-07-2003 12:01:01 31.2 C 8.41 g/m*3 31.2 C 0 km/h
3193 16-07-2003 12:11:02 31.6 C 8.26 g/m*3 31.6 C 0 km/h
3194 16-07-2003 12:21:02 31.8 C 7.35 g/m*3 31.8 C 0 km/h
3195 16-07-2003 12:31:02 31.8 C 7.35 g/m*3 31.8 C 0 km/h
3196 16-07-2003 12:41:01 31.8 C 7.68 g/m*3 31.8 C 0 km/h
3197 16-07-2003 12:51:01 32.1 C 7.47 g/m*3 32.1 C 0 km/h
3198 16-07-2003 13:01:01 32.3 C 7.2 g/m*3 32.3 C 0 km/h
3199 16-07-2003 13:11:01 32.9 C 7.08 g/m*3 32.9 C 0 km/h
3200 16-07-2003 13:21:01 33.3 C 7.23 g/m*3 33.3 C 0 km/h
Sensor: Nr:Datum:Temp:Abs-Feuchte:Windchill:Wind:
Aussen-T/F 3201 16-07-2003 13:31:01 33.3 C 7.23 g/m*3 33.3 C 0 km/h
3202 16-07-2003 13:41:01 33.7 C 7.39 g/m*3 33.7 C 0 km/h
3203 16-07-2003 13:51:01 33.9 C 7.46 g/m*3 33.9 C 0 km/h
3204 16-07-2003 14:01:01 33.6 C 7.35 g/m*3 33.6 C 0 km/h
3205 16-07-2003 14:11:01 33.8 C 7.43 g/m*3 33.8 C 0 km/h
3206 16-07-2003 14:21:01 33.8 C 7.43 g/m*3 33.8 C 0 km/h
3207 16-07-2003 14:31:01 34 C 7.5 g/m*3 34 C 0 km/h
3208 16-07-2003 14:41:01 33.8 C 7.43 g/m*3 33.8 C 0 km/h
3209 16-07-2003 14:51:01 33.5 C 7.31 g/m*3 33.5 C 0 km/h
3210 16-07-2003 15:01:01 33.7 C 7.39 g/m*3 33.7 C 0 km/h
3211 16-07-2003 15:11:01 33.8 C 7.43 g/m*3 33.8 C 0 km/h
3212 16-07-2003 15:21:01 33.9 C 7.46 g/m*3 33.9 C 0 km/h
3213 16-07-2003 15:31:01 34.2 C 7.58 g/m*3 34.2 C 0 km/h
3214 16-07-2003 15:41:01 34.4 C 7.66 g/m*3 34.4 C 0 km/h
3215 16-07-2003 15:51:01 33.8 C 7.43 g/m*3 33.8 C 0 km/h
3216 16-07-2003 16:01:01 33.9 C 7.46 g/m*3 33.9 C 0 km/h
3217 16-07-2003 16:11:01 33.9 C 7.46 g/m*3 33.9 C 0 km/h
3218 16-07-2003 16:21:01 33.8 C 7.43 g/m*3 33.8 C 0 km/h
3219 16-07-2003 16:31:01 33.8 C 7.43 g/m*3 33.8 C 0 km/h
3220 16-07-2003 16:41:01 33.8 C 7.43 g/m*3 33.8 C 0 km/h
3221 16-07-2003 16:51:01 34 C 7.5 g/m*3 34 C 0 km/h
3222 16-07-2003 17:01:01 33.9 C 7.46 g/m*3 33.9 C 0 km/h
3223 16-07-2003 17:11:02 34 C 7.5 g/m*3 34 C 0 km/h
3224 16-07-2003 17:21:02 33.7 C 7.39 g/m*3 33.7 C 0 km/h
3225 16-07-2003 17:31:02 33.5 C 7.31 g/m*3 33.5 C 0 km/h
Sensor: Nr:Datum:Temp:Abs-Feuchte:Windchill:Wind:
Aussen-T/F 3226 16-07-2003 17:41:01 33.5 C 7.31 g/m*3 33.5 C 0 km/h
3227 16-07-2003 17:51:01 33.7 C 7.39 g/m*3 33.7 C 0 km/h
3228 16-07-2003 18:01:01 33.4 C 7.27 g/m*3 33.4 C 0 km/h
3229 16-07-2003 18:11:01 <